<?xml version='1.0' encoding='UTF-8'?><gpx version="1.1" creator="JPX - https://github.com/jenetics/jpx" xmlns="http://www.topografix.com/GPX/1/1"><trk><trkseg><trkpt lat="41.66073133217196" lon="13.928857158402591"><ele>1455.0</ele><time>2026-04-11T05:37:52Z</time></trkpt><trkpt lat="41.66071399149349" lon="13.92894442884949"><ele>1455.0</ele><time>2026-04-11T05:38:07Z</time></trkpt><trkpt lat="41.66070658700604" lon="13.929032184194652"><ele>1455.0</ele><time>2026-04-11T05:38:18Z</time></trkpt><trkpt lat="41.66074623774278" lon="13.929102282538203"><ele>1455.0</ele><time>2026-04-11T05:38:28Z</time></trkpt><trkpt lat="41.66076075252634" lon="13.929194335016788"><ele>1455.0</ele><time>2026-04-11T05:38:41Z</time></trkpt><trkpt lat="41.660812652386134" lon="13.929259725164103"><ele>1455.0</ele><time>2026-04-11T05:38:58Z</time></trkpt><trkpt lat="41.66087882384659" lon="13.92932339277435"><ele>1455.0</ele><time>2026-04-11T05:39:12Z</time></trkpt><trkpt lat="41.660946848280645" lon="13.929345034782322"><ele>1455.857142857143</ele><time>2026-04-11T05:39:25Z</time></trkpt><trkpt lat="41.66101702869724" lon="13.929349636395955"><ele>1456.7142857142858</ele><time>2026-04-11T05:39:37Z</time></trkpt><trkpt lat="41.661080010150954" lon="13.92933075965579"><ele>1457.5714285714284</ele><time>2026-04-11T05:39:50Z</time></trkpt><trkpt lat="41.66114288524381" lon="13.929309911777953"><ele>1458.4285714285716</ele><time>2026-04-11T05:40:05Z</time></trkpt><trkpt lat="41.66123497963832" lon="13.929292886511751"><ele>1459.2857142857144</ele><time>2026-04-11T05:40:22Z</time></trkpt><trkpt lat="41.66129981809211" lon="13.92927803953829"><ele>1460.142857142857</ele><time>2026-04-11T05:40:33Z</time></trkpt><trkpt lat="41.66136180292208" lon="13.929310216227567"><ele>1461.0</ele><time>2026-04-11T05:40:45Z</time></trkpt><trkpt lat="41.66141704639883" lon="13.929363133788941"><ele>1464.7142857142856</ele><time>2026-04-11T05:40:56Z</time></trkpt><trkpt lat="41.661493233561416" lon="13.929358851104398"><ele>1468.4285714285716</ele><time>2026-04-11T05:41:07Z</time></trkpt><trkpt lat="41.66156298719199" lon="13.929366184769442"><ele>1472.142857142857</ele><time>2026-04-11T05:41:20Z</time></trkpt><trkpt lat="41.66155531618743" lon="13.92927975203426"><ele>1475.8571428571427</ele><time>2026-04-11T05:41:31Z</time></trkpt><trkpt lat="41.66151692207131" lon="13.929209259950722"><ele>1479.5714285714284</ele><time>2026-04-11T05:41:39Z</time></trkpt><trkpt lat="41.66147398272366" lon="13.929143996075643"><ele>1483.2857142857142</ele><time>2026-04-11T05:41:49Z</time></trkpt><trkpt lat="41.66149768610091" lon="13.929062929861884"><ele>1487.0</ele><time>2026-04-11T05:42:13Z</time></trkpt><trkpt lat="41.661566541791665" lon="13.929075602455953"><ele>1486.9999999999998</ele><time>2026-04-11T05:42:22Z</time></trkpt><trkpt lat="41.66164170657913" lon="13.929087305935237"><ele>1487.0</ele><time>2026-04-11T05:42:34Z</time></trkpt><trkpt lat="41.66171122627098" lon="13.929094431601072"><ele>1487.0</ele><time>2026-04-11T05:42:43Z</time></trkpt><trkpt lat="41.66177457739581" lon="13.92909866526456"><ele>1487.0</ele><time>2026-04-11T05:42:49Z</time></trkpt><trkpt lat="41.661840774514936" lon="13.929087534413622"><ele>1487.0</ele><time>2026-04-11T05:42:58Z</time></trkpt><trkpt lat="41.66189191688722" lon="13.929150356229565"><ele>1486.9999999999998</ele><time>2026-04-11T05:43:11Z</time></trkpt><trkpt lat="41.661939324300306" lon="13.929213987942935"><ele>1487.0</ele><time>2026-04-11T05:43:30Z</time></trkpt><trkpt lat="41.66200968918584" lon="13.92922733976792"><ele>1490.2857142857142</ele><time>2026-04-11T05:43:43Z</time></trkpt><trkpt lat="41.66208310504688" lon="13.929217987548743"><ele>1493.5714285714284</ele><time>2026-04-11T05:43:53Z</time></trkpt><trkpt lat="41.66214865000524" lon="13.929215574012677"><ele>1496.8571428571427</ele><time>2026-04-11T05:44:04Z</time></trkpt><trkpt lat="41.662215930526564" lon="13.929219572360863"><ele>1500.142857142857</ele><time>2026-04-11T05:44:11Z</time></trkpt><trkpt lat="41.662277278126766" lon="13.929196235934231"><ele>1503.4285714285716</ele><time>2026-04-11T05:44:20Z</time></trkpt><trkpt lat="41.66234671547266" lon="13.929194129785728"><ele>1506.7142857142856</ele><time>2026-04-11T05:44:28Z</time></trkpt><trkpt lat="41.66243111407667" lon="13.92919113393718"><ele>1510.0</ele><time>2026-04-11T05:44:51Z</time></trkpt><trkpt lat="41.662498159881345" lon="13.929215879993938"><ele>1509.7142857142856</ele><time>2026-04-11T05:45:01Z</time></trkpt><trkpt lat="41.66252982201968" lon="13.929289433315137"><ele>1509.4285714285716</ele><time>2026-04-11T05:45:14Z</time></trkpt><trkpt lat="41.662617526737954" lon="13.929316284279157"><ele>1509.142857142857</ele><time>2026-04-11T05:45:28Z</time></trkpt><trkpt lat="41.66267942114747" lon="13.929347634481179"><ele>1508.8571428571427</ele><time>2026-04-11T05:45:40Z</time></trkpt><trkpt lat="41.66273328438688" lon="13.929402591635158"><ele>1508.5714285714284</ele><time>2026-04-11T05:45:51Z</time></trkpt><trkpt lat="41.66278335837767" lon="13.92945853434456"><ele>1508.2857142857142</ele><time>2026-04-11T05:46:01Z</time></trkpt><trkpt lat="41.662831504598394" lon="13.929526405910707"><ele>1508.0</ele><time>2026-04-11T05:46:15Z</time></trkpt><trkpt lat="41.662876990753034" lon="13.929602427196045"><ele>1509.2857142857142</ele><time>2026-04-11T05:46:24Z</time></trkpt><trkpt lat="41.66290307116254" lon="13.929690998089786"><ele>1510.5714285714284</ele><time>2026-04-11T05:46:41Z</time></trkpt><trkpt lat="41.662933646132196" lon="13.929769366531032"><ele>1511.8571428571427</ele><time>2026-04-11T05:46:50Z</time></trkpt><trkpt lat="41.662983018195526" lon="13.929823938557414"><ele>1513.142857142857</ele><time>2026-04-11T05:47:10Z</time></trkpt><trkpt lat="41.66304432119997" lon="13.929872008490923"><ele>1514.4285714285716</ele><time>2026-04-11T05:47:18Z</time></trkpt><trkpt lat="41.66310847603682" lon="13.929865417562437"><ele>1515.7142857142856</ele><time>2026-04-11T05:47:27Z</time></trkpt><trkpt lat="41.663178743872656" lon="13.929850091063386"><ele>1517.0</ele><time>2026-04-11T05:47:35Z</time></trkpt><trkpt lat="41.663243568126504" lon="13.929826761658248"><ele>1517.0</ele><time>2026-04-11T05:47:44Z</time></trkpt><trkpt lat="41.66330926866258" lon="13.92978706805502"><ele>1517.0</ele><time>2026-04-11T05:47:51Z</time></trkpt><trkpt lat="41.66338083671814" lon="13.929787971441854"><ele>1517.0</ele><time>2026-04-11T05:47:58Z</time></trkpt><trkpt lat="41.66343341078415" lon="13.929735636993017"><ele>1517.0</ele><time>2026-04-11T05:48:06Z</time></trkpt><trkpt lat="41.663457496249976" lon="13.929642906804368"><ele>1517.0</ele><time>2026-04-11T05:48:13Z</time></trkpt><trkpt lat="41.66347810626964" lon="13.929559614699084"><ele>1517.0</ele><time>2026-04-11T05:48:19Z</time></trkpt><trkpt lat="41.66350984665068" lon="13.929482643876183"><ele>1517.0</ele><time>2026-04-11T05:48:26Z</time></trkpt><trkpt lat="41.66357303354017" lon="13.929430696816702"><ele>1515.7142857142856</ele><time>2026-04-11T05:48:33Z</time></trkpt><trkpt lat="41.66364058738304" lon="13.929394284522932"><ele>1514.4285714285716</ele><time>2026-04-11T05:48:40Z</time></trkpt><trkpt lat="41.663704631920396" lon="13.929346516254972"><ele>1513.142857142857</ele><time>2026-04-11T05:48:49Z</time></trkpt><trkpt lat="41.66375494541292" lon="13.929292928701654"><ele>1511.8571428571427</ele><time>2026-04-11T05:48:59Z</time></trkpt><trkpt lat="41.66382741440752" lon="13.929302814334534"><ele>1510.5714285714284</ele><time>2026-04-11T05:49:06Z</time></trkpt><trkpt lat="41.663886062058964" lon="13.929260479822748"><ele>1509.2857142857142</ele><time>2026-04-11T05:49:15Z</time></trkpt><trkpt lat="41.66395605905672" lon="13.929228284178045"><ele>1508.0</ele><time>2026-04-11T05:49:21Z</time></trkpt><trkpt lat="41.66401862222518" lon="13.929217532986437"><ele>1507.9999999999998</ele><time>2026-04-11T05:49:29Z</time></trkpt><trkpt lat="41.66408186482994" lon="13.92922352742862"><ele>1508.0</ele><time>2026-04-11T05:49:36Z</time></trkpt><trkpt lat="41.66415122075542" lon="13.929231662192382"><ele>1508.0</ele><time>2026-04-11T05:49:44Z</time></trkpt><trkpt lat="41.66422382232115" lon="13.929214148655545"><ele>1508.0</ele><time>2026-04-11T05:49:51Z</time></trkpt><trkpt lat="41.66430311316813" lon="13.92922060662101"><ele>1508.0</ele><time>2026-04-11T05:49:59Z</time></trkpt><trkpt lat="41.66436527169632" lon="13.92923970103483"><ele>1507.9999999999998</ele><time>2026-04-11T05:50:08Z</time></trkpt><trkpt lat="41.66443522718393" lon="13.929268917653141"><ele>1508.0</ele><time>2026-04-11T05:50:17Z</time></trkpt><trkpt lat="41.66449754474781" lon="13.929282211242773"><ele>1509.5714285714284</ele><time>2026-04-11T05:50:25Z</time></trkpt><trkpt lat="41.66456806692643" lon="13.92929449836212"><ele>1511.142857142857</ele><time>2026-04-11T05:50:33Z</time></trkpt><trkpt lat="41.66463349972454" lon="13.929320961885796"><ele>1512.7142857142858</ele><time>2026-04-11T05:50:40Z</time></trkpt><trkpt lat="41.66469657263283" lon="13.929353330852555"><ele>1514.2857142857142</ele><time>2026-04-11T05:50:46Z</time></trkpt><trkpt lat="41.66476393337377" lon="13.929383139222985"><ele>1515.857142857143</ele><time>2026-04-11T05:50:53Z</time></trkpt><trkpt lat="41.66481698271491" lon="13.929430777175902"><ele>1517.4285714285713</ele><time>2026-04-11T05:51:01.999Z</time></trkpt><trkpt lat="41.664871278241954" lon="13.929478309588225"><ele>1519.0</ele><time>2026-04-11T05:51:08.999Z</time></trkpt><trkpt lat="41.66493270732931" lon="13.929525728872342"><ele>1519.0</ele><time>2026-04-11T05:51:17Z</time></trkpt><trkpt lat="41.664996812081355" lon="13.929565147600652"><ele>1519.0</ele><time>2026-04-11T05:51:25Z</time></trkpt><trkpt lat="41.6650641920604" lon="13.929585511073672"><ele>1519.0</ele><time>2026-04-11T05:51:33Z</time></trkpt><trkpt lat="41.66512519293349" lon="13.929633289482478"><ele>1519.0</ele><time>2026-04-11T05:51:42Z</time></trkpt><trkpt lat="41.66518913425081" lon="13.929671226729825"><ele>1519.0</ele><time>2026-04-11T05:51:51Z</time></trkpt><trkpt lat="41.6652566388029" lon="13.929705236792593"><ele>1519.0</ele><time>2026-04-11T05:52:00Z</time></trkpt><trkpt lat="41.66531603340433" lon="13.929737623821431"><ele>1519.0</ele><time>2026-04-11T05:52:08Z</time></trkpt><trkpt lat="41.66537375764033" lon="13.929772514331727"><ele>1520.142857142857</ele><time>2026-04-11T05:52:16Z</time></trkpt><trkpt lat="41.66542354640062" lon="13.929827009956004"><ele>1521.2857142857142</ele><time>2026-04-11T05:52:25Z</time></trkpt><trkpt lat="41.66548898773001" lon="13.929809527680117"><ele>1522.4285714285716</ele><time>2026-04-11T05:52:33Z</time></trkpt><trkpt lat="41.665554295316404" lon="13.929832374535525"><ele>1523.5714285714284</ele><time>2026-04-11T05:52:41Z</time></trkpt><trkpt lat="41.665617651927654" lon="13.929845119568363"><ele>1524.7142857142858</ele><time>2026-04-11T05:52:49Z</time></trkpt><trkpt lat="41.66568323181022" lon="13.929879011044187"><ele>1525.857142857143</ele><time>2026-04-11T05:52:57Z</time></trkpt><trkpt lat="41.66574516147174" lon="13.929912210905334"><ele>1527.0</ele><time>2026-04-11T05:53:07.999Z</time></trkpt><trkpt lat="41.66581021283192" lon="13.929907830979495"><ele>1527.0</ele><time>2026-04-11T05:53:15.999Z</time></trkpt><trkpt lat="41.66587228754279" lon="13.92993637481253"><ele>1527.0</ele><time>2026-04-11T05:53:28Z</time></trkpt><trkpt lat="41.665930938513654" lon="13.929974098777716"><ele>1527.0</ele><time>2026-04-11T05:53:35Z</time></trkpt><trkpt lat="41.66598650785585" lon="13.930024821598211"><ele>1527.0</ele><time>2026-04-11T05:53:43Z</time></trkpt><trkpt lat="41.6660440625836" lon="13.930063429404946"><ele>1527.0</ele><time>2026-04-11T05:53:52Z</time></trkpt><trkpt lat="41.666110178593705" lon="13.930094879154968"><ele>1527.0</ele><time>2026-04-11T05:54:02Z</time></trkpt><trkpt lat="41.66617139462217" lon="13.930125742109773"><ele>1527.0</ele><time>2026-04-11T05:54:12Z</time></trkpt><trkpt lat="41.66623543150462" lon="13.930154467704522"><ele>1531.0</ele><time>2026-04-11T05:54:18Z</time></trkpt><trkpt lat="41.66630106803732" lon="13.930159150906626"><ele>1535.0</ele><time>2026-04-11T05:54:28Z</time></trkpt><trkpt lat="41.66636553505084" lon="13.930203529457623"><ele>1539.0</ele><time>2026-04-11T05:54:36Z</time></trkpt><trkpt lat="41.66642774767187" lon="13.930223190696816"><ele>1543.0</ele><time>2026-04-11T05:54:43Z</time></trkpt><trkpt lat="41.66649991854969" lon="13.930243584786112"><ele>1547.0</ele><time>2026-04-11T05:54:51Z</time></trkpt><trkpt lat="41.666566055606964" lon="13.930243647427599"><ele>1551.0</ele><time>2026-04-11T05:54:59Z</time></trkpt><trkpt lat="41.66662934803381" lon="13.930278605280618"><ele>1555.0</ele><time>2026-04-11T05:55:08.999Z</time></trkpt><trkpt lat="41.666694425439346" lon="13.930303509455786"><ele>1555.0</ele><time>2026-04-11T05:55:21.999Z</time></trkpt><trkpt lat="41.66675778533596" lon="13.930315528878255"><ele>1555.0</ele><time>2026-04-11T05:55:32Z</time></trkpt><trkpt lat="41.6668195538662" lon="13.930336694924486"><ele>1555.0</ele><time>2026-04-11T05:55:41Z</time></trkpt><trkpt lat="41.66688328260457" lon="13.93035958879532"><ele>1555.0</ele><time>2026-04-11T05:55:50Z</time></trkpt><trkpt lat="41.66695131974434" lon="13.930346214206267"><ele>1555.0</ele><time>2026-04-11T05:56:03Z</time></trkpt><trkpt lat="41.66701351554523" lon="13.930365627086019"><ele>1555.0</ele><time>2026-04-11T05:56:12Z</time></trkpt><trkpt lat="41.66707644501559" lon="13.930396034699942"><ele>1555.0</ele><time>2026-04-11T05:56:21Z</time></trkpt><trkpt lat="41.66714005182858" lon="13.930395357067518"><ele>1555.4285714285716</ele><time>2026-04-11T05:56:29Z</time></trkpt><trkpt lat="41.66719917011254" lon="13.930356507554137"><ele>1555.857142857143</ele><time>2026-04-11T05:56:40Z</time></trkpt><trkpt lat="41.667265918676854" lon="13.930353209278099"><ele>1556.2857142857142</ele><time>2026-04-11T05:56:49Z</time></trkpt><trkpt lat="41.667329192279254" lon="13.93035178475126"><ele>1556.7142857142858</ele><time>2026-04-11T05:56:59Z</time></trkpt><trkpt lat="41.66738963759842" lon="13.930325165758944"><ele>1557.142857142857</ele><time>2026-04-11T05:57:08Z</time></trkpt><trkpt lat="41.66745616145931" lon="13.930348981705968"><ele>1557.5714285714287</ele><time>2026-04-11T05:57:19.999Z</time></trkpt><trkpt lat="41.6675246509223" lon="13.930376809116169"><ele>1558.0</ele><time>2026-04-11T05:57:30Z</time></trkpt><trkpt lat="41.66758460205969" lon="13.930342257502701"><ele>1558.0000000000002</ele><time>2026-04-11T05:57:41Z</time></trkpt><trkpt lat="41.66765308458875" lon="13.930352534487021"><ele>1558.0</ele><time>2026-04-11T05:57:50Z</time></trkpt><trkpt lat="41.66772616414216" lon="13.930347790357999"><ele>1558.0</ele><time>2026-04-11T05:58:00Z</time></trkpt><trkpt lat="41.66778740268083" lon="13.930389740648305"><ele>1558.0</ele><time>2026-04-11T05:58:13Z</time></trkpt><trkpt lat="41.66784122099181" lon="13.930341888512208"><ele>1558.0</ele><time>2026-04-11T05:58:23Z</time></trkpt><trkpt lat="41.66790328638799" lon="13.93038293231108"><ele>1558.0000000000002</ele><time>2026-04-11T05:58:34Z</time></trkpt><trkpt lat="41.66796717066732" lon="13.930415667506118"><ele>1558.0</ele><time>2026-04-11T05:58:46Z</time></trkpt><trkpt lat="41.66801442881348" lon="13.930474915657742"><ele>1558.7142857142858</ele><time>2026-04-11T05:58:56Z</time></trkpt><trkpt lat="41.668072920026916" lon="13.930430520547294"><ele>1559.4285714285716</ele><time>2026-04-11T05:59:06Z</time></trkpt><trkpt lat="41.66813548487291" lon="13.930405481524101"><ele>1560.1428571428573</ele><time>2026-04-11T05:59:16.999Z</time></trkpt><trkpt lat="41.66820019025154" lon="13.930437267244661"><ele>1560.857142857143</ele><time>2026-04-11T05:59:33.999Z</time></trkpt><trkpt lat="41.66826441119821" lon="13.930483250907805"><ele>1561.5714285714284</ele><time>2026-04-11T05:59:49Z</time></trkpt><trkpt lat="41.66831461137351" lon="13.930540202138292"><ele>1562.2857142857144</ele><time>2026-04-11T05:59:58Z</time></trkpt><trkpt lat="41.668366317047884" lon="13.930594294480215"><ele>1563.0</ele><time>2026-04-11T06:00:09Z</time></trkpt><trkpt lat="41.66841965768401" lon="13.930642698087388"><ele>1563.0</ele><time>2026-04-11T06:00:20Z</time></trkpt><trkpt lat="41.66847337544762" lon="13.930693693622453"><ele>1563.0</ele><time>2026-04-11T06:00:30Z</time></trkpt><trkpt lat="41.66852483797636" lon="13.930748630865356"><ele>1563.0</ele><time>2026-04-11T06:00:40Z</time></trkpt><trkpt lat="41.668541316596816" lon="13.930831516571184"><ele>1563.0</ele><time>2026-04-11T06:00:48Z</time></trkpt><trkpt lat="41.66855111825962" lon="13.930922810474803"><ele>1563.0</ele><time>2026-04-11T06:01:11Z</time></trkpt><trkpt lat="41.66863002666012" lon="13.930946194382633"><ele>1563.0</ele><time>2026-04-11T06:01:33.999Z</time></trkpt><trkpt lat="41.6687114773144" lon="13.93098594500744"><ele>1563.0</ele><time>2026-04-11T06:02:01Z</time></trkpt><trkpt lat="41.66878490621448" lon="13.931019913273133"><ele>1566.857142857143</ele><time>2026-04-11T06:02:21Z</time></trkpt><trkpt lat="41.66884087081055" lon="13.930956942987564"><ele>1570.7142857142856</ele><time>2026-04-11T06:02:42Z</time></trkpt><trkpt lat="41.66886208307174" lon="13.931039770935952"><ele>1574.5714285714284</ele><time>2026-04-11T06:02:56Z</time></trkpt><trkpt lat="41.668855406584775" lon="13.931125292231762"><ele>1578.4285714285716</ele><time>2026-04-11T06:03:21Z</time></trkpt><trkpt lat="41.66889306572403" lon="13.931197017723324"><ele>1582.2857142857142</ele><time>2026-04-11T06:03:45.999Z</time></trkpt><trkpt lat="41.66887326315513" lon="13.931279069070321"><ele>1586.142857142857</ele><time>2026-04-11T06:04:07Z</time></trkpt><trkpt lat="41.66888002384263" lon="13.931363157820991"><ele>1590.0</ele><time>2026-04-11T06:04:19Z</time></trkpt><trkpt lat="41.668903195633895" lon="13.93144217482816"><ele>1590.0</ele><time>2026-04-11T06:04:32Z</time></trkpt><trkpt lat="41.66897149504372" lon="13.931500530610736"><ele>1590.0</ele><time>2026-04-11T06:04:52Z</time></trkpt><trkpt lat="41.669033753686875" lon="13.931465756272232"><ele>1590.0</ele><time>2026-04-11T06:05:08Z</time></trkpt><trkpt lat="41.66906403664392" lon="13.93154535058167"><ele>1590.0</ele><time>2026-04-11T06:05:23Z</time></trkpt><trkpt lat="41.66909306226841" lon="13.931626673269744"><ele>1590.0</ele><time>2026-04-11T06:05:36.999Z</time></trkpt><trkpt lat="41.66913842375319" lon="13.931693376952405"><ele>1590.0</ele><time>2026-04-11T06:06:01Z</time></trkpt><trkpt lat="41.66916547426011" lon="13.931784077796339"><ele>1590.0</ele><time>2026-04-11T06:06:11Z</time></trkpt><trkpt lat="41.669207866558104" lon="13.931852428972032"><ele>1590.5714285714287</ele><time>2026-04-11T06:06:23Z</time></trkpt><trkpt lat="41.669233803103594" lon="13.931936983555513"><ele>1591.1428571428573</ele><time>2026-04-11T06:06:31Z</time></trkpt><trkpt lat="41.66928915221651" lon="13.93198375835775"><ele>1591.7142857142858</ele><time>2026-04-11T06:06:41Z</time></trkpt><trkpt lat="41.669314892533066" lon="13.93207156012372"><ele>1592.2857142857142</ele><time>2026-04-11T06:06:51Z</time></trkpt><trkpt lat="41.66936617728523" lon="13.93212670282933"><ele>1592.857142857143</ele><time>2026-04-11T06:07:06Z</time></trkpt><trkpt lat="41.669404048332325" lon="13.93220080463586"><ele>1593.4285714285713</ele><time>2026-04-11T06:07:18Z</time></trkpt><trkpt lat="41.669465034693985" lon="13.932244497434375"><ele>1594.0</ele><time>2026-04-11T06:07:33Z</time></trkpt><trkpt lat="41.66952979774981" lon="13.932264344325727"><ele>1597.5714285714284</ele><time>2026-04-11T06:08:50Z</time></trkpt><trkpt lat="41.669573638884955" lon="13.932329225404741"><ele>1601.1428571428573</ele><time>2026-04-11T06:09:02Z</time></trkpt><trkpt lat="41.66963028926198" lon="13.932376059331038"><ele>1604.7142857142858</ele><time>2026-04-11T06:10:16Z</time></trkpt><trkpt lat="41.66961986672824" lon="13.932464682526257"><ele>1608.2857142857142</ele><time>2026-04-11T06:10:50Z</time></trkpt><trkpt lat="41.66969430701047" lon="13.932499395573195"><ele>1611.8571428571427</ele><time>2026-04-11T06:25:12Z</time></trkpt><trkpt lat="41.66972009067418" lon="13.932582319877962"><ele>1615.4285714285716</ele><time>2026-04-11T06:25:25Z</time></trkpt><trkpt lat="41.669786768812045" lon="13.932612642479132"><ele>1619.0</ele><time>2026-04-11T06:25:45Z</time></trkpt><trkpt lat="41.66987608028715" lon="13.932608126611884"><ele>1618.9999999999998</ele><time>2026-04-11T06:26:09Z</time></trkpt><trkpt lat="41.669973491664514" lon="13.93262775672358"><ele>1619.0</ele><time>2026-04-11T06:26:28.999Z</time></trkpt><trkpt lat="41.6700290724544" lon="13.932671990017301"><ele>1619.0</ele><time>2026-04-11T06:26:41.999Z</time></trkpt><trkpt lat="41.6700913670595" lon="13.932700392006366"><ele>1619.0</ele><time>2026-04-11T06:26:54Z</time></trkpt><trkpt lat="41.67018148982175" lon="13.93277002558361"><ele>1618.9999999999998</ele><time>2026-04-11T06:27:19Z</time></trkpt><trkpt lat="41.670236290820306" lon="13.932814016007608"><ele>1619.0</ele><time>2026-04-11T06:27:28Z</time></trkpt><trkpt lat="41.67028549129657" lon="13.932867197341432"><ele>1624.2</ele><time>2026-04-11T06:27:43Z</time></trkpt><trkpt lat="41.67039154750054" lon="13.932935719150665"><ele>1629.4</ele><time>2026-04-11T06:28:51.999Z</time></trkpt><trkpt lat="41.67045346392344" lon="13.933039471017926"><ele>1634.6</ele><time>2026-04-11T06:29:11Z</time></trkpt><trkpt lat="41.67050734443035" lon="13.93310891393517"><ele>1639.8</ele><time>2026-04-11T06:29:29Z</time></trkpt><trkpt lat="41.67057943537331" lon="13.933170796382665"><ele>1645.0</ele><time>2026-04-11T06:29:55Z</time></trkpt><trkpt lat="41.67064531056736" lon="13.933224443442683"><ele>1645.0000000000002</ele><time>2026-04-11T06:30:09.999Z</time></trkpt><trkpt lat="41.67076153041946" lon="13.933301033266275"><ele>1645.0</ele><time>2026-04-11T06:30:37.999Z</time></trkpt><trkpt lat="41.67082628289313" lon="13.933338989151485"><ele>1645.0</ele><time>2026-04-11T06:30:50.999Z</time></trkpt><trkpt lat="41.670891997489555" lon="13.93335997910848"><ele>1645.0</ele><time>2026-04-11T06:31:05Z</time></trkpt><trkpt lat="41.67095647325462" lon="13.933388976552116"><ele>1645.0000000000002</ele><time>2026-04-11T06:31:21Z</time></trkpt><trkpt lat="41.671013920355946" lon="13.933425989779645"><ele>1645.0</ele><time>2026-04-11T06:31:32Z</time></trkpt><trkpt lat="41.67109880878824" lon="13.93344880556762"><ele>1648.8333333333335</ele><time>2026-04-11T06:31:45Z</time></trkpt><trkpt lat="41.671170573385474" lon="13.933490760134728"><ele>1652.6666666666667</ele><time>2026-04-11T06:32:01Z</time></trkpt><trkpt lat="41.671293713942745" lon="13.933506880501517"><ele>1656.5</ele><time>2026-04-11T06:32:28.999Z</time></trkpt><trkpt lat="41.671352436913175" lon="13.933539453032736"><ele>1660.3333333333335</ele><time>2026-04-11T06:32:38.999Z</time></trkpt><trkpt lat="41.671414673064774" lon="13.93356966955434"><ele>1664.1666666666667</ele><time>2026-04-11T06:32:45.999Z</time></trkpt><trkpt lat="41.67147764027741" lon="13.933595104362974"><ele>1668.0</ele><time>2026-04-11T06:32:53.999Z</time></trkpt><trkpt lat="41.6715431816286" lon="13.93361807248835"><ele>1668.0</ele><time>2026-04-11T06:32:59.999Z</time></trkpt><trkpt lat="41.67161854755375" lon="13.933632750999214"><ele>1668.0</ele><time>2026-04-11T06:33:09Z</time></trkpt><trkpt lat="41.671732042601334" lon="13.933684407568997"><ele>1668.0</ele><time>2026-04-11T06:33:31Z</time></trkpt><trkpt lat="41.671801569953" lon="13.93368222702686"><ele>1668.0</ele><time>2026-04-11T06:33:43Z</time></trkpt><trkpt lat="41.67189147587263" lon="13.933680710609137"><ele>1668.0</ele><time>2026-04-11T06:33:53Z</time></trkpt><trkpt lat="41.67196674547466" lon="13.933701177954324"><ele>1668.0</ele><time>2026-04-11T06:34:01Z</time></trkpt><trkpt lat="41.672022311847805" lon="13.933776745561616"><ele>1670.4285714285716</ele><time>2026-04-11T06:34:22.999Z</time></trkpt><trkpt lat="41.67208436478049" lon="13.93379743780337"><ele>1672.8571428571427</ele><time>2026-04-11T06:34:37.999Z</time></trkpt><trkpt lat="41.672146957432034" lon="13.933871703103282"><ele>1675.2857142857142</ele><time>2026-04-11T06:34:57.999Z</time></trkpt><trkpt lat="41.6721959821764" lon="13.933926475298309"><ele>1677.7142857142858</ele><time>2026-04-11T06:35:10.999Z</time></trkpt><trkpt lat="41.67225665474795" lon="13.933952640192462"><ele>1680.1428571428573</ele><time>2026-04-11T06:35:45Z</time></trkpt><trkpt lat="41.67228570427302" lon="13.934033646001813"><ele>1682.5714285714284</ele><time>2026-04-11T06:35:57Z</time></trkpt><trkpt lat="41.67232408764448" lon="13.934117558681212"><ele>1685.0</ele><time>2026-04-11T06:36:08Z</time></trkpt><trkpt lat="41.672370361793384" lon="13.934181696427022"><ele>1685.142857142857</ele><time>2026-04-11T06:36:16Z</time></trkpt><trkpt lat="41.67241000087547" lon="13.93424846422831"><ele>1685.2857142857144</ele><time>2026-04-11T06:36:23.999Z</time></trkpt><trkpt lat="41.67246371810134" lon="13.934304663602797"><ele>1685.4285714285716</ele><time>2026-04-11T06:36:34.999Z</time></trkpt><trkpt lat="41.67252649453381" lon="13.934334317701147"><ele>1685.5714285714284</ele><time>2026-04-11T06:36:43.999Z</time></trkpt><trkpt lat="41.67257215613339" lon="13.934404513519224"><ele>1685.7142857142858</ele><time>2026-04-11T06:36:53.999Z</time></trkpt><trkpt lat="41.67264332121182" lon="13.934425271701734"><ele>1685.857142857143</ele><time>2026-04-11T06:38:42.999Z</time></trkpt><trkpt lat="41.672702331545814" lon="13.934465725943312"><ele>1686.0</ele><time>2026-04-11T06:38:53.999Z</time></trkpt><trkpt lat="41.672757000167486" lon="13.934508750978171"><ele>1687.0</ele><time>2026-04-11T06:39:05.999Z</time></trkpt><trkpt lat="41.67281650457276" lon="13.934538905101393"><ele>1688.0</ele><time>2026-04-11T06:39:15.999Z</time></trkpt><trkpt lat="41.672878236642774" lon="13.934577677234248"><ele>1689.0</ele><time>2026-04-11T06:39:28Z</time></trkpt><trkpt lat="41.67292660301575" lon="13.934637557628308"><ele>1690.0</ele><time>2026-04-11T06:39:39Z</time></trkpt><trkpt lat="41.67298050587084" lon="13.934683270467449"><ele>1691.0</ele><time>2026-04-11T06:39:50Z</time></trkpt><trkpt lat="41.67303477162821" lon="13.934733965796923"><ele>1692.0</ele><time>2026-04-11T06:40:00Z</time></trkpt><trkpt lat="41.673122030179556" lon="13.934784467493925"><ele>1693.0</ele><time>2026-04-11T06:40:27Z</time></trkpt><trkpt lat="41.6731801442919" lon="13.934831133020081"><ele>1693.0</ele><time>2026-04-11T06:40:36.999Z</time></trkpt><trkpt lat="41.67323259190222" lon="13.9348817386566"><ele>1693.0</ele><time>2026-04-11T06:40:46.999Z</time></trkpt><trkpt lat="41.67329020777072" lon="13.934932657070846"><ele>1693.0</ele><time>2026-04-11T06:40:57.999Z</time></trkpt><trkpt lat="41.673346983953195" lon="13.934983172320683"><ele>1693.0</ele><time>2026-04-11T06:41:08.999Z</time></trkpt><trkpt lat="41.673395606200245" lon="13.935040130263523"><ele>1693.0</ele><time>2026-04-11T06:41:21.999Z</time></trkpt><trkpt lat="41.67345371035723" lon="13.93508594938228"><ele>1693.0</ele><time>2026-04-11T06:41:34Z</time></trkpt><trkpt lat="41.673495237833045" lon="13.935153299209132"><ele>1693.0</ele><time>2026-04-11T06:41:46Z</time></trkpt><trkpt lat="41.67352791175019" lon="13.935225988950764"><ele>1695.3333333333335</ele><time>2026-04-11T06:41:55Z</time></trkpt><trkpt lat="41.67356578642928" lon="13.935302276409656"><ele>1697.6666666666667</ele><time>2026-04-11T06:42:06Z</time></trkpt><trkpt lat="41.673640762321476" lon="13.93539879393031"><ele>1700.0</ele><time>2026-04-11T06:44:16Z</time></trkpt><trkpt lat="41.67367749841517" lon="13.935468416512283"><ele>1702.3333333333335</ele><time>2026-04-11T06:44:29Z</time></trkpt><trkpt lat="41.67375876770187" lon="13.935527696556708"><ele>1704.6666666666667</ele><time>2026-04-11T06:44:59.999Z</time></trkpt><trkpt lat="41.673804156304755" lon="13.935592678205238"><ele>1707.0</ele><time>2026-04-11T06:45:09.999Z</time></trkpt><trkpt lat="41.67384522277573" lon="13.935663933149192"><ele>1709.1999999999998</ele><time>2026-04-11T06:45:22.999Z</time></trkpt><trkpt lat="41.67391786730034" lon="13.935769084941922"><ele>1711.3999999999999</ele><time>2026-04-11T06:45:55Z</time></trkpt><trkpt lat="41.67397487395161" lon="13.93583473975594"><ele>1713.6000000000001</ele><time>2026-04-11T06:46:18Z</time></trkpt><trkpt lat="41.67408379218143" lon="13.935890852361155"><ele>1715.8000000000002</ele><time>2026-04-11T06:46:59.999Z</time></trkpt><trkpt lat="41.67416012961236" lon="13.935928870745139"><ele>1718.0</ele><time>2026-04-11T06:47:17.999Z</time></trkpt><trkpt lat="41.6742356405787" lon="13.935980389783802"><ele>1721.142857142857</ele><time>2026-04-11T06:47:36.999Z</time></trkpt><trkpt lat="41.67431406997041" lon="13.935995777882095"><ele>1724.2857142857142</ele><time>2026-04-11T06:47:47.999Z</time></trkpt><trkpt lat="41.67438168546034" lon="13.93601327090478"><ele>1727.4285714285716</ele><time>2026-04-11T06:48:03Z</time></trkpt><trkpt lat="41.674447440197085" lon="13.936014815342984"><ele>1730.5714285714284</ele><time>2026-04-11T06:48:18Z</time></trkpt><trkpt lat="41.674514684731385" lon="13.936028649014155"><ele>1733.7142857142858</ele><time>2026-04-11T06:48:31Z</time></trkpt><trkpt lat="41.674576856073855" lon="13.936050661364126"><ele>1736.857142857143</ele><time>2026-04-11T06:48:44Z</time></trkpt><trkpt lat="41.67464862557243" lon="13.936060627224789"><ele>1740.0</ele><time>2026-04-11T06:48:59.999Z</time></trkpt><trkpt lat="41.67472016655553" lon="13.936045521987698"><ele>1741.4285714285716</ele><time>2026-04-11T06:49:15.999Z</time></trkpt><trkpt lat="41.67479321942399" lon="13.936056349118576"><ele>1742.857142857143</ele><time>2026-04-11T06:49:31.999Z</time></trkpt><trkpt lat="41.6748577175806" lon="13.936087649375025"><ele>1744.2857142857142</ele><time>2026-04-11T06:49:42.999Z</time></trkpt><trkpt lat="41.67491519316712" lon="13.936128371294906"><ele>1745.7142857142858</ele><time>2026-04-11T06:49:58Z</time></trkpt><trkpt lat="41.67496828134518" lon="13.936182433743157"><ele>1747.142857142857</ele><time>2026-04-11T06:50:16Z</time></trkpt><trkpt lat="41.67502976671323" lon="13.936217324328588"><ele>1748.5714285714287</ele><time>2026-04-11T06:50:28Z</time></trkpt><trkpt lat="41.67508517442198" lon="13.93626676519579"><ele>1750.0</ele><time>2026-04-11T06:50:40Z</time></trkpt><trkpt lat="41.67514007346673" lon="13.93631681766866"><ele>1750.0</ele><time>2026-04-11T06:50:52.999Z</time></trkpt><trkpt lat="41.67519749863197" lon="13.936388207173637"><ele>1750.0</ele><time>2026-04-11T06:51:07.999Z</time></trkpt><trkpt lat="41.67525849400079" lon="13.936425580804423"><ele>1750.0</ele><time>2026-04-11T06:51:19.999Z</time></trkpt><trkpt lat="41.67531234492306" lon="13.936486727450704"><ele>1750.0</ele><time>2026-04-11T06:51:30.999Z</time></trkpt><trkpt lat="41.675350165759404" lon="13.936557437566433"><ele>1750.0</ele><time>2026-04-11T06:51:56.999Z</time></trkpt><trkpt lat="41.67538712008214" lon="13.936627128785535"><ele>1750.0</ele><time>2026-04-11T06:52:09Z</time></trkpt><trkpt lat="41.67543901964351" lon="13.936679778869076"><ele>1750.0</ele><time>2026-04-11T06:52:21Z</time></trkpt><trkpt lat="41.675496419093264" lon="13.93672539720641"><ele>1753.0</ele><time>2026-04-11T06:52:36Z</time></trkpt><trkpt lat="41.67555022701602" lon="13.936785189159696"><ele>1756.0</ele><time>2026-04-11T06:52:48Z</time></trkpt><trkpt lat="41.67560808601653" lon="13.936819521999043"><ele>1759.0</ele><time>2026-04-11T06:52:59.999Z</time></trkpt><trkpt lat="41.67566419542899" lon="13.93686928808617"><ele>1762.0</ele><time>2026-04-11T06:53:12.999Z</time></trkpt><trkpt lat="41.67571843671951" lon="13.936915856135828"><ele>1765.0</ele><time>2026-04-11T06:53:24.999Z</time></trkpt><trkpt lat="41.6757748091549" lon="13.936956023702631"><ele>1768.0</ele><time>2026-04-11T06:53:36.999Z</time></trkpt><trkpt lat="41.67582984807764" lon="13.93700685385809"><ele>1771.0</ele><time>2026-04-11T06:53:50.999Z</time></trkpt><trkpt lat="41.67589230409162" lon="13.937044328330243"><ele>1771.0000000000002</ele><time>2026-04-11T06:54:02.999Z</time></trkpt><trkpt lat="41.67595012954537" lon="13.937078616632338"><ele>1771.0</ele><time>2026-04-11T06:54:14Z</time></trkpt><trkpt lat="41.67601859848325" lon="13.937109400402994"><ele>1771.0</ele><time>2026-04-11T06:54:27Z</time></trkpt><trkpt lat="41.67608497175671" lon="13.9371214310769"><ele>1771.0</ele><time>2026-04-11T06:54:50Z</time></trkpt><trkpt lat="41.67616849664943" lon="13.937194797831198"><ele>1771.0000000000002</ele><time>2026-04-11T06:55:24.999Z</time></trkpt><trkpt lat="41.67625607110304" lon="13.937189382439545"><ele>1771.0</ele><time>2026-04-11T06:55:42.999Z</time></trkpt><trkpt lat="41.676326936810156" lon="13.937211518146302"><ele>1773.142857142857</ele><time>2026-04-11T06:55:58.999Z</time></trkpt><trkpt lat="41.67639014859155" lon="13.937232155952803"><ele>1775.2857142857142</ele><time>2026-04-11T06:56:11.999Z</time></trkpt><trkpt lat="41.67644760060496" lon="13.937284647766871"><ele>1777.4285714285716</ele><time>2026-04-11T06:56:32Z</time></trkpt><trkpt lat="41.6765025234177" lon="13.937334935991188"><ele>1779.5714285714284</ele><time>2026-04-11T06:56:49Z</time></trkpt><trkpt lat="41.676563406731866" lon="13.937372230849842"><ele>1781.7142857142858</ele><time>2026-04-11T06:57:01.999Z</time></trkpt><trkpt lat="41.67661982785962" lon="13.937421615066741"><ele>1783.857142857143</ele><time>2026-04-11T06:57:16.999Z</time></trkpt><trkpt lat="41.676679401610066" lon="13.937464165057643"><ele>1786.0</ele><time>2026-04-11T06:57:31.999Z</time></trkpt><trkpt lat="41.67672927114706" lon="13.937521758840916"><ele>1789.7142857142858</ele><time>2026-04-11T06:57:59.999Z</time></trkpt><trkpt lat="41.67677172529269" lon="13.937586665893162"><ele>1793.4285714285716</ele><time>2026-04-11T06:58:14.999Z</time></trkpt><trkpt lat="41.67682889608485" lon="13.93766780184391"><ele>1797.1428571428569</ele><time>2026-04-11T06:58:44Z</time></trkpt><trkpt lat="41.67687136270426" lon="13.937738259608944"><ele>1800.8571428571427</ele><time>2026-04-11T06:59:24.999Z</time></trkpt><trkpt lat="41.676806720215126" lon="13.937743830842704"><ele>1804.5714285714284</ele><time>2026-04-11T06:59:43.999Z</time></trkpt><trkpt lat="41.67674429930846" lon="13.937779350875806"><ele>1808.285714285714</ele><time>2026-04-11T06:59:54.999Z</time></trkpt><trkpt lat="41.67667844248033" lon="13.937791188741244"><ele>1811.9999999999998</ele><time>2026-04-11T07:00:12.999Z</time></trkpt><trkpt lat="41.67661422716239" lon="13.937820291793265"><ele>1811.9999999999998</ele><time>2026-04-11T07:00:28Z</time></trkpt><trkpt lat="41.67666929582218" lon="13.937887854796426"><ele>1812.0</ele><time>2026-04-11T07:01:28.999Z</time></trkpt><trkpt lat="41.67673386839822" lon="13.937909381339077"><ele>1811.9999999999998</ele><time>2026-04-11T07:01:56.999Z</time></trkpt><trkpt lat="41.676816145209095" lon="13.937933431469014"><ele>1811.9999999999998</ele><time>2026-04-11T07:03:14Z</time></trkpt><trkpt lat="41.6768893360824" lon="13.937946304307937"><ele>1812.0</ele><time>2026-04-11T07:03:58.999Z</time></trkpt><trkpt lat="41.67695906693618" lon="13.937962002193766"><ele>1811.9999999999998</ele><time>2026-04-11T07:04:22.999Z</time></trkpt><trkpt lat="41.67703142002187" lon="13.937980720611813"><ele>1811.9999999999998</ele><time>2026-04-11T07:04:33.999Z</time></trkpt><trkpt lat="41.67709675960299" lon="13.938003107159377"><ele>1814.1428571428569</ele><time>2026-04-11T07:04:45Z</time></trkpt><trkpt lat="41.677157007525004" lon="13.938029513084452"><ele>1816.2857142857142</ele><time>2026-04-11T07:04:56Z</time></trkpt><trkpt lat="41.67721897080664" lon="13.938058704986533"><ele>1818.4285714285713</ele><time>2026-04-11T07:05:06Z</time></trkpt><trkpt lat="41.67727670034473" lon="13.938106196065004"><ele>1820.5714285714284</ele><time>2026-04-11T07:05:25.999Z</time></trkpt><trkpt lat="41.67733160792319" lon="13.938148587437228"><ele>1822.7142857142858</ele><time>2026-04-11T07:05:35.999Z</time></trkpt><trkpt lat="41.677386963077836" lon="13.938193111765662"><ele>1824.857142857143</ele><time>2026-04-11T07:05:47.999Z</time></trkpt><trkpt lat="41.677430930781206" lon="13.938255781668389"><ele>1827.0</ele><time>2026-04-11T07:05:57.999Z</time></trkpt><trkpt lat="41.67748816263124" lon="13.938311906603944"><ele>1827.0</ele><time>2026-04-11T07:06:10.999Z</time></trkpt><trkpt lat="41.677542344140534" lon="13.938355000789851"><ele>1827.0</ele><time>2026-04-11T07:06:22.999Z</time></trkpt><trkpt lat="41.67760324595182" lon="13.938393285765118"><ele>1827.0</ele><time>2026-04-11T07:06:35.999Z</time></trkpt><trkpt lat="41.67766481866216" lon="13.93841849251011"><ele>1827.0</ele><time>2026-04-11T07:06:50Z</time></trkpt><trkpt lat="41.677729099340056" lon="13.93844282707563"><ele>1827.0</ele><time>2026-04-11T07:07:03Z</time></trkpt><trkpt lat="41.67777748573508" lon="13.938500134914191"><ele>1827.0</ele><time>2026-04-11T07:07:16Z</time></trkpt><trkpt lat="41.6778433119823" lon="13.93851669486183"><ele>1827.0</ele><time>2026-04-11T07:07:30.999Z</time></trkpt><trkpt lat="41.67793169238948" lon="13.93856417440665"><ele>1828.857142857143</ele><time>2026-04-11T07:07:58.999Z</time></trkpt><trkpt lat="41.67797910795092" lon="13.938621273708236"><ele>1830.7142857142858</ele><time>2026-04-11T07:08:09.999Z</time></trkpt><trkpt lat="41.67803089152953" lon="13.93867346860366"><ele>1832.5714285714284</ele><time>2026-04-11T07:08:20.999Z</time></trkpt><trkpt lat="41.67807369470785" lon="13.938742928349342"><ele>1834.4285714285713</ele><time>2026-04-11T07:08:31.999Z</time></trkpt><trkpt lat="41.67812319093144" lon="13.938799131032846"><ele>1836.2857142857142</ele><time>2026-04-11T07:08:40.999Z</time></trkpt><trkpt lat="41.6781808901049" lon="13.938840346603373"><ele>1838.1428571428569</ele><time>2026-04-11T07:08:50Z</time></trkpt><trkpt lat="41.67824353348703" lon="13.9388584804988"><ele>1839.9999999999998</ele><time>2026-04-11T07:09:01Z</time></trkpt><trkpt lat="41.67830957521004" lon="13.938869978203362"><ele>1839.9999999999998</ele><time>2026-04-11T07:09:11Z</time></trkpt><trkpt lat="41.678372982430076" lon="13.938866491818457"><ele>1840.0</ele><time>2026-04-11T07:09:22Z</time></trkpt><trkpt lat="41.678436939122605" lon="13.938843462034953"><ele>1839.9999999999998</ele><time>2026-04-11T07:09:31.999Z</time></trkpt><trkpt lat="41.678500951066646" lon="13.938811270244928"><ele>1839.9999999999998</ele><time>2026-04-11T07:09:40.999Z</time></trkpt><trkpt lat="41.67856606116374" lon="13.938789939743227"><ele>1840.0</ele><time>2026-04-11T07:09:50.999Z</time></trkpt><trkpt lat="41.678627917815035" lon="13.93876428776915"><ele>1839.9999999999998</ele><time>2026-04-11T07:09:59.999Z</time></trkpt><trkpt lat="41.67868751847433" lon="13.938736748811959"><ele>1839.9999999999998</ele><time>2026-04-11T07:10:09.999Z</time></trkpt><trkpt lat="41.67875318359573" lon="13.93871921817506"><ele>1841.285714285714</ele><time>2026-04-11T07:10:18.999Z</time></trkpt><trkpt lat="41.6788159436489" lon="13.938692298184357"><ele>1842.5714285714284</ele><time>2026-04-11T07:10:27.999Z</time></trkpt><trkpt lat="41.678880129021536" lon="13.938654540894623"><ele>1843.857142857143</ele><time>2026-04-11T07:10:37.999Z</time></trkpt><trkpt lat="41.678943499833856" lon="13.938622644332241"><ele>1845.142857142857</ele><time>2026-04-11T07:10:46.999Z</time></trkpt><trkpt lat="41.6790053799658" lon="13.93858676608068"><ele>1846.4285714285716</ele><time>2026-04-11T07:10:55Z</time></trkpt><trkpt lat="41.67906632793793" lon="13.938543966344826"><ele>1847.714285714286</ele><time>2026-04-11T07:11:04Z</time></trkpt><trkpt lat="41.67912411593219" lon="13.938495421350861"><ele>1849.0000000000002</ele><time>2026-04-11T07:11:14Z</time></trkpt><trkpt lat="41.67918171573718" lon="13.938444332852448"><ele>1849.0000000000002</ele><time>2026-04-11T07:11:24Z</time></trkpt><trkpt lat="41.67923239192371" lon="13.938392085505578"><ele>1849.0</ele><time>2026-04-11T07:11:33.999Z</time></trkpt><trkpt lat="41.67928708669846" lon="13.938339566932877"><ele>1849.0</ele><time>2026-04-11T07:11:45.999Z</time></trkpt><trkpt lat="41.679398060631016" lon="13.938273764064473"><ele>1849.0</ele><time>2026-04-11T07:14:21.999Z</time></trkpt><trkpt lat="41.679458701014255" lon="13.938246418708886"><ele>1849.0000000000002</ele><time>2026-04-11T07:14:31.999Z</time></trkpt><trkpt lat="41.679527666419766" lon="13.938217918654983"><ele>1849.0</ele><time>2026-04-11T07:14:46.999Z</time></trkpt><trkpt lat="41.67958905528812" lon="13.938189306609768"><ele>1850.714285714286</ele><time>2026-04-11T07:14:59.999Z</time></trkpt><trkpt lat="41.67964883171155" lon="13.938159211049653"><ele>1852.4285714285716</ele><time>2026-04-11T07:15:13Z</time></trkpt><trkpt lat="41.679711878963786" lon="13.938132822078543"><ele>1854.142857142857</ele><time>2026-04-11T07:15:26Z</time></trkpt><trkpt lat="41.67977831156319" lon="13.938096051041462"><ele>1855.857142857143</ele><time>2026-04-11T07:15:39Z</time></trkpt><trkpt lat="41.6798460523365" lon="13.938066482161693"><ele>1857.5714285714284</ele><time>2026-04-11T07:15:49.999Z</time></trkpt><trkpt lat="41.679906727500565" lon="13.938033916275556"><ele>1859.285714285714</ele><time>2026-04-11T07:15:59.999Z</time></trkpt><trkpt lat="41.67996944292665" lon="13.938005407623448"><ele>1860.9999999999998</ele><time>2026-04-11T07:16:10.999Z</time></trkpt><trkpt lat="41.68003072958323" lon="13.937972713492107"><ele>1860.9999999999998</ele><time>2026-04-11T07:16:20.999Z</time></trkpt><trkpt lat="41.68008877518208" lon="13.937925368882993"><ele>1861.0</ele><time>2026-04-11T07:16:30.999Z</time></trkpt><trkpt lat="41.680132574116534" lon="13.93785729194928"><ele>1860.9999999999998</ele><time>2026-04-11T07:16:41.999Z</time></trkpt><trkpt lat="41.680196767742935" lon="13.937863701252219"><ele>1860.9999999999998</ele><time>2026-04-11T07:16:53.999Z</time></trkpt><trkpt lat="41.68025762078558" lon="13.937888223427072"><ele>1861.0</ele><time>2026-04-11T07:17:03.999Z</time></trkpt><trkpt lat="41.68032232905999" lon="13.937895046072372"><ele>1860.9999999999998</ele><time>2026-04-11T07:17:17Z</time></trkpt><trkpt lat="41.68037262705345" lon="13.93783519633051"><ele>1860.9999999999998</ele><time>2026-04-11T07:17:31Z</time></trkpt><trkpt lat="41.68044104149254" lon="13.937808406116046"><ele>1864.428571428571</ele><time>2026-04-11T07:17:42.999Z</time></trkpt><trkpt lat="41.68050310674758" lon="13.937782384943137"><ele>1867.8571428571427</ele><time>2026-04-11T07:17:55.999Z</time></trkpt><trkpt lat="41.680567949026624" lon="13.93775630904629"><ele>1871.2857142857142</ele><time>2026-04-11T07:18:08.999Z</time></trkpt><trkpt lat="41.68063299206852" lon="13.937731195409967"><ele>1874.7142857142856</ele><time>2026-04-11T07:18:21.999Z</time></trkpt><trkpt lat="41.68069763336491" lon="13.937712151822327"><ele>1878.1428571428569</ele><time>2026-04-11T07:18:34.999Z</time></trkpt><trkpt lat="41.68076226449912" lon="13.937701607988108"><ele>1881.5714285714287</ele><time>2026-04-11T07:18:50.999Z</time></trkpt><trkpt lat="41.68082699814226" lon="13.937706760438882"><ele>1885.0</ele><time>2026-04-11T07:19:06.999Z</time></trkpt><trkpt lat="41.68090476081127" lon="13.937728923398153"><ele>1885.0</ele><time>2026-04-11T07:19:20Z</time></trkpt><trkpt lat="41.68095946604106" lon="13.937779630909029"><ele>1885.0</ele><time>2026-04-11T07:19:33Z</time></trkpt><trkpt lat="41.68102296090118" lon="13.937799221464791"><ele>1885.0</ele><time>2026-04-11T07:19:43Z</time></trkpt><trkpt lat="41.681077830891724" lon="13.937845019902293"><ele>1885.0</ele><time>2026-04-11T07:19:53.999Z</time></trkpt><trkpt lat="41.681120848048955" lon="13.937911836876646"><ele>1885.0</ele><time>2026-04-11T07:20:08.999Z</time></trkpt><trkpt lat="41.68118707186064" lon="13.937899360345005"><ele>1885.0</ele><time>2026-04-11T07:20:27.999Z</time></trkpt><trkpt lat="41.6812450210202" lon="13.937857456505874"><ele>1885.0</ele><time>2026-04-11T07:20:40.999Z</time></trkpt><trkpt lat="41.68131133049" lon="13.937851383138279"><ele>1889.0</ele><time>2026-04-11T07:20:53.999Z</time></trkpt><trkpt lat="41.681359857852634" lon="13.937908316508508"><ele>1893.0</ele><time>2026-04-11T07:21:06.999Z</time></trkpt><trkpt lat="41.68136496536078" lon="13.937993139046922"><ele>1897.0</ele><time>2026-04-11T07:21:19.999Z</time></trkpt><trkpt lat="41.68137621387083" lon="13.938086685821462"><ele>1901.0</ele><time>2026-04-11T07:21:45Z</time></trkpt><trkpt lat="41.681381022422194" lon="13.93817328496067"><ele>1905.0</ele><time>2026-04-11T07:21:55.999Z</time></trkpt><trkpt lat="41.681378416114654" lon="13.938261655167338"><ele>1909.0</ele><time>2026-04-11T07:22:08.999Z</time></trkpt><trkpt lat="41.681386335548744" lon="13.938375143431387"><ele>1913.0</ele><time>2026-04-11T07:22:27.999Z</time></trkpt><trkpt lat="41.68138792557042" lon="13.938469979994416"><ele>1915.9999999999998</ele><time>2026-04-11T07:22:40.999Z</time></trkpt><trkpt lat="41.68148274489279" lon="13.938529929914173"><ele>1919.0</ele><time>2026-04-11T07:23:19.999Z</time></trkpt><trkpt lat="41.68154508454038" lon="13.938504695823394"><ele>1922.0</ele><time>2026-04-11T07:23:33Z</time></trkpt><trkpt lat="41.68161745122829" lon="13.93849626785909"><ele>1925.0</ele><time>2026-04-11T07:23:51.999Z</time></trkpt><trkpt lat="41.681720701834564" lon="13.938493670284368"><ele>1927.9999999999998</ele><time>2026-04-11T07:24:15.999Z</time></trkpt><trkpt lat="41.68179035221475" lon="13.9384876889137"><ele>1931.0</ele><time>2026-04-11T07:24:29.999Z</time></trkpt><trkpt lat="41.68184480817309" lon="13.938531496362623"><ele>1930.9999999999998</ele><time>2026-04-11T07:24:46.999Z</time></trkpt><trkpt lat="41.68184684615787" lon="13.938623206199344"><ele>1931.0</ele><time>2026-04-11T07:25:00.999Z</time></trkpt><trkpt lat="41.68191337863409" lon="13.93863266921782"><ele>1930.9999999999998</ele><time>2026-04-11T07:25:16.999Z</time></trkpt><trkpt lat="41.68199402937673" lon="13.938629186505695"><ele>1930.9999999999998</ele><time>2026-04-11T07:25:33.999Z</time></trkpt><trkpt lat="41.68206361726327" lon="13.938608233363874"><ele>1931.0</ele><time>2026-04-11T07:25:52Z</time></trkpt><trkpt lat="41.68212857348402" lon="13.938599712663954"><ele>1930.9999999999998</ele><time>2026-04-11T07:26:03Z</time></trkpt><trkpt lat="41.68219267911172" lon="13.93859530179991"><ele>1930.9999999999998</ele><time>2026-04-11T07:26:17Z</time></trkpt><trkpt lat="41.68225668783601" lon="13.938580364178433"><ele>1934.4999999999998</ele><time>2026-04-11T07:26:29Z</time></trkpt><trkpt lat="41.682332650562124" lon="13.938582647485436"><ele>1938.0</ele><time>2026-04-11T07:26:51Z</time></trkpt><trkpt lat="41.68239540148185" lon="13.9385920062721"><ele>1941.5</ele><time>2026-04-11T07:27:01Z</time></trkpt><trkpt lat="41.68246321337355" lon="13.938594472363874"><ele>1945.0</ele><time>2026-04-11T07:27:11Z</time></trkpt><trkpt lat="41.6825265179275" lon="13.938600284258007"><ele>1948.4999999999998</ele><time>2026-04-11T07:27:29Z</time></trkpt><trkpt lat="41.6826456467874" lon="13.938648726635117"><ele>1952.0</ele><time>2026-04-11T07:28:34Z</time></trkpt><trkpt lat="41.68270867244295" lon="13.938684891260754"><ele>1953.7142857142853</ele><time>2026-04-11T07:28:48Z</time></trkpt><trkpt lat="41.682770644138756" lon="13.93870278072478"><ele>1955.4285714285713</ele><time>2026-04-11T07:29:01Z</time></trkpt><trkpt lat="41.68282939768054" lon="13.938734399969617"><ele>1957.1428571428569</ele><time>2026-04-11T07:29:17Z</time></trkpt><trkpt lat="41.682889319557674" lon="13.938777993597007"><ele>1958.8571428571427</ele><time>2026-04-11T07:29:30Z</time></trkpt><trkpt lat="41.68294103495573" lon="13.938830154349095"><ele>1960.5714285714284</ele><time>2026-04-11T07:29:44Z</time></trkpt><trkpt lat="41.682996560228794" lon="13.938881203874274"><ele>1962.2857142857142</ele><time>2026-04-11T07:29:58Z</time></trkpt><trkpt lat="41.68305021235473" lon="13.938953649643471"><ele>1964.0</ele><time>2026-04-11T07:30:15Z</time></trkpt><trkpt lat="41.68310402989754" lon="13.939012473472735"><ele>1964.0</ele><time>2026-04-11T07:30:27Z</time></trkpt><trkpt lat="41.68315261352358" lon="13.939068543270285"><ele>1963.9999999999998</ele><time>2026-04-11T07:30:38Z</time></trkpt><trkpt lat="41.683202151993754" lon="13.939126729394149"><ele>1964.0</ele><time>2026-04-11T07:30:50Z</time></trkpt><trkpt lat="41.68325095622498" lon="13.939192650475585"><ele>1964.0</ele><time>2026-04-11T07:31:02Z</time></trkpt><trkpt lat="41.68329747583598" lon="13.939257907231394"><ele>1963.9999999999998</ele><time>2026-04-11T07:31:15Z</time></trkpt><trkpt lat="41.68335063476643" lon="13.939315393573695"><ele>1964.0</ele><time>2026-04-11T07:31:27Z</time></trkpt><trkpt lat="41.68340058879825" lon="13.939368279331392"><ele>1964.0</ele><time>2026-04-11T07:31:40Z</time></trkpt><trkpt lat="41.683454672179295" lon="13.939412767175336"><ele>1965.4285714285713</ele><time>2026-04-11T07:31:54Z</time></trkpt><trkpt lat="41.68351575740048" lon="13.939442152061098"><ele>1966.8571428571427</ele><time>2026-04-11T07:32:08Z</time></trkpt><trkpt lat="41.68357487736606" lon="13.93948252370791"><ele>1968.2857142857142</ele><time>2026-04-11T07:34:46Z</time></trkpt><trkpt lat="41.68362923334761" lon="13.939528103134313"><ele>1969.7142857142858</ele><time>2026-04-11T07:34:57Z</time></trkpt><trkpt lat="41.68368866360515" lon="13.939568449610562"><ele>1971.142857142857</ele><time>2026-04-11T07:35:06Z</time></trkpt><trkpt lat="41.68374690125485" lon="13.939617412257915"><ele>1972.5714285714284</ele><time>2026-04-11T07:35:17Z</time></trkpt><trkpt lat="41.683803205062716" lon="13.939668387907545"><ele>1974.0</ele><time>2026-04-11T07:35:28Z</time></trkpt><trkpt lat="41.68385407708846" lon="13.939718141014717"><ele>1975.2857142857142</ele><time>2026-04-11T07:35:38Z</time></trkpt><trkpt lat="41.683894642657094" lon="13.939785452854217"><ele>1976.5714285714284</ele><time>2026-04-11T07:35:48Z</time></trkpt><trkpt lat="41.68392835533662" lon="13.939861901689332"><ele>1977.857142857143</ele><time>2026-04-11T07:35:58Z</time></trkpt><trkpt lat="41.683944508444355" lon="13.939944319167417"><ele>1979.142857142857</ele><time>2026-04-11T07:36:07Z</time></trkpt><trkpt lat="41.683964068993106" lon="13.940033787829615"><ele>1980.4285714285713</ele><time>2026-04-11T07:36:17Z</time></trkpt><trkpt lat="41.68397689107915" lon="13.940123442826081"><ele>1981.7142857142858</ele><time>2026-04-11T07:36:28Z</time></trkpt><trkpt lat="41.68397735893048" lon="13.940213638041596"><ele>1983.0</ele><time>2026-04-11T07:36:40Z</time></trkpt><trkpt lat="41.68397151416153" lon="13.940305901589987"><ele>1984.2857142857142</ele><time>2026-04-11T07:36:51Z</time></trkpt><trkpt lat="41.68397819878218" lon="13.940392107310323"><ele>1985.5714285714284</ele><time>2026-04-11T07:37:02Z</time></trkpt><trkpt lat="41.68398835911248" lon="13.940478216669211"><ele>1986.8571428571427</ele><time>2026-04-11T07:37:12Z</time></trkpt><trkpt lat="41.68400660297027" lon="13.940562921421462"><ele>1988.142857142857</ele><time>2026-04-11T07:37:25Z</time></trkpt><trkpt lat="41.68402948987943" lon="13.940642353809494"><ele>1989.428571428571</ele><time>2026-04-11T07:37:37Z</time></trkpt><trkpt lat="41.68405884419886" lon="13.940725060549871"><ele>1990.7142857142856</ele><time>2026-04-11T07:37:49Z</time></trkpt><trkpt lat="41.68408941334556" lon="13.940805672575886"><ele>1992.0</ele><time>2026-04-11T07:38:01Z</time></trkpt><trkpt lat="41.68411852356378" lon="13.940881500945355"><ele>1991.0</ele><time>2026-04-11T07:38:13Z</time></trkpt><trkpt lat="41.6841510923748" lon="13.940957317549323"><ele>1989.9999999999998</ele><time>2026-04-11T07:38:26Z</time></trkpt><trkpt lat="41.6841873940709" lon="13.94103007787461"><ele>1989.0</ele><time>2026-04-11T07:38:39Z</time></trkpt><trkpt lat="41.68421668787865" lon="13.94110917636686"><ele>1988.0</ele><time>2026-04-11T07:38:51Z</time></trkpt><trkpt lat="41.68425611899177" lon="13.94118429140089"><ele>1986.9999999999998</ele><time>2026-04-11T07:39:04Z</time></trkpt><trkpt lat="41.68430053826978" lon="13.941251187979146"><ele>1986.0</ele><time>2026-04-11T07:39:17Z</time></trkpt><trkpt lat="41.68432889275135" lon="13.941327404130506"><ele>1985.0</ele><time>2026-04-11T07:39:52Z</time></trkpt><trkpt lat="41.684356646870775" lon="13.941406005299116"><ele>1985.0</ele><time>2026-04-11T07:40:01Z</time></trkpt><trkpt lat="41.68434357018089" lon="13.941319895204412"><ele>1984.9999999999998</ele><time>2026-04-11T07:41:45Z</time></trkpt><trkpt lat="41.68436087312058" lon="13.941403005766842"><ele>1985.0</ele><time>2026-04-11T07:52:27.002Z</time></trkpt><trkpt lat="41.68434720947429" lon="13.941315252620605"><ele>1985.0</ele><time>2026-04-11T07:53:28.001Z</time></trkpt><trkpt lat="41.684278880448716" lon="13.941295653129131"><ele>1984.9999999999998</ele><time>2026-04-11T07:54:50.002Z</time></trkpt><trkpt lat="41.68423347449963" lon="13.941362758650893"><ele>1985.0</ele><time>2026-04-11T07:55:40.001Z</time></trkpt><trkpt lat="41.68422295496092" lon="13.941449269868942"><ele>1985.0</ele><time>2026-04-11T07:55:46.001Z</time></trkpt><trkpt lat="41.684195737457294" lon="13.941538872221036"><ele>1984.9999999999998</ele><time>2026-04-11T07:55:51.001Z</time></trkpt><trkpt lat="41.684168931911394" lon="13.94163101103292"><ele>1985.0</ele><time>2026-04-11T07:55:57.001Z</time></trkpt><trkpt lat="41.6841484343014" lon="13.941746438751755"><ele>1985.0</ele><time>2026-04-11T07:56:03.001Z</time></trkpt><trkpt lat="41.684118236517854" lon="13.941854203046741"><ele>1985.0</ele><time>2026-04-11T07:56:09.001Z</time></trkpt><trkpt lat="41.68410209705642" lon="13.94194217465804"><ele>1984.9999999999998</ele><time>2026-04-11T07:56:13.001Z</time></trkpt><trkpt lat="41.68408498783966" lon="13.942028629149757"><ele>1985.0</ele><time>2026-04-11T07:56:17.001Z</time></trkpt><trkpt lat="41.684060067589726" lon="13.94212928176168"><ele>1984.0</ele><time>2026-04-11T07:56:21.001Z</time></trkpt><trkpt lat="41.68403505062292" lon="13.942213502550585"><ele>1982.9999999999998</ele><time>2026-04-11T07:56:25.001Z</time></trkpt><trkpt lat="41.68400392740023" lon="13.942302504972274"><ele>1982.0</ele><time>2026-04-11T07:56:30.001Z</time></trkpt><trkpt lat="41.68397944992545" lon="13.94239290468006"><ele>1981.0</ele><time>2026-04-11T07:56:35.001Z</time></trkpt><trkpt lat="41.68395110397709" lon="13.94247607990508"><ele>1979.9999999999998</ele><time>2026-04-11T07:56:37.001Z</time></trkpt><trkpt lat="41.68393966677747" lon="13.942559619085353"><ele>1979.0</ele><time>2026-04-11T07:56:44.001Z</time></trkpt><trkpt lat="41.68393170832029" lon="13.942658031741017"><ele>1978.0</ele><time>2026-04-11T07:56:49.001Z</time></trkpt><trkpt lat="41.683920306770816" lon="13.94274765881065"><ele>1977.7142857142856</ele><time>2026-04-11T07:56:56.001Z</time></trkpt><trkpt lat="41.68388618661554" lon="13.942827481116534"><ele>1977.428571428571</ele><time>2026-04-11T07:57:04.001Z</time></trkpt><trkpt lat="41.68385809515702" lon="13.942907676497772"><ele>1977.142857142857</ele><time>2026-04-11T07:57:10.001Z</time></trkpt><trkpt lat="41.68382509271523" lon="13.942982876099691"><ele>1976.8571428571427</ele><time>2026-04-11T07:57:17.001Z</time></trkpt><trkpt lat="41.68379614611345" lon="13.943059886850877"><ele>1976.5714285714284</ele><time>2026-04-11T07:57:26.001Z</time></trkpt><trkpt lat="41.683772911656945" lon="13.94314455209348"><ele>1976.2857142857142</ele><time>2026-04-11T07:57:35.001Z</time></trkpt><trkpt lat="41.68374986276541" lon="13.94322946863043"><ele>1976.0</ele><time>2026-04-11T07:57:42.001Z</time></trkpt><trkpt lat="41.683733384499654" lon="13.943313795655348"><ele>1976.0</ele><time>2026-04-11T07:57:50.001Z</time></trkpt><trkpt lat="41.683718480248" lon="13.943399356649085"><ele>1976.0</ele><time>2026-04-11T07:57:59.001Z</time></trkpt><trkpt lat="41.683701939812586" lon="13.943486183959585"><ele>1976.0</ele><time>2026-04-11T07:58:08.001Z</time></trkpt><trkpt lat="41.68366802534537" lon="13.943566665105768"><ele>1976.0</ele><time>2026-04-11T07:58:17.001Z</time></trkpt><trkpt lat="41.68364399849316" lon="13.943645981632708"><ele>1976.0</ele><time>2026-04-11T07:58:24.001Z</time></trkpt><trkpt lat="41.68362791091344" lon="13.943741769877786"><ele>1976.0</ele><time>2026-04-11T07:58:34.001Z</time></trkpt><trkpt lat="41.68361603055741" lon="13.943831108147249"><ele>1976.0</ele><time>2026-04-11T07:58:42.001Z</time></trkpt><trkpt lat="41.683599214560516" lon="13.94392387623978"><ele>1976.2857142857142</ele><time>2026-04-11T07:58:51.001Z</time></trkpt><trkpt lat="41.68358431344884" lon="13.944017694650569"><ele>1976.5714285714284</ele><time>2026-04-11T07:59:02.001Z</time></trkpt><trkpt lat="41.683573786077744" lon="13.944115751511433"><ele>1976.8571428571427</ele><time>2026-04-11T07:59:11.001Z</time></trkpt><trkpt lat="41.68357330497893" lon="13.944207378203732"><ele>1977.142857142857</ele><time>2026-04-11T07:59:19.001Z</time></trkpt><trkpt lat="41.68357272438773" lon="13.94429306357608"><ele>1977.428571428571</ele><time>2026-04-11T07:59:27.001Z</time></trkpt><trkpt lat="41.6835683931449" lon="13.944383614049185"><ele>1977.7142857142856</ele><time>2026-04-11T07:59:36.001Z</time></trkpt><trkpt lat="41.68357140737323" lon="13.944477779034253"><ele>1978.0</ele><time>2026-04-11T07:59:44.001Z</time></trkpt><trkpt lat="41.68356664216664" lon="13.944569917746138"><ele>1979.0</ele><time>2026-04-11T07:59:52.001Z</time></trkpt><trkpt lat="41.68355454040263" lon="13.944656570925504"><ele>1979.9999999999998</ele><time>2026-04-11T07:59:59.001Z</time></trkpt><trkpt lat="41.68354195476465" lon="13.944747068131289"><ele>1981.0</ele><time>2026-04-11T08:00:09.001Z</time></trkpt><trkpt lat="41.68353464136205" lon="13.94484983617132"><ele>1982.0</ele><time>2026-04-11T08:00:18.001Z</time></trkpt><trkpt lat="41.68351782527059" lon="13.94494022557146"><ele>1982.9999999999998</ele><time>2026-04-11T08:00:27.001Z</time></trkpt><trkpt lat="41.68350752768962" lon="13.945026413631673"><ele>1984.0</ele><time>2026-04-11T08:00:34.001Z</time></trkpt><trkpt lat="41.68350420859271" lon="13.945121355228848"><ele>1985.0</ele><time>2026-04-11T08:00:47.001Z</time></trkpt><trkpt lat="41.683518645473356" lon="13.945266946338057"><ele>1986.2857142857142</ele><time>2026-04-11T08:01:04.001Z</time></trkpt><trkpt lat="41.683516641016304" lon="13.945356291119484"><ele>1987.5714285714284</ele><time>2026-04-11T08:01:14.001Z</time></trkpt><trkpt lat="41.68351173132556" lon="13.945448521295514"><ele>1988.8571428571427</ele><time>2026-04-11T08:01:23.001Z</time></trkpt><trkpt lat="41.683521183862304" lon="13.945566941820902"><ele>1990.1428571428569</ele><time>2026-04-11T08:01:33.001Z</time></trkpt><trkpt lat="41.68353661193574" lon="13.945653057205687"><ele>1991.4285714285713</ele><time>2026-04-11T08:01:41.001Z</time></trkpt><trkpt lat="41.683549743841354" lon="13.945745115584012"><ele>1992.7142857142853</ele><time>2026-04-11T08:01:48.001Z</time></trkpt><trkpt lat="41.68355347564004" lon="13.945831633604074"><ele>1993.9999999999998</ele><time>2026-04-11T08:02:05.001Z</time></trkpt><trkpt lat="41.68354302959302" lon="13.945922204858693"><ele>1995.9999999999998</ele><time>2026-04-11T08:02:15.001Z</time></trkpt><trkpt lat="41.683515774886104" lon="13.946000011813567"><ele>1998.0</ele><time>2026-04-11T08:02:23.001Z</time></trkpt><trkpt lat="41.68348983752365" lon="13.946084695444739"><ele>1999.9999999999998</ele><time>2026-04-11T08:02:32.001Z</time></trkpt><trkpt lat="41.683452901542736" lon="13.946154581693486"><ele>2001.9999999999998</ele><time>2026-04-11T08:02:41.001Z</time></trkpt><trkpt lat="41.683417652526956" lon="13.946229105481274"><ele>2004.0</ele><time>2026-04-11T08:02:54.001Z</time></trkpt><trkpt lat="41.68337476205513" lon="13.94630014871302"><ele>2005.9999999999998</ele><time>2026-04-11T08:03:02.001Z</time></trkpt><trkpt lat="41.6833425666899" lon="13.94637369828441"><ele>2007.9999999999998</ele><time>2026-04-11T08:03:09.001Z</time></trkpt><trkpt lat="41.68330002615717" lon="13.946448882425894"><ele>2007.9999999999998</ele><time>2026-04-11T08:03:20.001Z</time></trkpt><trkpt lat="41.68326252115298" lon="13.94652665960552"><ele>2008.0</ele><time>2026-04-11T08:03:29.001Z</time></trkpt><trkpt lat="41.68322664699502" lon="13.946602907175906"><ele>2007.9999999999998</ele><time>2026-04-11T08:03:39.001Z</time></trkpt><trkpt lat="41.68318538801343" lon="13.946676471103228"><ele>2007.9999999999998</ele><time>2026-04-11T08:03:50.001Z</time></trkpt><trkpt lat="41.683137579752035" lon="13.946735924220992"><ele>2008.0</ele><time>2026-04-11T08:03:59.001Z</time></trkpt><trkpt lat="41.68307744182259" lon="13.946784592900725"><ele>2007.9999999999998</ele><time>2026-04-11T08:04:09.001Z</time></trkpt><trkpt lat="41.68302177402185" lon="13.946835442650462"><ele>2007.9999999999998</ele><time>2026-04-11T08:04:19.001Z</time></trkpt><trkpt lat="41.682965739468294" lon="13.946883229403864"><ele>2008.428571428571</ele><time>2026-04-11T08:04:28.001Z</time></trkpt><trkpt lat="41.6829091669739" lon="13.946937748574982"><ele>2008.8571428571427</ele><time>2026-04-11T08:04:38.001Z</time></trkpt><trkpt lat="41.6828582537917" lon="13.946994787636621"><ele>2009.2857142857142</ele><time>2026-04-11T08:04:49.001Z</time></trkpt><trkpt lat="41.68289428279719" lon="13.947066860453434"><ele>2009.7142857142856</ele><time>2026-04-11T08:05:09.001Z</time></trkpt><trkpt lat="41.68292776156023" lon="13.947142232618162"><ele>2010.1428571428569</ele><time>2026-04-11T08:05:22.001Z</time></trkpt><trkpt lat="41.68294355940192" lon="13.947226227015593"><ele>2010.5714285714287</ele><time>2026-04-11T08:05:35Z</time></trkpt><trkpt lat="41.68294943471907" lon="13.947311668873514"><ele>2011.0</ele><time>2026-04-11T08:05:49Z</time></trkpt><trkpt lat="41.68293119513033" lon="13.94739633212636"><ele>2011.0</ele><time>2026-04-11T08:06:00Z</time></trkpt><trkpt lat="41.68286676109721" lon="13.94740537491366"><ele>2011.0</ele><time>2026-04-11T08:06:10Z</time></trkpt><trkpt lat="41.68280717484872" lon="13.947432820431079"><ele>2011.0</ele><time>2026-04-11T08:06:22Z</time></trkpt><trkpt lat="41.6827869153057" lon="13.947516337349528"><ele>2011.0</ele><time>2026-04-11T08:06:34Z</time></trkpt><trkpt lat="41.682763190355445" lon="13.947600766169426"><ele>2011.0</ele><time>2026-04-11T08:06:46.001Z</time></trkpt><trkpt lat="41.68272220758931" lon="13.947683527620239"><ele>2011.0</ele><time>2026-04-11T08:07:08.001Z</time></trkpt><trkpt lat="41.68266043598039" lon="13.947654016424654"><ele>2011.0</ele><time>2026-04-11T08:07:18.001Z</time></trkpt><trkpt lat="41.68260433797275" lon="13.947614856563758"><ele>2010.7142857142858</ele><time>2026-04-11T08:07:29.001Z</time></trkpt><trkpt lat="41.68254762961609" lon="13.947569721436622"><ele>2010.4285714285713</ele><time>2026-04-11T08:07:39Z</time></trkpt><trkpt lat="41.68248349483297" lon="13.947534003764483"><ele>2010.142857142857</ele><time>2026-04-11T08:07:50Z</time></trkpt><trkpt lat="41.68242495994649" lon="13.947486955494744"><ele>2009.857142857143</ele><time>2026-04-11T08:08:00Z</time></trkpt><trkpt lat="41.682360952195005" lon="13.94749826088088"><ele>2009.5714285714284</ele><time>2026-04-11T08:08:11Z</time></trkpt><trkpt lat="41.68230983213338" lon="13.947554611432459"><ele>2009.2857142857142</ele><time>2026-04-11T08:08:22Z</time></trkpt><trkpt lat="41.68225788949289" lon="13.947605548485544"><ele>2009.0</ele><time>2026-04-11T08:08:34Z</time></trkpt><trkpt lat="41.682216417875196" lon="13.94767152428615"><ele>2009.0</ele><time>2026-04-11T08:08:42Z</time></trkpt><trkpt lat="41.682172465718644" lon="13.94773625800291"><ele>2009.0</ele><time>2026-04-11T08:08:51Z</time></trkpt><trkpt lat="41.682124579963926" lon="13.947799728033862"><ele>2009.0</ele><time>2026-04-11T08:09:03Z</time></trkpt><trkpt lat="41.68207740161833" lon="13.947873234633304"><ele>2009.0</ele><time>2026-04-11T08:09:10Z</time></trkpt><trkpt lat="41.682123035748944" lon="13.947945432531222"><ele>2009.0</ele><time>2026-04-11T08:09:24Z</time></trkpt><trkpt lat="41.682077447623314" lon="13.94801770494781"><ele>2009.0</ele><time>2026-04-11T08:09:38Z</time></trkpt><trkpt lat="41.68202622598767" lon="13.948070817809304"><ele>2009.0</ele><time>2026-04-11T08:09:47Z</time></trkpt><trkpt lat="41.68198759681824" lon="13.948145171458583"><ele>2009.0</ele><time>2026-04-11T08:10:00Z</time></trkpt><trkpt lat="41.68196059650591" lon="13.948229509033819"><ele>2009.0</ele><time>2026-04-11T08:10:09Z</time></trkpt><trkpt lat="41.6819300026956" lon="13.948317235823112"><ele>2009.0</ele><time>2026-04-11T08:10:19Z</time></trkpt><trkpt lat="41.68190243127922" lon="13.948401630914402"><ele>2009.0</ele><time>2026-04-11T08:10:28Z</time></trkpt><trkpt lat="41.68188324965218" lon="13.948487579802727"><ele>2009.0</ele><time>2026-04-11T08:10:37Z</time></trkpt><trkpt lat="41.68185823925319" lon="13.948571430626528"><ele>2009.0</ele><time>2026-04-11T08:10:48Z</time></trkpt><trkpt lat="41.68181805614565" lon="13.948639303479922"><ele>2009.0</ele><time>2026-04-11T08:11:02Z</time></trkpt><trkpt lat="41.681761614628265" lon="13.94873896644517"><ele>2010.8333333333333</ele><time>2026-04-11T08:12:56Z</time></trkpt><trkpt lat="41.68171107284692" lon="13.948806011771088"><ele>2012.6666666666665</ele><time>2026-04-11T08:13:08Z</time></trkpt><trkpt lat="41.68159359108633" lon="13.948834755747171"><ele>2014.5</ele><time>2026-04-11T08:13:48Z</time></trkpt><trkpt lat="41.68152368822102" lon="13.948842845278495"><ele>2016.3333333333335</ele><time>2026-04-11T08:13:58.998Z</time></trkpt><trkpt lat="41.68145609688848" lon="13.94887375690314"><ele>2018.1666666666667</ele><time>2026-04-11T08:14:06.998Z</time></trkpt><trkpt lat="41.68139637391363" lon="13.948905422158724"><ele>2020.0</ele><time>2026-04-11T08:14:15.999Z</time></trkpt><trkpt lat="41.68134872684517" lon="13.948961758610853"><ele>2020.0</ele><time>2026-04-11T08:14:26.999Z</time></trkpt><trkpt lat="41.681299567913825" lon="13.949024950202565"><ele>2019.9999999999998</ele><time>2026-04-11T08:14:36.999Z</time></trkpt><trkpt lat="41.68125431572215" lon="13.949086720366923"><ele>2020.0</ele><time>2026-04-11T08:14:45.999Z</time></trkpt><trkpt lat="41.68120970365778" lon="13.949148772093954"><ele>2020.0</ele><time>2026-04-11T08:14:54.999Z</time></trkpt><trkpt lat="41.68116626360416" lon="13.94921280974387"><ele>2019.9999999999998</ele><time>2026-04-11T08:15:03.999Z</time></trkpt><trkpt lat="41.68112102230528" lon="13.949281836626989"><ele>2020.0</ele><time>2026-04-11T08:15:15Z</time></trkpt><trkpt lat="41.68112800601011" lon="13.949374146951126"><ele>2020.0</ele><time>2026-04-11T08:15:28Z</time></trkpt><trkpt lat="41.68115559426931" lon="13.949458554516372"><ele>2024.4285714285713</ele><time>2026-04-11T08:15:41Z</time></trkpt><trkpt lat="41.68111285702509" lon="13.94952284680456"><ele>2028.8571428571427</ele><time>2026-04-11T08:15:51Z</time></trkpt><trkpt lat="41.68106463044152" lon="13.949582122140203"><ele>2033.2857142857142</ele><time>2026-04-11T08:16:01.999Z</time></trkpt><trkpt lat="41.681086163133735" lon="13.949666783916593"><ele>2037.7142857142858</ele><time>2026-04-11T08:16:15.999Z</time></trkpt><trkpt lat="41.681072216953005" lon="13.949751813306996"><ele>2042.142857142857</ele><time>2026-04-11T08:16:30Z</time></trkpt><trkpt lat="41.68101202665399" lon="13.94978765949694"><ele>2046.5714285714284</ele><time>2026-04-11T08:16:39Z</time></trkpt><trkpt lat="41.68096570538914" lon="13.949850772884592"><ele>2051.0</ele><time>2026-04-11T08:16:48Z</time></trkpt><trkpt lat="41.6809268707297" lon="13.949921798866185"><ele>2051.0</ele><time>2026-04-11T08:16:59Z</time></trkpt><trkpt lat="41.680877756229116" lon="13.949982252147676"><ele>2051.0</ele><time>2026-04-11T08:17:08Z</time></trkpt><trkpt lat="41.680827831093154" lon="13.950045952157549"><ele>2051.0</ele><time>2026-04-11T08:17:18Z</time></trkpt><trkpt lat="41.68077903726604" lon="13.95010429261208"><ele>2051.0</ele><time>2026-04-11T08:17:29Z</time></trkpt><trkpt lat="41.68072516803848" lon="13.950153073806973"><ele>2051.0</ele><time>2026-04-11T08:17:39Z</time></trkpt><trkpt lat="41.6806698762281" lon="13.950195129505852"><ele>2051.0</ele><time>2026-04-11T08:17:48Z</time></trkpt><trkpt lat="41.68061699539883" lon="13.950250283126634"><ele>2051.0</ele><time>2026-04-11T08:17:58.001Z</time></trkpt><trkpt lat="41.68056372439897" lon="13.950310965399977"><ele>2053.0</ele><time>2026-04-11T08:18:09Z</time></trkpt><trkpt lat="41.6805219098024" lon="13.950381436354633"><ele>2055.0</ele><time>2026-04-11T08:18:21Z</time></trkpt><trkpt lat="41.68046682524765" lon="13.950454503701623"><ele>2057.0</ele><time>2026-04-11T08:18:29Z</time></trkpt><trkpt lat="41.680411392657994" lon="13.950507888109025"><ele>2059.0</ele><time>2026-04-11T08:18:36Z</time></trkpt><trkpt lat="41.680365460178095" lon="13.950567063170572"><ele>2061.0</ele><time>2026-04-11T08:18:44Z</time></trkpt><trkpt lat="41.6803139359497" lon="13.95061921056086"><ele>2063.0</ele><time>2026-04-11T08:18:56Z</time></trkpt><trkpt lat="41.680261978645284" lon="13.950674742786036"><ele>2065.0</ele><time>2026-04-11T08:19:07.001Z</time></trkpt><trkpt lat="41.68022000961354" lon="13.950741947395082"><ele>2065.0</ele><time>2026-04-11T08:19:16.001Z</time></trkpt><trkpt lat="41.680179575972254" lon="13.95081291560717"><ele>2065.0</ele><time>2026-04-11T08:19:26.001Z</time></trkpt><trkpt lat="41.680131535089544" lon="13.950886935492528"><ele>2065.0</ele><time>2026-04-11T08:19:36.001Z</time></trkpt><trkpt lat="41.6800951988985" lon="13.950959713166366"><ele>2065.0</ele><time>2026-04-11T08:19:45.001Z</time></trkpt><trkpt lat="41.680061942362414" lon="13.95103235688934"><ele>2065.0</ele><time>2026-04-11T08:19:54.001Z</time></trkpt><trkpt lat="41.68003228476571" lon="13.95110903882574"><ele>2065.0</ele><time>2026-04-11T08:20:03.001Z</time></trkpt><trkpt lat="41.68000680392573" lon="13.951193825805369"><ele>2065.0</ele><time>2026-04-11T08:20:12Z</time></trkpt><trkpt lat="41.679977560041834" lon="13.951286870644617"><ele>2065.285714285714</ele><time>2026-04-11T08:20:21Z</time></trkpt><trkpt lat="41.67995689405928" lon="13.951369671732275"><ele>2065.5714285714284</ele><time>2026-04-11T08:20:28Z</time></trkpt><trkpt lat="41.67995480453683" lon="13.951457340731725"><ele>2065.857142857143</ele><time>2026-04-11T08:20:35Z</time></trkpt><trkpt lat="41.67994916346501" lon="13.951550904282897"><ele>2066.142857142857</ele><time>2026-04-11T08:20:42.001Z</time></trkpt><trkpt lat="41.679935799990616" lon="13.951655276659867"><ele>2066.4285714285716</ele><time>2026-04-11T08:20:59.001Z</time></trkpt><trkpt lat="41.679916998163044" lon="13.95174175740464"><ele>2066.714285714286</ele><time>2026-04-11T08:21:01.001Z</time></trkpt><trkpt lat="41.67989699777023" lon="13.95184613955087"><ele>2067.0</ele><time>2026-04-11T08:21:03.001Z</time></trkpt><trkpt lat="41.6798666510063" lon="13.9519326605515"><ele>2067.0</ele><time>2026-04-11T08:21:09.001Z</time></trkpt><trkpt lat="41.67982353583863" lon="13.951997593505112"><ele>2067.0</ele><time>2026-04-11T08:21:18.001Z</time></trkpt><trkpt lat="41.679771218440536" lon="13.952064217500503"><ele>2067.0</ele><time>2026-04-11T08:21:27.001Z</time></trkpt><trkpt lat="41.67972527663392" lon="13.952134286594955"><ele>2067.0</ele><time>2026-04-11T08:21:36.001Z</time></trkpt><trkpt lat="41.67967170725623" lon="13.952187951422905"><ele>2067.0</ele><time>2026-04-11T08:21:46.001Z</time></trkpt><trkpt lat="41.67963522417594" lon="13.952268595034928"><ele>2067.0</ele><time>2026-04-11T08:21:54.001Z</time></trkpt><trkpt lat="41.67959985806437" lon="13.952338603336168"><ele>2067.0</ele><time>2026-04-11T08:22:03.001Z</time></trkpt><trkpt lat="41.6795719522799" lon="13.952421105225532"><ele>2067.0</ele><time>2026-04-11T08:22:12.001Z</time></trkpt><trkpt lat="41.67954254685551" lon="13.952496954513714"><ele>2067.0</ele><time>2026-04-11T08:22:21.001Z</time></trkpt><trkpt lat="41.679519857299674" lon="13.952578436568672"><ele>2067.0</ele><time>2026-04-11T08:22:31.001Z</time></trkpt><trkpt lat="41.67948791231008" lon="13.952662039529953"><ele>2067.0</ele><time>2026-04-11T08:22:41.001Z</time></trkpt><trkpt lat="41.679473867563104" lon="13.952749612992632"><ele>2067.0</ele><time>2026-04-11T08:22:50.001Z</time></trkpt><trkpt lat="41.6794528410323" lon="13.952837576458515"><ele>2067.0</ele><time>2026-04-11T08:22:59.001Z</time></trkpt><trkpt lat="41.679430328034954" lon="13.952927549203205"><ele>2067.0</ele><time>2026-04-11T08:23:07.001Z</time></trkpt><trkpt lat="41.67940694613922" lon="13.953015424901412"><ele>2068.285714285714</ele><time>2026-04-11T08:23:15.001Z</time></trkpt><trkpt lat="41.67937268669801" lon="13.953088322824101"><ele>2069.5714285714284</ele><time>2026-04-11T08:23:22.001Z</time></trkpt><trkpt lat="41.67932963249988" lon="13.953164710268219"><ele>2070.8571428571427</ele><time>2026-04-11T08:23:30.001Z</time></trkpt><trkpt lat="41.67928250875582" lon="13.953227998405836"><ele>2072.142857142857</ele><time>2026-04-11T08:23:39.001Z</time></trkpt><trkpt lat="41.679239907279594" lon="13.953293555855835"><ele>2073.428571428571</ele><time>2026-04-11T08:23:48.001Z</time></trkpt><trkpt lat="41.679193706774825" lon="13.953359380303054"><ele>2074.714285714286</ele><time>2026-04-11T08:23:57.001Z</time></trkpt><trkpt lat="41.67914349894409" lon="13.953421336599286"><ele>2076.0</ele><time>2026-04-11T08:24:05.001Z</time></trkpt><trkpt lat="41.679118210014444" lon="13.953504939937448"><ele>2076.5714285714284</ele><time>2026-04-11T08:24:15.001Z</time></trkpt><trkpt lat="41.67910150409183" lon="13.953593537901016"><ele>2077.142857142857</ele><time>2026-04-11T08:24:25.001Z</time></trkpt><trkpt lat="41.679078356827844" lon="13.953674807774943"><ele>2077.714285714286</ele><time>2026-04-11T08:24:33.001Z</time></trkpt><trkpt lat="41.679049532114085" lon="13.953754385736017"><ele>2078.285714285714</ele><time>2026-04-11T08:24:42.001Z</time></trkpt><trkpt lat="41.67901538309201" lon="13.953833669344304"><ele>2078.857142857143</ele><time>2026-04-11T08:24:51.001Z</time></trkpt><trkpt lat="41.67899471697576" lon="13.953913923804825"><ele>2079.4285714285716</ele><time>2026-04-11T08:25:00.001Z</time></trkpt><trkpt lat="41.67896675332232" lon="13.95400045882515"><ele>2080.0</ele><time>2026-04-11T08:25:10.001Z</time></trkpt><trkpt lat="41.67895186204409" lon="13.954087500893555"><ele>2080.0000000000005</ele><time>2026-04-11T08:25:18.001Z</time></trkpt><trkpt lat="41.678926625156286" lon="13.954167224106705"><ele>2080.0</ele><time>2026-04-11T08:25:26.001Z</time></trkpt><trkpt lat="41.67889115495984" lon="13.954255836769416"><ele>2080.0</ele><time>2026-04-11T08:25:32.001Z</time></trkpt><trkpt lat="41.67884256119772" lon="13.954313016788225"><ele>2080.0</ele><time>2026-04-11T08:25:34.001Z</time></trkpt><trkpt lat="41.67878714212145" lon="13.954375031865336"><ele>2080.0</ele><time>2026-04-11T08:25:36.001Z</time></trkpt><trkpt lat="41.67874135514335" lon="13.954439728083894"><ele>2080.0000000000005</ele><time>2026-04-11T08:25:38.001Z</time></trkpt><trkpt lat="41.67868646312624" lon="13.954504199613996"><ele>2080.0</ele><time>2026-04-11T08:25:45.001Z</time></trkpt><trkpt lat="41.67863577757868" lon="13.954560531432794"><ele>2079.571428571429</ele><time>2026-04-11T08:25:52.001Z</time></trkpt><trkpt lat="41.6785877827839" lon="13.954620277010136"><ele>2079.1428571428573</ele><time>2026-04-11T08:26:01.001Z</time></trkpt><trkpt lat="41.67860459709734" lon="13.954707500820707"><ele>2078.714285714286</ele><time>2026-04-11T08:26:14.001Z</time></trkpt><trkpt lat="41.6786289070268" lon="13.954793761999944"><ele>2078.2857142857147</ele><time>2026-04-11T08:26:26.001Z</time></trkpt><trkpt lat="41.67856646983575" lon="13.954853338780937"><ele>2077.857142857143</ele><time>2026-04-11T08:26:42Z</time></trkpt><trkpt lat="41.67855474524915" lon="13.954937197048462"><ele>2077.4285714285716</ele><time>2026-04-11T08:26:51Z</time></trkpt><trkpt lat="41.67852875811302" lon="13.955019690591861"><ele>2077.0</ele><time>2026-04-11T08:27:02Z</time></trkpt><trkpt lat="41.678530789501664" lon="13.95510713682246"><ele>2076.714285714286</ele><time>2026-04-11T08:27:13.001Z</time></trkpt><trkpt lat="41.67857085029125" lon="13.95517551122775"><ele>2076.4285714285716</ele><time>2026-04-11T08:27:22.001Z</time></trkpt><trkpt lat="41.67860577838601" lon="13.955254059881"><ele>2076.1428571428573</ele><time>2026-04-11T08:27:30.001Z</time></trkpt><trkpt lat="41.678652002783224" lon="13.955315925653336"><ele>2075.857142857143</ele><time>2026-04-11T08:27:37.001Z</time></trkpt><trkpt lat="41.67869633638101" lon="13.95537920132548"><ele>2075.571428571429</ele><time>2026-04-11T08:27:43.001Z</time></trkpt><trkpt lat="41.678747574782214" lon="13.955437554663865"><ele>2075.285714285714</ele><time>2026-04-11T08:27:50.001Z</time></trkpt><trkpt lat="41.67882160600971" lon="13.955460564225959"><ele>2075.0</ele><time>2026-04-11T08:27:57.001Z</time></trkpt><trkpt lat="41.67889265613261" lon="13.955467030630711"><ele>2075.0</ele><time>2026-04-11T08:28:04.001Z</time></trkpt><trkpt lat="41.67897459992467" lon="13.955499143954162"><ele>2075.0</ele><time>2026-04-11T08:28:09.001Z</time></trkpt><trkpt lat="41.679039906130726" lon="13.955541373276455"><ele>2075.0</ele><time>2026-04-11T08:28:12.001Z</time></trkpt><trkpt lat="41.67910489137024" lon="13.955585793023191"><ele>2075.0</ele><time>2026-04-11T08:28:14.001Z</time></trkpt><trkpt lat="41.67916771312829" lon="13.955652332320817"><ele>2075.0</ele><time>2026-04-11T08:28:16.001Z</time></trkpt><trkpt lat="41.67920289345495" lon="13.955739646305089"><ele>2075.0</ele><time>2026-04-11T08:28:21.001Z</time></trkpt><trkpt lat="41.67921017746848" lon="13.955838134341322"><ele>2075.5714285714284</ele><time>2026-04-11T08:28:28.001Z</time></trkpt><trkpt lat="41.679187597492955" lon="13.95592394801262"><ele>2076.1428571428573</ele><time>2026-04-11T08:28:36Z</time></trkpt><trkpt lat="41.67917175871864" lon="13.956014038434512"><ele>2076.714285714286</ele><time>2026-04-11T08:28:45Z</time></trkpt><trkpt lat="41.67915194853389" lon="13.956098602199786"><ele>2077.285714285714</ele><time>2026-04-11T08:28:54Z</time></trkpt><trkpt lat="41.67913568785404" lon="13.956187993595265"><ele>2077.857142857143</ele><time>2026-04-11T08:29:03Z</time></trkpt><trkpt lat="41.679122748925266" lon="13.956281538001466"><ele>2078.4285714285716</ele><time>2026-04-11T08:29:12Z</time></trkpt><trkpt lat="41.67910248582734" lon="13.956366571993545"><ele>2079.0</ele><time>2026-04-11T08:29:20Z</time></trkpt><trkpt lat="41.67907974870888" lon="13.956456925841168"><ele>2079.0</ele><time>2026-04-11T08:29:27Z</time></trkpt><trkpt lat="41.679056549048475" lon="13.956547382336403"><ele>2079.0</ele><time>2026-04-11T08:29:33Z</time></trkpt><trkpt lat="41.679027951374586" lon="13.956638278862552"><ele>2079.0</ele><time>2026-04-11T08:29:41.001Z</time></trkpt><trkpt lat="41.678979341692106" lon="13.956692533111323"><ele>2079.0</ele><time>2026-04-11T08:29:48.001Z</time></trkpt><trkpt lat="41.67892132533746" lon="13.956726694481608"><ele>2079.0</ele><time>2026-04-11T08:29:57.001Z</time></trkpt><trkpt lat="41.67886457395129" lon="13.95677266351962"><ele>2079.0</ele><time>2026-04-11T08:30:06.001Z</time></trkpt><trkpt lat="41.678812474083216" lon="13.9568297860685"><ele>2079.0</ele><time>2026-04-11T08:30:14.001Z</time></trkpt><trkpt lat="41.67878192667986" lon="13.956912948712336"><ele>2079.8571428571427</ele><time>2026-04-11T08:30:27.001Z</time></trkpt><trkpt lat="41.67876928145558" lon="13.957005016481029"><ele>2080.714285714286</ele><time>2026-04-11T08:30:38.001Z</time></trkpt><trkpt lat="41.67876227323962" lon="13.957094124402634"><ele>2081.5714285714284</ele><time>2026-04-11T08:30:49Z</time></trkpt><trkpt lat="41.67875974258183" lon="13.957183395881609"><ele>2082.4285714285716</ele><time>2026-04-11T08:30:59Z</time></trkpt><trkpt lat="41.6787515656652" lon="13.957271978619167"><ele>2083.285714285714</ele><time>2026-04-11T08:31:06Z</time></trkpt><trkpt lat="41.678736501066425" lon="13.957363797732098"><ele>2084.142857142857</ele><time>2026-04-11T08:31:15Z</time></trkpt><trkpt lat="41.678710707409344" lon="13.957442614590128"><ele>2085.0</ele><time>2026-04-11T08:31:22Z</time></trkpt><trkpt lat="41.67864300145055" lon="13.957462617618194"><ele>2084.9999999999995</ele><time>2026-04-11T08:31:30Z</time></trkpt><trkpt lat="41.678608442873475" lon="13.957535345150026"><ele>2085.0</ele><time>2026-04-11T08:31:45Z</time></trkpt><trkpt lat="41.67860320610325" lon="13.957621009904752"><ele>2085.0</ele><time>2026-04-11T08:31:56.001Z</time></trkpt><trkpt lat="41.67861677006576" lon="13.957703743331864"><ele>2085.0</ele><time>2026-04-11T08:32:07.001Z</time></trkpt><trkpt lat="41.67863397074027" lon="13.957788712892633"><ele>2085.0</ele><time>2026-04-11T08:32:18.001Z</time></trkpt><trkpt lat="41.67863593581241" lon="13.95787540747142"><ele>2084.9999999999995</ele><time>2026-04-11T08:32:31.001Z</time></trkpt><trkpt lat="41.67861669326549" lon="13.95796071585304"><ele>2085.0</ele><time>2026-04-11T08:32:44.001Z</time></trkpt><trkpt lat="41.678547364391356" lon="13.957940367630485"><ele>2087.142857142857</ele><time>2026-04-11T08:32:54Z</time></trkpt><trkpt lat="41.67848339223633" lon="13.957937177400277"><ele>2089.285714285714</ele><time>2026-04-11T08:33:03Z</time></trkpt><trkpt lat="41.67841516228112" lon="13.95792752213471"><ele>2091.4285714285716</ele><time>2026-04-11T08:33:13Z</time></trkpt><trkpt lat="41.67835926428516" lon="13.957969413626094"><ele>2093.5714285714284</ele><time>2026-04-11T08:33:26Z</time></trkpt><trkpt lat="41.67838561988483" lon="13.958047473310566"><ele>2095.714285714286</ele><time>2026-04-11T08:33:38Z</time></trkpt><trkpt lat="41.67841965768646" lon="13.958127871424582"><ele>2097.8571428571427</ele><time>2026-04-11T08:33:52Z</time></trkpt><trkpt lat="41.67845741474511" lon="13.95819742823753"><ele>2100.0</ele><time>2026-04-11T08:34:03Z</time></trkpt><trkpt lat="41.67849255699366" lon="13.958275960248491"><ele>2100.0</ele><time>2026-04-11T08:34:14Z</time></trkpt><trkpt lat="41.678508320205246" lon="13.95836392233326"><ele>2100.0</ele><time>2026-04-11T08:34:26.001Z</time></trkpt><trkpt lat="41.67853103628017" lon="13.958445990260483"><ele>2100.0</ele><time>2026-04-11T08:34:38.001Z</time></trkpt><trkpt lat="41.678556435988035" lon="13.958524875841166"><ele>2100.0</ele><time>2026-04-11T08:34:49.001Z</time></trkpt><trkpt lat="41.67857764254349" lon="13.958614367809671"><ele>2100.0</ele><time>2026-04-11T08:35:02Z</time></trkpt><trkpt lat="41.678609424399504" lon="13.95868809092216"><ele>2100.0</ele><time>2026-04-11T08:35:15Z</time></trkpt><trkpt lat="41.67866090789249" lon="13.958751677601745"><ele>2100.0</ele><time>2026-04-11T08:35:27Z</time></trkpt><trkpt lat="41.678721328191024" lon="13.958788634169283"><ele>2097.6</ele><time>2026-04-11T08:41:23Z</time></trkpt><trkpt lat="41.67880599618301" lon="13.958800161790336"><ele>2095.2</ele><time>2026-04-11T08:42:34Z</time></trkpt><trkpt lat="41.67888141860227" lon="13.95872811070862"><ele>2092.8</ele><time>2026-04-11T08:42:37Z</time></trkpt><trkpt lat="41.67902769798119" lon="13.958687830251646"><ele>2090.4</ele><time>2026-04-11T08:42:41.001Z</time></trkpt><trkpt lat="41.67903246275288" lon="13.958591516255474"><ele>2088.0</ele><time>2026-04-11T08:42:42.001Z</time></trkpt><trkpt lat="41.6790799310426" lon="13.958493116736223"><ele>2088.0</ele><time>2026-04-11T08:42:43.001Z</time></trkpt><trkpt lat="41.679176607045164" lon="13.958509569946365"><ele>2088.0</ele><time>2026-04-11T08:42:44.001Z</time></trkpt><trkpt lat="41.67923992002159" lon="13.958468057722945"><ele>2088.0</ele><time>2026-04-11T08:42:46.001Z</time></trkpt><trkpt lat="41.67930084115666" lon="13.958396588732569"><ele>2088.0</ele><time>2026-04-11T08:42:47.001Z</time></trkpt><trkpt lat="41.67940118848435" lon="13.958358286650785"><ele>2088.0</ele><time>2026-04-11T08:42:48.001Z</time></trkpt><trkpt lat="41.679515017075815" lon="13.958348980368564"><ele>2087.6</ele><time>2026-04-11T08:42:49.001Z</time></trkpt><trkpt lat="41.67960539052964" lon="13.95836931071798"><ele>2087.2000000000003</ele><time>2026-04-11T08:42:50.001Z</time></trkpt><trkpt lat="41.679686448485924" lon="13.958407609095966"><ele>2086.8</ele><time>2026-04-11T08:42:51.001Z</time></trkpt><trkpt lat="41.679780050273315" lon="13.958451596317106"><ele>2086.4</ele><time>2026-04-11T08:42:52.001Z</time></trkpt><trkpt lat="41.67985351281626" lon="13.95848330249403"><ele>2086.0</ele><time>2026-04-11T08:42:53.001Z</time></trkpt><trkpt lat="41.67997067185813" lon="13.958513273338529"><ele>2086.0</ele><time>2026-04-11T08:42:55.001Z</time></trkpt><trkpt lat="41.68004484165648" lon="13.958529804576395"><ele>2086.0</ele><time>2026-04-11T08:42:57.001Z</time></trkpt><trkpt lat="41.680111662614685" lon="13.958532426095722"><ele>2086.0</ele><time>2026-04-11T08:42:59.001Z</time></trkpt><trkpt lat="41.68017457911602" lon="13.95853907483916"><ele>2086.0</ele><time>2026-04-11T08:43:01.001Z</time></trkpt><trkpt lat="41.68024414003346" lon="13.958551310697283"><ele>2086.0</ele><time>2026-04-11T08:43:03.001Z</time></trkpt><trkpt lat="41.68034066007616" lon="13.958554150739339"><ele>2086.0</ele><time>2026-04-11T08:43:06.001Z</time></trkpt><trkpt lat="41.68040726844566" lon="13.958542645367404"><ele>2086.0</ele><time>2026-04-11T08:43:08.001Z</time></trkpt><trkpt lat="41.68046406440244" lon="13.958504073951959"><ele>2085.3333333333335</ele><time>2026-04-11T08:43:10.001Z</time></trkpt><trkpt lat="41.68055903085231" lon="13.958484090240187"><ele>2084.666666666667</ele><time>2026-04-11T08:43:14.001Z</time></trkpt><trkpt lat="41.680641507807266" lon="13.958434059031879"><ele>2084.0</ele><time>2026-04-11T08:43:17Z</time></trkpt><trkpt lat="41.680715465248475" lon="13.958376873721535"><ele>2083.3333333333335</ele><time>2026-04-11T08:43:20Z</time></trkpt><trkpt lat="41.68078084222642" lon="13.95831004381473"><ele>2082.6666666666665</ele><time>2026-04-11T08:43:25Z</time></trkpt><trkpt lat="41.68083600860568" lon="13.958252058444161"><ele>2082.0</ele><time>2026-04-11T08:43:28Z</time></trkpt><trkpt lat="41.68086749020844" lon="13.958170272212236"><ele>2082.0</ele><time>2026-04-11T08:43:31Z</time></trkpt><trkpt lat="41.68091491444769" lon="13.958079821404441"><ele>2082.0</ele><time>2026-04-11T08:43:35Z</time></trkpt><trkpt lat="41.680965844412206" lon="13.958007701765618"><ele>2082.0</ele><time>2026-04-11T08:43:40Z</time></trkpt><trkpt lat="41.68101112976809" lon="13.95794229863159"><ele>2082.0</ele><time>2026-04-11T08:43:43Z</time></trkpt><trkpt lat="41.681059781543404" lon="13.957878525502887"><ele>2082.0</ele><time>2026-04-11T08:43:45Z</time></trkpt><trkpt lat="41.68111117280593" lon="13.95782283859589"><ele>2082.0</ele><time>2026-04-11T08:43:47Z</time></trkpt><trkpt lat="41.68117766733034" lon="13.957751520020121"><ele>2082.0</ele><time>2026-04-11T08:43:49Z</time></trkpt><trkpt lat="41.68126119713097" lon="13.957692058954676"><ele>2080.8333333333335</ele><time>2026-04-11T08:43:51Z</time></trkpt><trkpt lat="41.681345436637415" lon="13.957639038950452"><ele>2079.6666666666665</ele><time>2026-04-11T08:43:53Z</time></trkpt><trkpt lat="41.68141719159929" lon="13.957590120688545"><ele>2078.5</ele><time>2026-04-11T08:43:55Z</time></trkpt><trkpt lat="41.68149071017423" lon="13.957530172173488"><ele>2077.333333333333</ele><time>2026-04-11T08:43:57Z</time></trkpt><trkpt lat="41.681548678991696" lon="13.957460858888497"><ele>2076.1666666666665</ele><time>2026-04-11T08:43:59Z</time></trkpt><trkpt lat="41.68158949799613" lon="13.957364752197876"><ele>2075.0</ele><time>2026-04-11T08:44:02Z</time></trkpt><trkpt lat="41.68170773296162" lon="13.957354936662377"><ele>2074.1666666666665</ele><time>2026-04-11T08:44:06Z</time></trkpt><trkpt lat="41.68176005336373" lon="13.957423898038845"><ele>2073.333333333333</ele><time>2026-04-11T08:44:08Z</time></trkpt><trkpt lat="41.68188316126128" lon="13.957437235005083"><ele>2072.5</ele><time>2026-04-11T08:44:10Z</time></trkpt><trkpt lat="41.68194813519948" lon="13.957390545539871"><ele>2071.6666666666665</ele><time>2026-04-11T08:44:11Z</time></trkpt><trkpt lat="41.68202931369323" lon="13.95731871405939"><ele>2070.8333333333335</ele><time>2026-04-11T08:44:13Z</time></trkpt><trkpt lat="41.68208265186052" lon="13.95725830566946"><ele>2070.0</ele><time>2026-04-11T08:44:16Z</time></trkpt><trkpt lat="41.68214414130189" lon="13.957234227145694"><ele>2066.5</ele><time>2026-04-11T08:44:28Z</time></trkpt><trkpt lat="41.682147885239885" lon="13.957338311121243"><ele>2063.0</ele><time>2026-04-11T08:44:44Z</time></trkpt><trkpt lat="41.68217181268537" lon="13.957418592888072"><ele>2059.5</ele><time>2026-04-11T08:44:46.001Z</time></trkpt><trkpt lat="41.68220846856985" lon="13.95750633926349"><ele>2056.0</ele><time>2026-04-11T08:44:48.001Z</time></trkpt><trkpt lat="41.682271829843856" lon="13.957585421725915"><ele>2052.5</ele><time>2026-04-11T08:44:50.001Z</time></trkpt><trkpt lat="41.68236848586562" lon="13.957532558511689"><ele>2049.0</ele><time>2026-04-11T08:45:46Z</time></trkpt><trkpt lat="41.68241095337768" lon="13.95744045377803"><ele>2049.0</ele><time>2026-04-11T08:45:48Z</time></trkpt><trkpt lat="41.682573910706964" lon="13.957436940797601"><ele>2049.0</ele><time>2026-04-11T08:46:00Z</time></trkpt><trkpt lat="41.682787053736085" lon="13.957477435931109"><ele>2002.0</ele><time>2026-04-11T08:46:22Z</time></trkpt></trkseg><trkseg><trkpt lat="41.688482564912725" lon="13.94971555956691"><ele>1807.9999999999998</ele><time>2026-04-11T09:08:14Z</time></trkpt><trkpt lat="41.6884519285156" lon="13.94963880708544"><ele>1808.0</ele><time>2026-04-11T09:08:20Z</time></trkpt><trkpt lat="41.68840102642863" lon="13.949512675122213"><ele>1808.0</ele><time>2026-04-11T09:08:40Z</time></trkpt><trkpt lat="41.688309066240855" lon="13.949453995817468"><ele>1808.0</ele><time>2026-04-11T09:08:55Z</time></trkpt><trkpt lat="41.6882458064057" lon="13.949409429587375"><ele>1807.9999999999998</ele><time>2026-04-11T09:09:09Z</time></trkpt><trkpt lat="41.68819100263902" lon="13.949366168910164"><ele>1808.0</ele><time>2026-04-11T09:09:25Z</time></trkpt><trkpt lat="41.688130003543634" lon="13.949324834586236"><ele>1808.0</ele><time>2026-04-11T09:09:34Z</time></trkpt><trkpt lat="41.688070581853886" lon="13.949273711821682"><ele>1808.0</ele><time>2026-04-11T09:09:45Z</time></trkpt><trkpt lat="41.688001582336376" lon="13.949234504078202"><ele>1808.0</ele><time>2026-04-11T09:09:55Z</time></trkpt><trkpt lat="41.687949931372835" lon="13.949169212647455"><ele>1808.0</ele><time>2026-04-11T09:10:32Z</time></trkpt><trkpt lat="41.68791719684853" lon="13.949094932690908"><ele>1808.0</ele><time>2026-04-11T09:10:43Z</time></trkpt><trkpt lat="41.687888349272754" lon="13.949018433577683"><ele>1808.0</ele><time>2026-04-11T09:10:51Z</time></trkpt><trkpt lat="41.68786598010377" lon="13.948938630966182"><ele>1808.0</ele><time>2026-04-11T09:11:02.999Z</time></trkpt><trkpt lat="41.68784985426288" lon="13.948848619352255"><ele>1809.1428571428573</ele><time>2026-04-11T09:11:14.999Z</time></trkpt><trkpt lat="41.68782586619669" lon="13.948764606653175"><ele>1810.2857142857142</ele><time>2026-04-11T09:11:23.999Z</time></trkpt><trkpt lat="41.68780223267729" lon="13.948683877431884"><ele>1811.4285714285716</ele><time>2026-04-11T09:11:33.999Z</time></trkpt><trkpt lat="41.6877671517694" lon="13.94860896155607"><ele>1812.5714285714287</ele><time>2026-04-11T09:11:44.999Z</time></trkpt><trkpt lat="41.68774038438288" lon="13.948531807721997"><ele>1813.7142857142858</ele><time>2026-04-11T09:11:56Z</time></trkpt><trkpt lat="41.687707334142786" lon="13.948443082200892"><ele>1814.857142857143</ele><time>2026-04-11T09:12:08Z</time></trkpt><trkpt lat="41.687665830059146" lon="13.948370484807882"><ele>1816.0</ele><time>2026-04-11T09:12:20Z</time></trkpt><trkpt lat="41.68764060099934" lon="13.94829106024823"><ele>1819.0</ele><time>2026-04-11T09:12:32Z</time></trkpt><trkpt lat="41.687603105780276" lon="13.948221838913256"><ele>1822.0000000000002</ele><time>2026-04-11T09:12:42Z</time></trkpt><trkpt lat="41.687575307969546" lon="13.948145436534046"><ele>1825.0</ele><time>2026-04-11T09:12:53Z</time></trkpt><trkpt lat="41.68754091184397" lon="13.948071000703939"><ele>1828.0</ele><time>2026-04-11T09:13:04.999Z</time></trkpt><trkpt lat="41.68750781612879" lon="13.947991737661727"><ele>1831.0000000000002</ele><time>2026-04-11T09:13:15.999Z</time></trkpt><trkpt lat="41.68747462247523" lon="13.947914784328848"><ele>1834.0</ele><time>2026-04-11T09:13:28.999Z</time></trkpt><trkpt lat="41.687426753897846" lon="13.947858760107579"><ele>1837.0</ele><time>2026-04-11T09:13:41Z</time></trkpt><trkpt lat="41.68738507107888" lon="13.947791586630157"><ele>1837.0</ele><time>2026-04-11T09:13:52Z</time></trkpt><trkpt lat="41.68733278813373" lon="13.94774100140511"><ele>1837.0000000000002</ele><time>2026-04-11T09:14:05Z</time></trkpt><trkpt lat="41.687268537187535" lon="13.947705230131739"><ele>1837.0</ele><time>2026-04-11T09:14:17Z</time></trkpt><trkpt lat="41.68720586976357" lon="13.947679309990898"><ele>1837.0</ele><time>2026-04-11T09:14:48Z</time></trkpt><trkpt lat="41.68714824962095" lon="13.947640502949511"><ele>1837.0000000000002</ele><time>2026-04-11T09:15:00Z</time></trkpt><trkpt lat="41.687109858028805" lon="13.94756860561279"><ele>1837.0</ele><time>2026-04-11T09:15:13Z</time></trkpt><trkpt lat="41.68707180710002" lon="13.94750061477699"><ele>1837.0</ele><time>2026-04-11T09:15:26Z</time></trkpt><trkpt lat="41.68702636783785" lon="13.94743302295785"><ele>1839.2857142857144</ele><time>2026-04-11T09:15:42Z</time></trkpt><trkpt lat="41.68698616605308" lon="13.94736039571603"><ele>1841.571428571429</ele><time>2026-04-11T09:15:56Z</time></trkpt><trkpt lat="41.68694468218861" lon="13.947295760369755"><ele>1843.857142857143</ele><time>2026-04-11T09:16:09Z</time></trkpt><trkpt lat="41.6869000901314" lon="13.947234834497108"><ele>1846.1428571428573</ele><time>2026-04-11T09:16:24Z</time></trkpt><trkpt lat="41.686864450949386" lon="13.947160484271894"><ele>1848.4285714285716</ele><time>2026-04-11T09:16:37Z</time></trkpt><trkpt lat="41.68681858291839" lon="13.947096455336496"><ele>1850.7142857142858</ele><time>2026-04-11T09:16:49Z</time></trkpt><trkpt lat="41.68677916291139" lon="13.947029511020427"><ele>1853.0</ele><time>2026-04-11T09:17:04Z</time></trkpt><trkpt lat="41.686742963456936" lon="13.946953607056392"><ele>1853.5714285714284</ele><time>2026-04-11T09:17:19Z</time></trkpt><trkpt lat="41.68670570541573" lon="13.946876124683138"><ele>1854.1428571428573</ele><time>2026-04-11T09:17:31Z</time></trkpt><trkpt lat="41.68666538736706" lon="13.946808687030932"><ele>1854.7142857142858</ele><time>2026-04-11T09:17:46Z</time></trkpt><trkpt lat="41.68661302686899" lon="13.94675032943746"><ele>1855.2857142857142</ele><time>2026-04-11T09:17:59Z</time></trkpt><trkpt lat="41.68656905071144" lon="13.946685991538644"><ele>1855.8571428571427</ele><time>2026-04-11T09:18:12Z</time></trkpt><trkpt lat="41.68653105835392" lon="13.946612132552795"><ele>1856.4285714285716</ele><time>2026-04-11T09:18:27Z</time></trkpt><trkpt lat="41.68650236220947" lon="13.946535870970429"><ele>1857.0</ele><time>2026-04-11T09:18:43Z</time></trkpt><trkpt lat="41.68646426488918" lon="13.946467321539021"><ele>1859.5714285714287</ele><time>2026-04-11T09:18:56Z</time></trkpt><trkpt lat="41.68642622883902" lon="13.946393634357158"><ele>1862.1428571428569</ele><time>2026-04-11T09:19:09Z</time></trkpt><trkpt lat="41.686410767002975" lon="13.9463068228004"><ele>1864.7142857142856</ele><time>2026-04-11T09:19:24Z</time></trkpt><trkpt lat="41.6863824127595" lon="13.946230650968054"><ele>1867.2857142857142</ele><time>2026-04-11T09:19:38Z</time></trkpt><trkpt lat="41.68635168185307" lon="13.946151659865835"><ele>1869.8571428571427</ele><time>2026-04-11T09:19:50Z</time></trkpt><trkpt lat="41.686323309335855" lon="13.946070219650323"><ele>1872.428571428571</ele><time>2026-04-11T09:20:02Z</time></trkpt><trkpt lat="41.686278087589294" lon="13.946008352797584"><ele>1874.9999999999998</ele><time>2026-04-11T09:20:12Z</time></trkpt><trkpt lat="41.68625321865611" lon="13.945924112456431"><ele>1878.7142857142853</ele><time>2026-04-11T09:20:24Z</time></trkpt><trkpt lat="41.68621594036306" lon="13.945848602529718"><ele>1882.4285714285713</ele><time>2026-04-11T09:20:37Z</time></trkpt><trkpt lat="41.6861777680183" lon="13.945776937622814"><ele>1886.1428571428569</ele><time>2026-04-11T09:20:48Z</time></trkpt><trkpt lat="41.68615609820466" lon="13.945693807989189"><ele>1889.8571428571427</ele><time>2026-04-11T09:21:02Z</time></trkpt><trkpt lat="41.68612471437618" lon="13.945614758162106"><ele>1893.5714285714284</ele><time>2026-04-11T09:21:15Z</time></trkpt><trkpt lat="41.686092380640964" lon="13.945537298373909"><ele>1897.2857142857142</ele><time>2026-04-11T09:21:29Z</time></trkpt><trkpt lat="41.68606217694699" lon="13.945462086975088"><ele>1901.0</ele><time>2026-04-11T09:21:40Z</time></trkpt><trkpt lat="41.68603190678548" lon="13.945384674923"><ele>1901.0</ele><time>2026-04-11T09:21:53Z</time></trkpt><trkpt lat="41.68599852126787" lon="13.945306129570335"><ele>1900.9999999999998</ele><time>2026-04-11T09:22:06Z</time></trkpt><trkpt lat="41.685973771155716" lon="13.945223325341242"><ele>1901.0</ele><time>2026-04-11T09:22:18Z</time></trkpt><trkpt lat="41.685937789060944" lon="13.94514305530619"><ele>1901.0</ele><time>2026-04-11T09:22:29Z</time></trkpt><trkpt lat="41.68590502809643" lon="13.94506568987672"><ele>1900.9999999999998</ele><time>2026-04-11T09:22:42Z</time></trkpt><trkpt lat="41.68587085448431" lon="13.944991733299792"><ele>1901.0</ele><time>2026-04-11T09:26:10.001Z</time></trkpt><trkpt lat="41.685823791354615" lon="13.944932900444224"><ele>1901.0</ele><time>2026-04-11T09:26:20.001Z</time></trkpt><trkpt lat="41.68581184675722" lon="13.944843520422854"><ele>1903.0</ele><time>2026-04-11T09:26:35.001Z</time></trkpt><trkpt lat="41.68576381679842" lon="13.944784511556994"><ele>1904.9999999999998</ele><time>2026-04-11T09:26:46.001Z</time></trkpt><trkpt lat="41.6857201665173" lon="13.944718799321144"><ele>1907.0</ele><time>2026-04-11T09:26:57.001Z</time></trkpt><trkpt lat="41.68568195592655" lon="13.94464637692732"><ele>1909.0</ele><time>2026-04-11T09:27:10.001Z</time></trkpt><trkpt lat="41.68564756666309" lon="13.94457277412168"><ele>1910.9999999999998</ele><time>2026-04-11T09:27:24.001Z</time></trkpt><trkpt lat="41.685606299742155" lon="13.94449918394602"><ele>1913.0</ele><time>2026-04-11T09:27:36.001Z</time></trkpt><trkpt lat="41.68559982743933" lon="13.944410082031677"><ele>1915.0</ele><time>2026-04-11T09:27:50.001Z</time></trkpt><trkpt lat="41.68555571517096" lon="13.944349376775042"><ele>1915.0</ele><time>2026-04-11T09:28:01.001Z</time></trkpt><trkpt lat="41.685512832441546" lon="13.94428282032244"><ele>1914.9999999999998</ele><time>2026-04-11T09:28:15.001Z</time></trkpt><trkpt lat="41.685450550430836" lon="13.944241799744676"><ele>1915.0</ele><time>2026-04-11T09:28:26.001Z</time></trkpt><trkpt lat="41.685391482852445" lon="13.944193498206172"><ele>1915.0</ele><time>2026-04-11T09:28:39.001Z</time></trkpt><trkpt lat="41.68533968741313" lon="13.944144948799666"><ele>1914.9999999999998</ele><time>2026-04-11T09:28:51.001Z</time></trkpt><trkpt lat="41.68529346524743" lon="13.944087098832565"><ele>1915.0</ele><time>2026-04-11T09:29:07.001Z</time></trkpt><trkpt lat="41.68523702123134" lon="13.944044023334138"><ele>1915.0</ele><time>2026-04-11T09:29:23.001Z</time></trkpt><trkpt lat="41.68517634001262" lon="13.943997964566837"><ele>1918.0</ele><time>2026-04-11T09:29:36.001Z</time></trkpt><trkpt lat="41.68511421246471" lon="13.943971180216653"><ele>1920.9999999999998</ele><time>2026-04-11T09:29:49.001Z</time></trkpt><trkpt lat="41.68504561193662" lon="13.943943640286907"><ele>1924.0</ele><time>2026-04-11T09:30:00.001Z</time></trkpt><trkpt lat="41.68498863883183" lon="13.943882330970373"><ele>1927.0</ele><time>2026-04-11T09:30:20.001Z</time></trkpt><trkpt lat="41.68493202556956" lon="13.943843570245026"><ele>1929.9999999999998</ele><time>2026-04-11T09:30:34.001Z</time></trkpt><trkpt lat="41.68495073766401" lon="13.943758300311261"><ele>1933.0</ele><time>2026-04-11T09:30:52.001Z</time></trkpt><trkpt lat="41.68498618181815" lon="13.943677841223211"><ele>1936.0</ele><time>2026-04-11T09:31:06.001Z</time></trkpt><trkpt lat="41.68503410367651" lon="13.943604223534699"><ele>1936.0</ele><time>2026-04-11T09:31:22.001Z</time></trkpt><trkpt lat="41.68501888842882" lon="13.94351844743454"><ele>1935.9999999999998</ele><time>2026-04-11T09:31:37.001Z</time></trkpt><trkpt lat="41.68495613454394" lon="13.943484966632369"><ele>1936.0</ele><time>2026-04-11T09:31:57Z</time></trkpt><trkpt lat="41.68489204978163" lon="13.94346314547703"><ele>1936.0</ele><time>2026-04-11T09:32:12Z</time></trkpt><trkpt lat="41.68486324842419" lon="13.943386649079528"><ele>1935.9999999999998</ele><time>2026-04-11T09:32:33Z</time></trkpt><trkpt lat="41.68486510899964" lon="13.943302286669802"><ele>1936.0</ele><time>2026-04-11T09:32:44.001Z</time></trkpt><trkpt lat="41.684868180572316" lon="13.943217617761235"><ele>1936.0</ele><time>2026-04-11T09:32:56.001Z</time></trkpt><trkpt lat="41.68482007406903" lon="13.94315153536283"><ele>1938.5714285714284</ele><time>2026-04-11T09:33:13.001Z</time></trkpt><trkpt lat="41.68475516567665" lon="13.943188230938361"><ele>1941.1428571428569</ele><time>2026-04-11T09:33:28.001Z</time></trkpt><trkpt lat="41.68468903592999" lon="13.943193259828869"><ele>1943.7142857142858</ele><time>2026-04-11T09:33:44.001Z</time></trkpt><trkpt lat="41.684669500323295" lon="13.943103984261677"><ele>1946.2857142857142</ele><time>2026-04-11T09:34:07Z</time></trkpt><trkpt lat="41.684682920925894" lon="13.943010102789104"><ele>1948.857142857143</ele><time>2026-04-11T09:34:17Z</time></trkpt><trkpt lat="41.68462663357336" lon="13.942969662985522"><ele>1951.4285714285716</ele><time>2026-04-11T09:34:32Z</time></trkpt><trkpt lat="41.68455790282909" lon="13.94297000149371"><ele>1954.0000000000002</ele><time>2026-04-11T09:34:48Z</time></trkpt><trkpt lat="41.684499491029" lon="13.943001914789951"><ele>1954.0000000000002</ele><time>2026-04-11T09:35:00.001Z</time></trkpt><trkpt lat="41.68443967131594" lon="13.94297436917635"><ele>1954.0</ele><time>2026-04-11T09:35:22.001Z</time></trkpt><trkpt lat="41.68442793940341" lon="13.942890269184018"><ele>1954.0000000000002</ele><time>2026-04-11T09:35:36.001Z</time></trkpt><trkpt lat="41.684422445139894" lon="13.942801379370142"><ele>1954.0000000000002</ele><time>2026-04-11T09:35:49.001Z</time></trkpt><trkpt lat="41.68435356345768" lon="13.942817137858446"><ele>1954.0</ele><time>2026-04-11T09:36:04.001Z</time></trkpt><trkpt lat="41.68429762694092" lon="13.942858944856395"><ele>1954.0000000000002</ele><time>2026-04-11T09:36:18Z</time></trkpt><trkpt lat="41.68427353686337" lon="13.94277707159524"><ele>1954.0000000000002</ele><time>2026-04-11T09:36:31Z</time></trkpt><trkpt lat="41.68420748374125" lon="13.942777727318393"><ele>1957.6666666666667</ele><time>2026-04-11T09:36:50Z</time></trkpt><trkpt lat="41.68410023826106" lon="13.94277426086767"><ele>1961.3333333333335</ele><time>2026-04-11T09:37:22.001Z</time></trkpt><trkpt lat="41.68403661178084" lon="13.942771621085294"><ele>1965.0</ele><time>2026-04-11T09:37:35.001Z</time></trkpt><trkpt lat="41.68399991303873" lon="13.942844621446692"><ele>1968.6666666666665</ele><time>2026-04-11T09:37:43.001Z</time></trkpt><trkpt lat="41.68389837813971" lon="13.94287620112251"><ele>1972.3333333333333</ele><time>2026-04-11T09:38:13.001Z</time></trkpt><trkpt lat="41.68383263199529" lon="13.942886852281594"><ele>1976.0</ele><time>2026-04-11T09:38:16Z</time></trkpt><trkpt lat="41.68379375873938" lon="13.942957107355864"><ele>1976.0</ele><time>2026-04-11T09:38:23Z</time></trkpt><trkpt lat="41.6837684041863" lon="13.943042977698815"><ele>1976.0</ele><time>2026-04-11T09:38:34Z</time></trkpt><trkpt lat="41.68374374110354" lon="13.943130552178864"><ele>1976.0</ele><time>2026-04-11T09:38:45Z</time></trkpt><trkpt lat="41.68372147088339" lon="13.943219634211925"><ele>1976.0</ele><time>2026-04-11T09:38:55.001Z</time></trkpt><trkpt lat="41.68369180858999" lon="13.943305134013714"><ele>1976.0</ele><time>2026-04-11T09:39:04.001Z</time></trkpt><trkpt lat="41.68366538463054" lon="13.943386915563673"><ele>1976.0</ele><time>2026-04-11T09:39:12.001Z</time></trkpt><trkpt lat="41.68363920005153" lon="13.943479240703086"><ele>1976.0</ele><time>2026-04-11T09:39:22.001Z</time></trkpt><trkpt lat="41.683616834321704" lon="13.943566052874687"><ele>1976.0</ele><time>2026-04-11T09:39:31.001Z</time></trkpt><trkpt lat="41.683602850714884" lon="13.943652534963888"><ele>1976.0</ele><time>2026-04-11T09:39:39.001Z</time></trkpt><trkpt lat="41.68359048886835" lon="13.943750588611731"><ele>1976.0</ele><time>2026-04-11T09:39:48.001Z</time></trkpt><trkpt lat="41.683570223526026" lon="13.94383805812226"><ele>1976.0</ele><time>2026-04-11T09:39:57.001Z</time></trkpt><trkpt lat="41.68355692111092" lon="13.943921955857732"><ele>1976.0</ele><time>2026-04-11T09:40:07.001Z</time></trkpt><trkpt lat="41.68354810946712" lon="13.944011517147402"><ele>1976.0</ele><time>2026-04-11T09:40:15.001Z</time></trkpt><trkpt lat="41.68353724634019" lon="13.94410215958467"><ele>1976.0</ele><time>2026-04-11T09:40:22Z</time></trkpt><trkpt lat="41.683525256980666" lon="13.944192168042466"><ele>1977.2857142857142</ele><time>2026-04-11T09:40:31Z</time></trkpt><trkpt lat="41.68352066094665" lon="13.944291950646434"><ele>1978.5714285714284</ele><time>2026-04-11T09:40:40Z</time></trkpt><trkpt lat="41.683506859847625" lon="13.944385675618465"><ele>1979.8571428571427</ele><time>2026-04-11T09:40:50Z</time></trkpt><trkpt lat="41.68349400630393" lon="13.944476876415228"><ele>1981.142857142857</ele><time>2026-04-11T09:40:58Z</time></trkpt><trkpt lat="41.68348256991808" lon="13.944568189088846"><ele>1982.428571428571</ele><time>2026-04-11T09:41:07Z</time></trkpt><trkpt lat="41.6834713717029" lon="13.944666208478727"><ele>1983.7142857142856</ele><time>2026-04-11T09:41:17Z</time></trkpt><trkpt lat="41.68346164867166" lon="13.944760640029775"><ele>1985.0</ele><time>2026-04-11T09:41:26.001Z</time></trkpt><trkpt lat="41.683453108362194" lon="13.944844195986049"><ele>1985.0</ele><time>2026-04-11T09:41:34.001Z</time></trkpt><trkpt lat="41.68344074446855" lon="13.944928167688325"><ele>1984.9999999999998</ele><time>2026-04-11T09:41:42.001Z</time></trkpt><trkpt lat="41.68342917403256" lon="13.945012013299804"><ele>1985.0</ele><time>2026-04-11T09:41:52.001Z</time></trkpt><trkpt lat="41.68341960206976" lon="13.945099169407603"><ele>1985.0</ele><time>2026-04-11T09:42:03.001Z</time></trkpt><trkpt lat="41.683406004247736" lon="13.945182237230489"><ele>1984.9999999999998</ele><time>2026-04-11T09:42:13.001Z</time></trkpt><trkpt lat="41.68338965517068" lon="13.945269842579886"><ele>1985.0</ele><time>2026-04-11T09:42:20.001Z</time></trkpt><trkpt lat="41.68338245906175" lon="13.945363038522643"><ele>1985.0</ele><time>2026-04-11T09:42:29Z</time></trkpt><trkpt lat="41.68337230662604" lon="13.945454035883795"><ele>1986.2857142857142</ele><time>2026-04-11T09:42:37Z</time></trkpt><trkpt lat="41.68336140870586" lon="13.945539343185136"><ele>1987.5714285714284</ele><time>2026-04-11T09:42:45Z</time></trkpt><trkpt lat="41.68334488347194" lon="13.945625998309213"><ele>1988.8571428571427</ele><time>2026-04-11T09:42:55Z</time></trkpt><trkpt lat="41.68331297199039" lon="13.945706239528464"><ele>1990.1428571428569</ele><time>2026-04-11T09:43:04Z</time></trkpt><trkpt lat="41.68327224151686" lon="13.945780998552086"><ele>1991.4285714285713</ele><time>2026-04-11T09:43:14Z</time></trkpt><trkpt lat="41.683232181043095" lon="13.94585416770805"><ele>1992.7142857142853</ele><time>2026-04-11T09:43:27.001Z</time></trkpt><trkpt lat="41.68319953632799" lon="13.94593197394396"><ele>1993.9999999999998</ele><time>2026-04-11T09:43:38.001Z</time></trkpt><trkpt lat="41.68316062184904" lon="13.946006068213991"><ele>1995.9999999999998</ele><time>2026-04-11T09:43:47.001Z</time></trkpt><trkpt lat="41.68312151057778" lon="13.946078630418613"><ele>1998.0</ele><time>2026-04-11T09:43:58.001Z</time></trkpt><trkpt lat="41.68307702991764" lon="13.946151517301013"><ele>1999.9999999999998</ele><time>2026-04-11T09:44:09.001Z</time></trkpt><trkpt lat="41.68304069566592" lon="13.946223185438459"><ele>2001.9999999999998</ele><time>2026-04-11T09:44:18.001Z</time></trkpt><trkpt lat="41.683019571460676" lon="13.946308191216968"><ele>2004.0</ele><time>2026-04-11T09:44:30.001Z</time></trkpt><trkpt lat="41.68300274636572" lon="13.946394132884281"><ele>2005.9999999999998</ele><time>2026-04-11T09:44:40Z</time></trkpt><trkpt lat="41.68297381628067" lon="13.946469840686044"><ele>2007.9999999999998</ele><time>2026-04-11T09:44:51Z</time></trkpt><trkpt lat="41.68291849901882" lon="13.946513430836236"><ele>2007.9999999999998</ele><time>2026-04-11T09:45:02Z</time></trkpt><trkpt lat="41.68285402724322" lon="13.946526472885047"><ele>2008.0</ele><time>2026-04-11T09:45:15Z</time></trkpt><trkpt lat="41.682788763382646" lon="13.946562207609015"><ele>2007.9999999999998</ele><time>2026-04-11T09:45:29Z</time></trkpt><trkpt lat="41.68272287766155" lon="13.94658485729837"><ele>2007.9999999999998</ele><time>2026-04-11T09:45:39Z</time></trkpt><trkpt lat="41.6826645131997" lon="13.946622990666116"><ele>2008.0</ele><time>2026-04-11T09:45:54.001Z</time></trkpt><trkpt lat="41.682605643970604" lon="13.94666491154229"><ele>2007.9999999999998</ele><time>2026-04-11T09:46:07.001Z</time></trkpt><trkpt lat="41.682536367071904" lon="13.946694646004367"><ele>2007.9999999999998</ele><time>2026-04-11T09:46:28.001Z</time></trkpt><trkpt lat="41.68246902500326" lon="13.946715716310246"><ele>2009.8571428571427</ele><time>2026-04-11T09:46:41Z</time></trkpt><trkpt lat="41.68240512105043" lon="13.946739201089784"><ele>2011.7142857142858</ele><time>2026-04-11T09:46:54Z</time></trkpt><trkpt lat="41.682337316384846" lon="13.946761036563407"><ele>2013.5714285714284</ele><time>2026-04-11T09:47:05Z</time></trkpt><trkpt lat="41.682275702009456" lon="13.946782944234538"><ele>2015.4285714285713</ele><time>2026-04-11T09:47:14Z</time></trkpt><trkpt lat="41.68222482448675" lon="13.946840071987598"><ele>2017.2857142857142</ele><time>2026-04-11T09:47:24Z</time></trkpt><trkpt lat="41.68218544920502" lon="13.946913658824617"><ele>2019.142857142857</ele><time>2026-04-11T09:47:36Z</time></trkpt><trkpt lat="41.682153809610405" lon="13.946989534658833"><ele>2021.0</ele><time>2026-04-11T09:47:48Z</time></trkpt><trkpt lat="41.682118506743514" lon="13.947062004535573"><ele>2021.0</ele><time>2026-04-11T09:47:58Z</time></trkpt><trkpt lat="41.682086021954184" lon="13.947138236688888"><ele>2021.0</ele><time>2026-04-11T09:48:09.001Z</time></trkpt><trkpt lat="41.682054319231625" lon="13.947215664181215"><ele>2021.0</ele><time>2026-04-11T09:48:22.001Z</time></trkpt><trkpt lat="41.68202753199345" lon="13.947296599727846"><ele>2021.0</ele><time>2026-04-11T09:48:33.001Z</time></trkpt><trkpt lat="41.68199701783514" lon="13.947375334972735"><ele>2021.0</ele><time>2026-04-11T09:48:45Z</time></trkpt><trkpt lat="41.68195705748425" lon="13.947448305967347"><ele>2021.0</ele><time>2026-04-11T09:48:58Z</time></trkpt><trkpt lat="41.68192584330759" lon="13.947527256331727"><ele>2021.0</ele><time>2026-04-11T09:49:12Z</time></trkpt><trkpt lat="41.68189342050888" lon="13.947604874372997"><ele>2023.0</ele><time>2026-04-11T09:49:26Z</time></trkpt><trkpt lat="41.68186108484178" lon="13.947685588676933"><ele>2025.0</ele><time>2026-04-11T09:49:37Z</time></trkpt><trkpt lat="41.681828340925776" lon="13.947758250950793"><ele>2027.0</ele><time>2026-04-11T09:49:47Z</time></trkpt><trkpt lat="41.68179533438135" lon="13.94783407725895"><ele>2029.0</ele><time>2026-04-11T09:50:00.001Z</time></trkpt><trkpt lat="41.68176806988904" lon="13.947915005579402"><ele>2031.0</ele><time>2026-04-11T09:50:11.001Z</time></trkpt><trkpt lat="41.68174559266978" lon="13.94800173501125"><ele>2033.0</ele><time>2026-04-11T09:50:19.001Z</time></trkpt><trkpt lat="41.68172430083585" lon="13.948085775019083"><ele>2035.0</ele><time>2026-04-11T09:50:27.001Z</time></trkpt><trkpt lat="41.68170623487835" lon="13.948166663493849"><ele>2035.0</ele><time>2026-04-11T09:50:34.001Z</time></trkpt><trkpt lat="41.68168631422045" lon="13.948252996906662"><ele>2035.0</ele><time>2026-04-11T09:50:42.001Z</time></trkpt><trkpt lat="41.681660064573684" lon="13.948330186096873"><ele>2035.0</ele><time>2026-04-11T09:50:52Z</time></trkpt><trkpt lat="41.681627623016475" lon="13.948404088922524"><ele>2035.0</ele><time>2026-04-11T09:51:02Z</time></trkpt><trkpt lat="41.68159805780992" lon="13.948484987387559"><ele>2035.0</ele><time>2026-04-11T09:51:13Z</time></trkpt><trkpt lat="41.68156123406906" lon="13.948556047422123"><ele>2035.0</ele><time>2026-04-11T09:51:25Z</time></trkpt><trkpt lat="41.681525282836525" lon="13.948627179459473"><ele>2035.0</ele><time>2026-04-11T09:51:38Z</time></trkpt><trkpt lat="41.6814910773686" lon="13.948697949339685"><ele>2032.8571428571427</ele><time>2026-04-11T09:51:50Z</time></trkpt><trkpt lat="41.68146088114978" lon="13.948773396761323"><ele>2030.7142857142858</ele><time>2026-04-11T09:52:03.001Z</time></trkpt><trkpt lat="41.6814213045169" lon="13.948844166563454"><ele>2028.5714285714284</ele><time>2026-04-11T09:52:15.001Z</time></trkpt><trkpt lat="41.68137865500045" lon="13.948912176917892"><ele>2026.4285714285713</ele><time>2026-04-11T09:52:25.001Z</time></trkpt><trkpt lat="41.68133204928649" lon="13.948969532194976"><ele>2024.2857142857142</ele><time>2026-04-11T09:52:35.001Z</time></trkpt><trkpt lat="41.68128487294642" lon="13.949032354401487"><ele>2022.142857142857</ele><time>2026-04-11T09:52:44.001Z</time></trkpt><trkpt lat="41.68123772872375" lon="13.949090820407003"><ele>2020.0</ele><time>2026-04-11T09:52:52.001Z</time></trkpt><trkpt lat="41.68119506171861" lon="13.949157840031523"><ele>2024.4285714285713</ele><time>2026-04-11T09:53:02Z</time></trkpt><trkpt lat="41.68115026929618" lon="13.949220158386463"><ele>2028.8571428571427</ele><time>2026-04-11T09:53:13Z</time></trkpt><trkpt lat="41.681104613684255" lon="13.949285727824687"><ele>2033.2857142857142</ele><time>2026-04-11T09:53:25Z</time></trkpt><trkpt lat="41.68107123963222" lon="13.949366070447136"><ele>2037.7142857142858</ele><time>2026-04-11T09:53:35Z</time></trkpt><trkpt lat="41.681035613169996" lon="13.94943940011084"><ele>2042.142857142857</ele><time>2026-04-11T09:53:45Z</time></trkpt><trkpt lat="41.68100026192939" lon="13.949509709013904"><ele>2046.5714285714284</ele><time>2026-04-11T09:53:54.001Z</time></trkpt><trkpt lat="41.680970458893185" lon="13.949586913713667"><ele>2051.0</ele><time>2026-04-11T09:54:03.001Z</time></trkpt><trkpt lat="41.680928901548384" lon="13.94965312389903"><ele>2051.0</ele><time>2026-04-11T09:54:12.001Z</time></trkpt><trkpt lat="41.680885412067106" lon="13.949725304473377"><ele>2051.0</ele><time>2026-04-11T09:54:22.001Z</time></trkpt><trkpt lat="41.68083919862457" lon="13.94979865291269"><ele>2051.0</ele><time>2026-04-11T09:54:31.001Z</time></trkpt><trkpt lat="41.68079053208345" lon="13.949868196167683"><ele>2051.0</ele><time>2026-04-11T09:54:42.001Z</time></trkpt><trkpt lat="41.68074544639472" lon="13.949932596320295"><ele>2051.0</ele><time>2026-04-11T09:54:52.001Z</time></trkpt><trkpt lat="41.68069240586455" lon="13.949991825191374"><ele>2051.0</ele><time>2026-04-11T09:55:02.001Z</time></trkpt><trkpt lat="41.68063731045923" lon="13.95004372741281"><ele>2051.0</ele><time>2026-04-11T09:55:12Z</time></trkpt><trkpt lat="41.68058705756195" lon="13.950100546307311"><ele>2047.857142857143</ele><time>2026-04-11T09:55:22Z</time></trkpt><trkpt lat="41.680544259750874" lon="13.95017129798029"><ele>2044.7142857142858</ele><time>2026-04-11T09:55:33Z</time></trkpt><trkpt lat="41.680498066895595" lon="13.95022970716272"><ele>2041.5714285714284</ele><time>2026-04-11T09:55:44Z</time></trkpt><trkpt lat="41.68045516711492" lon="13.950297578152364"><ele>2038.4285714285713</ele><time>2026-04-11T09:55:54Z</time></trkpt><trkpt lat="41.68041026529297" lon="13.950357868524469"><ele>2035.2857142857142</ele><time>2026-04-11T09:56:03.001Z</time></trkpt><trkpt lat="41.68036287255741" lon="13.95042201686147"><ele>2032.1428571428569</ele><time>2026-04-11T09:56:14.001Z</time></trkpt><trkpt lat="41.680318268097935" lon="13.950491900829633"><ele>2028.9999999999998</ele><time>2026-04-11T09:56:24.001Z</time></trkpt><trkpt lat="41.68027877639554" lon="13.95056232951698"><ele>2034.1428571428569</ele><time>2026-04-11T09:56:33.001Z</time></trkpt><trkpt lat="41.680232446886116" lon="13.950636932485116"><ele>2039.2857142857142</ele><time>2026-04-11T09:56:43.001Z</time></trkpt><trkpt lat="41.680184860983374" lon="13.950703063574348"><ele>2044.4285714285713</ele><time>2026-04-11T09:56:52.001Z</time></trkpt><trkpt lat="41.68014098670491" lon="13.950773716653519"><ele>2049.5714285714284</ele><time>2026-04-11T09:57:03.001Z</time></trkpt><trkpt lat="41.6801003098499" lon="13.950843532312865"><ele>2054.714285714286</ele><time>2026-04-11T09:57:13Z</time></trkpt><trkpt lat="41.680065906356205" lon="13.950916797236419"><ele>2059.8571428571427</ele><time>2026-04-11T09:57:22Z</time></trkpt><trkpt lat="41.680032834980025" lon="13.950996867993705"><ele>2065.0</ele><time>2026-04-11T09:57:32Z</time></trkpt><trkpt lat="41.679999736676095" lon="13.951072324372534"><ele>2065.285714285714</ele><time>2026-04-11T09:57:42Z</time></trkpt><trkpt lat="41.67998617413547" lon="13.951159413553473"><ele>2065.5714285714284</ele><time>2026-04-11T09:57:52Z</time></trkpt><trkpt lat="41.67996961530498" lon="13.951246403118523"><ele>2065.857142857143</ele><time>2026-04-11T09:58:00Z</time></trkpt><trkpt lat="41.679955388604924" lon="13.951332660288546"><ele>2066.142857142857</ele><time>2026-04-11T09:58:08.001Z</time></trkpt><trkpt lat="41.67994799207169" lon="13.951417984701271"><ele>2066.4285714285716</ele><time>2026-04-11T09:58:16.001Z</time></trkpt><trkpt lat="41.67994526824524" lon="13.951512150514779"><ele>2066.714285714286</ele><time>2026-04-11T09:58:24.001Z</time></trkpt><trkpt lat="41.67994336656049" lon="13.951605243932482"><ele>2067.0</ele><time>2026-04-11T09:58:31.001Z</time></trkpt><trkpt lat="41.67992499317013" lon="13.95170181833149"><ele>2067.0</ele><time>2026-04-11T09:58:35.001Z</time></trkpt><trkpt lat="41.67990541384637" lon="13.951791341343275"><ele>2067.0</ele><time>2026-04-11T09:58:37.001Z</time></trkpt><trkpt lat="41.67988577413146" lon="13.951875864645299"><ele>2067.0</ele><time>2026-04-11T09:58:43.001Z</time></trkpt><trkpt lat="41.67984838352782" lon="13.951955541748985"><ele>2067.0</ele><time>2026-04-11T09:58:51.001Z</time></trkpt><trkpt lat="41.67980398252235" lon="13.952019407100645"><ele>2067.0</ele><time>2026-04-11T09:59:00.001Z</time></trkpt><trkpt lat="41.6797528945508" lon="13.95207658919563"><ele>2067.0</ele><time>2026-04-11T09:59:09.001Z</time></trkpt><trkpt lat="41.67970605882451" lon="13.952133172500364"><ele>2067.0</ele><time>2026-04-11T09:59:16Z</time></trkpt><trkpt lat="41.67965741455403" lon="13.952195817458747"><ele>2067.0</ele><time>2026-04-11T09:59:24Z</time></trkpt><trkpt lat="41.679619561723804" lon="13.95227873199589"><ele>2067.0</ele><time>2026-04-11T09:59:34Z</time></trkpt><trkpt lat="41.679588696948294" lon="13.952360620976519"><ele>2067.0</ele><time>2026-04-11T09:59:43Z</time></trkpt><trkpt lat="41.679556080228906" lon="13.952433196282888"><ele>2067.0</ele><time>2026-04-11T09:59:52Z</time></trkpt><trkpt lat="41.67952490613711" lon="13.9525064353295"><ele>2067.0</ele><time>2026-04-11T10:00:02Z</time></trkpt><trkpt lat="41.679489822842264" lon="13.952584400321848"><ele>2067.0</ele><time>2026-04-11T10:00:11Z</time></trkpt><trkpt lat="41.67945709580789" lon="13.952661569332104"><ele>2067.0</ele><time>2026-04-11T10:00:19.001Z</time></trkpt><trkpt lat="41.67942816391534" lon="13.952745805580824"><ele>2068.285714285714</ele><time>2026-04-11T10:00:27.001Z</time></trkpt><trkpt lat="41.6793912130481" lon="13.952821588405785"><ele>2069.5714285714284</ele><time>2026-04-11T10:00:34.001Z</time></trkpt><trkpt lat="41.679358730892126" lon="13.952898592538611"><ele>2070.8571428571427</ele><time>2026-04-11T10:00:41.001Z</time></trkpt><trkpt lat="41.679322796544675" lon="13.952973381892143"><ele>2072.142857142857</ele><time>2026-04-11T10:00:48.001Z</time></trkpt><trkpt lat="41.67928336375472" lon="13.953040347583185"><ele>2073.428571428571</ele><time>2026-04-11T10:02:33.001Z</time></trkpt><trkpt lat="41.679243692012264" lon="13.953115267193253"><ele>2074.714285714286</ele><time>2026-04-11T10:02:44.001Z</time></trkpt><trkpt lat="41.67920309566569" lon="13.953182039369043"><ele>2076.0</ele><time>2026-04-11T10:02:54.001Z</time></trkpt><trkpt lat="41.67915970721302" lon="13.953247295502031"><ele>2076.0</ele><time>2026-04-11T10:03:04.001Z</time></trkpt><trkpt lat="41.67911745928649" lon="13.95331201759018"><ele>2076.0</ele><time>2026-04-11T10:03:12.001Z</time></trkpt><trkpt lat="41.67907659281398" lon="13.953381166877406"><ele>2076.0</ele><time>2026-04-11T10:03:21.001Z</time></trkpt><trkpt lat="41.679036889057926" lon="13.953454294045526"><ele>2076.0</ele><time>2026-04-11T10:03:30Z</time></trkpt><trkpt lat="41.67899840830895" lon="13.953529523080691"><ele>2076.0</ele><time>2026-04-11T10:03:40Z</time></trkpt><trkpt lat="41.67896078479695" lon="13.953600096805374"><ele>2076.0</ele><time>2026-04-11T10:03:49Z</time></trkpt><trkpt lat="41.67892075824368" lon="13.95367257572607"><ele>2076.0</ele><time>2026-04-11T10:03:59Z</time></trkpt><trkpt lat="41.6788848479347" lon="13.953744416848327"><ele>2076.5714285714284</ele><time>2026-04-11T10:04:09Z</time></trkpt><trkpt lat="41.67883285630085" lon="13.953799780353261"><ele>2077.142857142857</ele><time>2026-04-11T10:04:19Z</time></trkpt><trkpt lat="41.678779741521794" lon="13.95385431651382"><ele>2077.714285714286</ele><time>2026-04-11T10:04:30.001Z</time></trkpt><trkpt lat="41.678727557562716" lon="13.953912973188997"><ele>2078.285714285714</ele><time>2026-04-11T10:04:40.001Z</time></trkpt><trkpt lat="41.67868030575523" lon="13.953975588110843"><ele>2078.857142857143</ele><time>2026-04-11T10:04:47.001Z</time></trkpt><trkpt lat="41.678631854958184" lon="13.954057083187072"><ele>2079.4285714285716</ele><time>2026-04-11T10:04:52.001Z</time></trkpt><trkpt lat="41.67857408765715" lon="13.954118204905258"><ele>2080.0</ele><time>2026-04-11T10:04:54.001Z</time></trkpt><trkpt lat="41.678520542058294" lon="13.954184330406374"><ele>2079.571428571429</ele><time>2026-04-11T10:04:55.001Z</time></trkpt><trkpt lat="41.67847331483578" lon="13.954255919510079"><ele>2079.1428571428573</ele><time>2026-04-11T10:04:58.001Z</time></trkpt><trkpt lat="41.678423496067545" lon="13.954313554239251"><ele>2078.714285714286</ele><time>2026-04-11T10:05:04.001Z</time></trkpt><trkpt lat="41.67836694910415" lon="13.954375788907798"><ele>2078.2857142857147</ele><time>2026-04-11T10:05:10.001Z</time></trkpt><trkpt lat="41.67831067043084" lon="13.954429652699654"><ele>2077.857142857143</ele><time>2026-04-11T10:05:16.001Z</time></trkpt><trkpt lat="41.67825424546433" lon="13.954481562680327"><ele>2077.4285714285716</ele><time>2026-04-11T10:05:24.001Z</time></trkpt><trkpt lat="41.67819956805708" lon="13.954545123690796"><ele>2077.0</ele><time>2026-04-11T10:05:33Z</time></trkpt><trkpt lat="41.67814409490383" lon="13.954617995428746"><ele>2077.0</ele><time>2026-04-11T10:05:39Z</time></trkpt><trkpt lat="41.678096120002024" lon="13.954678483647067"><ele>2077.0</ele><time>2026-04-11T10:05:44Z</time></trkpt><trkpt lat="41.67804865765629" lon="13.954744567983152"><ele>2077.0</ele><time>2026-04-11T10:05:49Z</time></trkpt><trkpt lat="41.67800231907013" lon="13.954805067332764"><ele>2077.0</ele><time>2026-04-11T10:05:55Z</time></trkpt><trkpt lat="41.67795111283642" lon="13.954867951919526"><ele>2077.0</ele><time>2026-04-11T10:06:02Z</time></trkpt><trkpt lat="41.67790405176944" lon="13.954928472106642"><ele>2077.0</ele><time>2026-04-11T10:06:08Z</time></trkpt><trkpt lat="41.67786740871309" lon="13.955005438954784"><ele>2077.0</ele><time>2026-04-11T10:06:16Z</time></trkpt><trkpt lat="41.67784026205641" lon="13.955085773430534"><ele>2076.166666666667</ele><time>2026-04-11T10:06:21Z</time></trkpt><trkpt lat="41.67782467472565" lon="13.955185688240917"><ele>2075.3333333333335</ele><time>2026-04-11T10:06:24Z</time></trkpt><trkpt lat="41.677787717325195" lon="13.955331599370945"><ele>2074.5</ele><time>2026-04-11T10:06:25Z</time></trkpt><trkpt lat="41.67777341627832" lon="13.955419579091345"><ele>2073.6666666666665</ele><time>2026-04-11T10:06:37.001Z</time></trkpt><trkpt lat="41.67777481238447" lon="13.95550693237913"><ele>2072.833333333333</ele><time>2026-04-11T10:06:48.001Z</time></trkpt><trkpt lat="41.67777238248678" lon="13.955594113083713"><ele>2072.0</ele><time>2026-04-11T10:07:01.001Z</time></trkpt><trkpt lat="41.67776249944842" lon="13.95567777712182"><ele>2071.714285714286</ele><time>2026-04-11T10:07:12.001Z</time></trkpt><trkpt lat="41.677746690774995" lon="13.955762661593175"><ele>2071.4285714285716</ele><time>2026-04-11T10:07:22.001Z</time></trkpt><trkpt lat="41.67774254932412" lon="13.955849189322315"><ele>2071.142857142857</ele><time>2026-04-11T10:07:33.001Z</time></trkpt><trkpt lat="41.67773671408031" lon="13.955938234439557"><ele>2070.857142857143</ele><time>2026-04-11T10:07:43Z</time></trkpt><trkpt lat="41.677724571906296" lon="13.956024839606668"><ele>2070.5714285714284</ele><time>2026-04-11T10:07:52Z</time></trkpt><trkpt lat="41.677694720751695" lon="13.956129687371877"><ele>2070.285714285714</ele><time>2026-04-11T10:07:59Z</time></trkpt><trkpt lat="41.67765945589883" lon="13.956206809413318"><ele>2070.0</ele><time>2026-04-11T10:08:06Z</time></trkpt><trkpt lat="41.67761238818976" lon="13.956265359078944"><ele>2070.714285714286</ele><time>2026-04-11T10:08:13Z</time></trkpt><trkpt lat="41.67756171363862" lon="13.95632238673247"><ele>2071.4285714285716</ele><time>2026-04-11T10:08:20Z</time></trkpt><trkpt lat="41.677514236570715" lon="13.956378192564959"><ele>2072.1428571428573</ele><time>2026-04-11T10:08:27Z</time></trkpt><trkpt lat="41.67746633234251" lon="13.95644217070164"><ele>2072.857142857143</ele><time>2026-04-11T10:08:35Z</time></trkpt><trkpt lat="41.67742185722201" lon="13.956508104418893"><ele>2073.571428571429</ele><time>2026-04-11T10:08:42Z</time></trkpt><trkpt lat="41.677370149557994" lon="13.956572907389853"><ele>2074.285714285714</ele><time>2026-04-11T10:08:49.001Z</time></trkpt><trkpt lat="41.6773187883621" lon="13.95662711008851"><ele>2075.0</ele><time>2026-04-11T10:08:56.001Z</time></trkpt><trkpt lat="41.67729463870504" lon="13.956720064730288"><ele>2075.5714285714284</ele><time>2026-04-11T10:09:05.001Z</time></trkpt><trkpt lat="41.677272331228906" lon="13.956802422794173"><ele>2076.1428571428573</ele><time>2026-04-11T10:09:09.001Z</time></trkpt><trkpt lat="41.67724066575766" lon="13.956913601911895"><ele>2076.714285714286</ele><time>2026-04-11T10:09:12.001Z</time></trkpt><trkpt lat="41.67719443056444" lon="13.956983129802937"><ele>2077.285714285714</ele><time>2026-04-11T10:09:20.001Z</time></trkpt><trkpt lat="41.67712601572235" lon="13.957015638489457"><ele>2077.857142857143</ele><time>2026-04-11T10:09:29.001Z</time></trkpt><trkpt lat="41.67705800431224" lon="13.957028582620953"><ele>2078.4285714285716</ele><time>2026-04-11T10:09:38.001Z</time></trkpt><trkpt lat="41.67698972903201" lon="13.95704926256912"><ele>2079.0</ele><time>2026-04-11T10:09:48Z</time></trkpt><trkpt lat="41.67692653621032" lon="13.95707507461029"><ele>2079.0</ele><time>2026-04-11T10:10:00Z</time></trkpt><trkpt lat="41.67686630650944" lon="13.957113747627599"><ele>2079.0</ele><time>2026-04-11T10:10:10Z</time></trkpt><trkpt lat="41.67682122593411" lon="13.957175201259064"><ele>2079.0</ele><time>2026-04-11T10:10:21Z</time></trkpt><trkpt lat="41.676759113928775" lon="13.957220278596337"><ele>2079.0</ele><time>2026-04-11T10:10:31Z</time></trkpt><trkpt lat="41.676695931141204" lon="13.957257929766227"><ele>2079.0</ele><time>2026-04-11T10:10:42Z</time></trkpt><trkpt lat="41.67663110131491" lon="13.957275829888404"><ele>2079.0</ele><time>2026-04-11T10:10:51Z</time></trkpt><trkpt lat="41.67656230120358" lon="13.957287963332003"><ele>2079.0</ele><time>2026-04-11T10:11:00.001Z</time></trkpt><trkpt lat="41.67649248573453" lon="13.957287446848966"><ele>2079.0</ele><time>2026-04-11T10:11:09.001Z</time></trkpt><trkpt lat="41.676460984764546" lon="13.957366585530663"><ele>2079.0</ele><time>2026-04-11T10:11:22.001Z</time></trkpt><trkpt lat="41.676440504958805" lon="13.957450984106238"><ele>2079.0</ele><time>2026-04-11T10:11:32.001Z</time></trkpt><trkpt lat="41.67640758673776" lon="13.957529492432043"><ele>2079.0</ele><time>2026-04-11T10:11:42.001Z</time></trkpt><trkpt lat="41.67636768733435" lon="13.957602270224747"><ele>2079.0</ele><time>2026-04-11T10:11:52Z</time></trkpt><trkpt lat="41.67632898853001" lon="13.957669378629898"><ele>2079.0</ele><time>2026-04-11T10:12:00Z</time></trkpt><trkpt lat="41.676289902832764" lon="13.957745493987751"><ele>2079.0</ele><time>2026-04-11T10:12:09Z</time></trkpt><trkpt lat="41.67624547238178" lon="13.957817384234078"><ele>2080.285714285714</ele><time>2026-04-11T10:12:19Z</time></trkpt><trkpt lat="41.67620886385143" lon="13.957891699051324"><ele>2081.5714285714284</ele><time>2026-04-11T10:12:29Z</time></trkpt><trkpt lat="41.676170893271184" lon="13.957961236065351"><ele>2082.857142857143</ele><time>2026-04-11T10:12:38Z</time></trkpt><trkpt lat="41.6761370878298" lon="13.958037222618351"><ele>2084.142857142857</ele><time>2026-04-11T10:12:48Z</time></trkpt><trkpt lat="41.676094503899726" lon="13.958106532236553"><ele>2085.4285714285716</ele><time>2026-04-11T10:12:57Z</time></trkpt><trkpt lat="41.67605387932972" lon="13.958179341463806"><ele>2086.714285714286</ele><time>2026-04-11T10:13:06Z</time></trkpt><trkpt lat="41.67602074618961" lon="13.958256043330103"><ele>2088.0</ele><time>2026-04-11T10:13:16.001Z</time></trkpt><trkpt lat="41.67598521527675" lon="13.958335192125276"><ele>2091.0</ele><time>2026-04-11T10:13:25.001Z</time></trkpt><trkpt lat="41.67595095222059" lon="13.95841369570678"><ele>2094.0</ele><time>2026-04-11T10:13:34.001Z</time></trkpt><trkpt lat="41.675911190223765" lon="13.958484440430093"><ele>2097.0</ele><time>2026-04-11T10:13:42.001Z</time></trkpt><trkpt lat="41.67586405349031" lon="13.958541799211625"><ele>2100.0</ele><time>2026-04-11T10:13:49.001Z</time></trkpt><trkpt lat="41.675811928296696" lon="13.958602024968739"><ele>2103.0</ele><time>2026-04-11T10:13:58Z</time></trkpt><trkpt lat="41.67575885942722" lon="13.958656275984051"><ele>2106.0</ele><time>2026-04-11T10:14:06Z</time></trkpt><trkpt lat="41.675705617535336" lon="13.958716481686611"><ele>2109.0</ele><time>2026-04-11T10:14:17Z</time></trkpt><trkpt lat="41.675655874583505" lon="13.958774020154758"><ele>2109.0</ele><time>2026-04-11T10:14:27Z</time></trkpt><trkpt lat="41.67560324952977" lon="13.95883132371853"><ele>2109.0</ele><time>2026-04-11T10:14:38Z</time></trkpt><trkpt lat="41.67555143132993" lon="13.958895032183536"><ele>2109.0</ele><time>2026-04-11T10:14:50Z</time></trkpt><trkpt lat="41.675504993285706" lon="13.95895733886476"><ele>2109.0</ele><time>2026-04-11T10:15:00Z</time></trkpt><trkpt lat="41.67545732527516" lon="13.959019437796389"><ele>2109.0</ele><time>2026-04-11T10:15:13Z</time></trkpt><trkpt lat="41.67540623411841" lon="13.95908125893354"><ele>2109.0</ele><time>2026-04-11T10:15:26.001Z</time></trkpt><trkpt lat="41.675357742012146" lon="13.959138865263643"><ele>2109.0</ele><time>2026-04-11T10:15:37.001Z</time></trkpt><trkpt lat="41.67530889219942" lon="13.959193877996194"><ele>2110.714285714286</ele><time>2026-04-11T10:15:48.001Z</time></trkpt><trkpt lat="41.675259113173" lon="13.959258915226473"><ele>2112.4285714285716</ele><time>2026-04-11T10:16:00.001Z</time></trkpt><trkpt lat="41.67520028590212" lon="13.95930601281042"><ele>2114.142857142857</ele><time>2026-04-11T10:16:12Z</time></trkpt><trkpt lat="41.67514978919315" lon="13.959361554084422"><ele>2115.857142857143</ele><time>2026-04-11T10:16:23Z</time></trkpt><trkpt lat="41.67514695486172" lon="13.959446852367298"><ele>2117.5714285714284</ele><time>2026-04-11T10:16:38Z</time></trkpt><trkpt lat="41.67518652075957" lon="13.959515310946582"><ele>2119.285714285714</ele><time>2026-04-11T10:16:52Z</time></trkpt><trkpt lat="41.67513819508255" lon="13.959574824678267"><ele>2121.0</ele><time>2026-04-11T10:17:07Z</time></trkpt><trkpt lat="41.67507490351312" lon="13.959607238677624"><ele>2121.0</ele><time>2026-04-11T10:17:18Z</time></trkpt><trkpt lat="41.675016243970155" lon="13.959641436577787"><ele>2121.0</ele><time>2026-04-11T10:17:28Z</time></trkpt><trkpt lat="41.67495949853847" lon="13.959683592927332"><ele>2121.0</ele><time>2026-04-11T10:17:39Z</time></trkpt><trkpt lat="41.674906569072455" lon="13.959732736909398"><ele>2121.0</ele><time>2026-04-11T10:17:50Z</time></trkpt><trkpt lat="41.67485178761193" lon="13.95978311983536"><ele>2121.0</ele><time>2026-04-11T10:18:02.001Z</time></trkpt><trkpt lat="41.67479566470625" lon="13.959823249614299"><ele>2121.0</ele><time>2026-04-11T10:18:13Z</time></trkpt><trkpt lat="41.674748927737596" lon="13.959886977590443"><ele>2121.0</ele><time>2026-04-11T10:18:25Z</time></trkpt><trkpt lat="41.67469842142857" lon="13.95995039551842"><ele>2121.0</ele><time>2026-04-11T10:18:38Z</time></trkpt><trkpt lat="41.67466653204342" lon="13.96002770473159"><ele>2121.0</ele><time>2026-04-11T10:18:51Z</time></trkpt><trkpt lat="41.67462989033583" lon="13.960105920399096"><ele>2121.0</ele><time>2026-04-11T10:19:04Z</time></trkpt><trkpt lat="41.67458235130688" lon="13.960163442968991"><ele>2121.0</ele><time>2026-04-11T10:19:16Z</time></trkpt><trkpt lat="41.674570193719454" lon="13.960246424915292"><ele>2121.0</ele><time>2026-04-11T10:19:34Z</time></trkpt><trkpt lat="41.674623753713355" lon="13.960294684840672"><ele>2121.0</ele><time>2026-04-11T10:19:50Z</time></trkpt><trkpt lat="41.67468109441986" lon="13.960331902797847"><ele>2121.0</ele><time>2026-04-11T10:20:04Z</time></trkpt><trkpt lat="41.67464670855697" lon="13.960408466318949"><ele>2122.1428571428573</ele><time>2026-04-11T10:20:20Z</time></trkpt><trkpt lat="41.67459344454769" lon="13.960457524128106"><ele>2123.285714285714</ele><time>2026-04-11T10:20:32Z</time></trkpt><trkpt lat="41.674550489706895" lon="13.96052321461074"><ele>2124.4285714285716</ele><time>2026-04-11T10:20:45Z</time></trkpt><trkpt lat="41.67451012707995" lon="13.960591942537727"><ele>2125.5714285714284</ele><time>2026-04-11T10:21:01Z</time></trkpt><trkpt lat="41.674483399789544" lon="13.960670643927868"><ele>2126.714285714286</ele><time>2026-04-11T10:21:13Z</time></trkpt><trkpt lat="41.67448277638155" lon="13.960759986556576"><ele>2127.857142857143</ele><time>2026-04-11T10:21:26Z</time></trkpt><trkpt lat="41.674468640059786" lon="13.960846786515638"><ele>2129.0</ele><time>2026-04-11T10:21:40Z</time></trkpt><trkpt lat="41.674452696869274" lon="13.960931772998721"><ele>2129.0000000000005</ele><time>2026-04-11T10:21:54Z</time></trkpt><trkpt lat="41.67450146806541" lon="13.960994898649338"><ele>2129.0</ele><time>2026-04-11T10:22:10Z</time></trkpt><trkpt lat="41.67456610361553" lon="13.961009848699907"><ele>2129.0</ele><time>2026-04-11T10:22:25Z</time></trkpt><trkpt lat="41.67463329382853" lon="13.961026266363213"><ele>2129.0</ele><time>2026-04-11T10:22:41Z</time></trkpt><trkpt lat="41.67464031298942" lon="13.961112282077986"><ele>2129.0</ele><time>2026-04-11T10:23:09Z</time></trkpt><trkpt lat="41.67460348068971" lon="13.961184949501225"><ele>2129.0000000000005</ele><time>2026-04-11T10:23:22Z</time></trkpt><trkpt lat="41.674694580867204" lon="13.961225480916973"><ele>2129.0</ele><time>2026-04-11T10:24:04Z</time></trkpt><trkpt lat="41.67475771803516" lon="13.9612198215193"><ele>2129.0</ele><time>2026-04-11T10:24:16Z</time></trkpt><trkpt lat="41.67473589587785" lon="13.961301947929151"><ele>2129.0</ele><time>2026-04-11T10:24:35Z</time></trkpt><trkpt lat="41.67477003928598" lon="13.96139061230369"><ele>2129.0</ele><time>2026-04-11T10:25:00Z</time></trkpt><trkpt lat="41.674686075167955" lon="13.961388037916839"><ele>2129.0</ele><time>2026-04-11T10:40:33Z</time></trkpt><trkpt lat="41.67461124270616" lon="13.961344061213794"><ele>2129.0</ele><time>2026-04-11T10:40:35Z</time></trkpt><trkpt lat="41.67453467110654" lon="13.961370373304758"><ele>2129.0</ele><time>2026-04-11T10:40:37Z</time></trkpt><trkpt lat="41.674452384969776" lon="13.961397187889293"><ele>2130.714285714286</ele><time>2026-04-11T10:40:39Z</time></trkpt><trkpt lat="41.67435011314133" lon="13.961363010114107"><ele>2132.4285714285716</ele><time>2026-04-11T10:40:41Z</time></trkpt><trkpt lat="41.67429628438838" lon="13.96131261955374"><ele>2134.142857142857</ele><time>2026-04-11T10:40:42Z</time></trkpt><trkpt lat="41.67423240939045" lon="13.961345152399423"><ele>2135.857142857143</ele><time>2026-04-11T10:40:43Z</time></trkpt><trkpt lat="41.6741689094239" lon="13.961359689280991"><ele>2137.5714285714284</ele><time>2026-04-11T10:40:44Z</time></trkpt><trkpt lat="41.674115388156004" lon="13.961301668009918"><ele>2139.285714285714</ele><time>2026-04-11T10:40:45Z</time></trkpt><trkpt lat="41.67405129610624" lon="13.961299971647556"><ele>2141.0</ele><time>2026-04-11T10:40:46Z</time></trkpt><trkpt lat="41.67399952769607" lon="13.96135981318141"><ele>2141.0</ele><time>2026-04-11T10:40:47Z</time></trkpt><trkpt lat="41.673913202086" lon="13.961253798846267"><ele>2141.0</ele><time>2026-04-11T10:40:49Z</time></trkpt><trkpt lat="41.67388845361647" lon="13.961171316355983"><ele>2141.0</ele><time>2026-04-11T10:40:50Z</time></trkpt><trkpt lat="41.67381556658123" lon="13.961087823997207"><ele>2141.0</ele><time>2026-04-11T10:40:52Z</time></trkpt><trkpt lat="41.67371950798074" lon="13.96115524672955"><ele>2141.0</ele><time>2026-04-11T10:40:54Z</time></trkpt><trkpt lat="41.673613266419586" lon="13.961072855341381"><ele>2136.6666666666665</ele><time>2026-04-11T10:40:56Z</time></trkpt><trkpt lat="41.67358459630166" lon="13.960993825385797"><ele>2132.333333333333</ele><time>2026-04-11T10:40:57Z</time></trkpt><trkpt lat="41.67352211611998" lon="13.960850740820819"><ele>2128.0</ele><time>2026-04-11T10:40:59Z</time></trkpt><trkpt lat="41.67347412282869" lon="13.960794131708305"><ele>2123.6666666666665</ele><time>2026-04-11T10:41:00Z</time></trkpt><trkpt lat="41.673411910172916" lon="13.960810417979763"><ele>2119.3333333333335</ele><time>2026-04-11T10:41:01Z</time></trkpt><trkpt lat="41.67334626834634" lon="13.960859256200418"><ele>2115.0</ele><time>2026-04-11T10:41:02Z</time></trkpt><trkpt lat="41.673276750033814" lon="13.960826956436163"><ele>2114.5</ele><time>2026-04-11T10:41:03Z</time></trkpt><trkpt lat="41.673170353641915" lon="13.960851630842528"><ele>2114.0</ele><time>2026-04-11T10:41:05Z</time></trkpt><trkpt lat="41.673085260687266" lon="13.960721287272015"><ele>2113.5</ele><time>2026-04-11T10:41:07Z</time></trkpt><trkpt lat="41.673109697347215" lon="13.96062991947811"><ele>2113.0</ele><time>2026-04-11T10:41:09Z</time></trkpt><trkpt lat="41.67300084295851" lon="13.960485536975408"><ele>2113.0</ele><time>2026-04-11T10:41:24Z</time></trkpt><trkpt lat="41.67299353343597" lon="13.960358832757226"><ele>2113.0</ele><time>2026-04-11T10:41:26Z</time></trkpt><trkpt lat="41.672984592133005" lon="13.960237521030034"><ele>2113.0</ele><time>2026-04-11T10:41:28Z</time></trkpt><trkpt lat="41.67290345378236" lon="13.960129725575285"><ele>2113.0</ele><time>2026-04-11T10:41:30Z</time></trkpt><trkpt lat="41.672824973084836" lon="13.960106784023152"><ele>2113.0</ele><time>2026-04-11T10:41:31Z</time></trkpt><trkpt lat="41.67279782516256" lon="13.960018734842787"><ele>2107.666666666667</ele><time>2026-04-11T10:41:32Z</time></trkpt><trkpt lat="41.672763472304936" lon="13.959924826902377"><ele>2102.3333333333335</ele><time>2026-04-11T10:41:33Z</time></trkpt><trkpt lat="41.67267689828383" lon="13.95986198609108"><ele>2097.0</ele><time>2026-04-11T10:41:34Z</time></trkpt><trkpt lat="41.67264039501637" lon="13.95976900020663"><ele>2091.6666666666665</ele><time>2026-04-11T10:41:35Z</time></trkpt><trkpt lat="41.67261529093648" lon="13.959660001772829"><ele>2086.333333333333</ele><time>2026-04-11T10:41:36Z</time></trkpt><trkpt lat="41.6725355283979" lon="13.959617479294872"><ele>2081.0</ele><time>2026-04-11T10:41:37Z</time></trkpt><trkpt lat="41.67245986519652" lon="13.95957190667175"><ele>2081.0</ele><time>2026-04-11T10:41:38Z</time></trkpt><trkpt lat="41.672435841696014" lon="13.959480592073623"><ele>2081.0</ele><time>2026-04-11T10:41:39Z</time></trkpt><trkpt lat="41.67249423997884" lon="13.959404922205652"><ele>2081.0</ele><time>2026-04-11T10:41:40Z</time></trkpt><trkpt lat="41.67252855869432" lon="13.959328243242778"><ele>2081.0</ele><time>2026-04-11T10:41:41Z</time></trkpt><trkpt lat="41.672455048890626" lon="13.959268898022202"><ele>2081.0</ele><time>2026-04-11T10:41:43Z</time></trkpt><trkpt lat="41.67244500562891" lon="13.959184730591481"><ele>2081.0</ele><time>2026-04-11T10:42:20Z</time></trkpt><trkpt lat="41.67246003793324" lon="13.95908976701662"><ele>2081.0</ele><time>2026-04-11T10:42:23Z</time></trkpt><trkpt lat="41.67245167841651" lon="13.958966447488818"><ele>2078.2</ele><time>2026-04-11T10:42:25Z</time></trkpt><trkpt lat="41.67239754588523" lon="13.958854379755644"><ele>2075.3999999999996</ele><time>2026-04-11T10:42:27Z</time></trkpt><trkpt lat="41.672320455653335" lon="13.958748159056755"><ele>2072.6</ele><time>2026-04-11T10:42:29Z</time></trkpt><trkpt lat="41.67223128204807" lon="13.958641206392192"><ele>2069.7999999999997</ele><time>2026-04-11T10:42:31Z</time></trkpt><trkpt lat="41.67219323874015" lon="13.958548196375608"><ele>2067.0</ele><time>2026-04-11T10:42:32Z</time></trkpt><trkpt lat="41.67212969071267" lon="13.958477672200033"><ele>2067.0</ele><time>2026-04-11T10:42:33Z</time></trkpt><trkpt lat="41.672103401157706" lon="13.958389614893889"><ele>2067.0</ele><time>2026-04-11T10:42:34Z</time></trkpt><trkpt lat="41.67209983950008" lon="13.958288161558436"><ele>2067.0</ele><time>2026-04-11T10:42:35Z</time></trkpt><trkpt lat="41.67206215854206" lon="13.958201486229456"><ele>2067.0</ele><time>2026-04-11T10:42:36Z</time></trkpt><trkpt lat="41.67205195858236" lon="13.958098393661796"><ele>2067.0</ele><time>2026-04-11T10:42:37Z</time></trkpt><trkpt lat="41.671990145296995" lon="13.9579837168577"><ele>2067.0</ele><time>2026-04-11T10:42:39Z</time></trkpt><trkpt lat="41.67189635586065" lon="13.957896286505946"><ele>2060.6</ele><time>2026-04-11T10:42:41Z</time></trkpt><trkpt lat="41.67187807288317" lon="13.957742222980087"><ele>2054.2</ele><time>2026-04-11T10:42:43Z</time></trkpt><trkpt lat="41.67185354041433" lon="13.95763902542032"><ele>2047.8</ele><time>2026-04-11T10:43:29Z</time></trkpt><trkpt lat="41.67178558542608" lon="13.957548465595513"><ele>2041.4</ele><time>2026-04-11T10:43:31Z</time></trkpt><trkpt lat="41.67168136821162" lon="13.95755802521422"><ele>2035.0</ele><time>2026-04-11T10:43:33Z</time></trkpt><trkpt lat="41.67165807561238" lon="13.957472605982622"><ele>2034.0</ele><time>2026-04-11T10:43:34Z</time></trkpt><trkpt lat="41.67155482338717" lon="13.957460538059244"><ele>2033.0</ele><time>2026-04-11T10:43:36Z</time></trkpt><trkpt lat="41.67147911080886" lon="13.957365735213662"><ele>2032.0</ele><time>2026-04-11T10:43:38Z</time></trkpt><trkpt lat="41.67139494482532" lon="13.95722511670907"><ele>2031.0</ele><time>2026-04-11T10:43:53Z</time></trkpt><trkpt lat="41.671375999884845" lon="13.957090772630991"><ele>2030.0</ele><time>2026-04-11T10:43:55Z</time></trkpt><trkpt lat="41.67134302604245" lon="13.956951230799453"><ele>2029.9999999999998</ele><time>2026-04-11T10:43:57Z</time></trkpt><trkpt lat="41.67128267546288" lon="13.95683409998713"><ele>2030.0</ele><time>2026-04-11T10:43:59Z</time></trkpt><trkpt lat="41.67123681245442" lon="13.956747239303876"><ele>2030.0</ele><time>2026-04-11T10:44:01Z</time></trkpt><trkpt lat="41.671204699719695" lon="13.956651574625118"><ele>2030.0</ele><time>2026-04-11T10:44:04Z</time></trkpt><trkpt lat="41.671178841845254" lon="13.956573477488911"><ele>2029.9999999999998</ele><time>2026-04-11T10:44:07Z</time></trkpt><trkpt lat="41.67116015877451" lon="13.956488112202132"><ele>2030.0</ele><time>2026-04-11T10:44:10Z</time></trkpt><trkpt lat="41.67115326697133" lon="13.956398288944927"><ele>2029.8</ele><time>2026-04-11T10:44:14Z</time></trkpt><trkpt lat="41.67114715231019" lon="13.956296274051041"><ele>2029.6</ele><time>2026-04-11T10:44:19Z</time></trkpt><trkpt lat="41.671159560741316" lon="13.956182803121402"><ele>2029.4</ele><time>2026-04-11T10:45:02Z</time></trkpt><trkpt lat="41.671158168348086" lon="13.956088010982606"><ele>2029.2</ele><time>2026-04-11T10:45:04Z</time></trkpt><trkpt lat="41.67116323464323" lon="13.955964519791868"><ele>2029.0</ele><time>2026-04-11T10:45:06Z</time></trkpt><trkpt lat="41.671156955521255" lon="13.9557941303697"><ele>2027.5000000000002</ele><time>2026-04-11T10:45:08Z</time></trkpt><trkpt lat="41.67115538158324" lon="13.9556358640227"><ele>2026.0</ele><time>2026-04-11T10:45:10Z</time></trkpt><trkpt lat="41.671153843908726" lon="13.95554717281724"><ele>2024.5</ele><time>2026-04-11T10:45:11Z</time></trkpt><trkpt lat="41.67115620145856" lon="13.955457676360897"><ele>2023.0</ele><time>2026-04-11T10:45:12Z</time></trkpt><trkpt lat="41.67115618451184" lon="13.955369797270842"><ele>2021.5000000000002</ele><time>2026-04-11T10:45:13Z</time></trkpt><trkpt lat="41.67115537970225" lon="13.955230289162332"><ele>2020.0</ele><time>2026-04-11T10:45:15Z</time></trkpt><trkpt lat="41.671152649886395" lon="13.955115261641891"><ele>2018.8333333333335</ele><time>2026-04-11T10:45:17Z</time></trkpt><trkpt lat="41.67114742573595" lon="13.955008983214436"><ele>2017.6666666666667</ele><time>2026-04-11T10:45:19Z</time></trkpt><trkpt lat="41.67113285033863" lon="13.954869668680049"><ele>2016.5</ele><time>2026-04-11T10:45:21Z</time></trkpt><trkpt lat="41.67112069021128" lon="13.954744647359146"><ele>2015.3333333333335</ele><time>2026-04-11T10:45:23Z</time></trkpt><trkpt lat="41.67111044397701" lon="13.95463403318794"><ele>2014.1666666666667</ele><time>2026-04-11T10:45:25Z</time></trkpt><trkpt lat="41.67110295915518" lon="13.954542091360384"><ele>2013.0</ele><time>2026-04-11T10:45:27Z</time></trkpt><trkpt lat="41.67110703788239" lon="13.954416979287917"><ele>2013.0</ele><time>2026-04-11T10:45:30Z</time></trkpt><trkpt lat="41.67111664943108" lon="13.95432817489339"><ele>2013.0000000000002</ele><time>2026-04-11T10:45:34Z</time></trkpt><trkpt lat="41.67109908445122" lon="13.954197340071659"><ele>2013.0000000000002</ele><time>2026-04-11T10:45:46Z</time></trkpt><trkpt lat="41.671087220674906" lon="13.954084130190294"><ele>2013.0</ele><time>2026-04-11T10:45:48Z</time></trkpt><trkpt lat="41.6710698294622" lon="13.953948776656004"><ele>2013.0</ele><time>2026-04-11T10:45:50Z</time></trkpt><trkpt lat="41.671046028290476" lon="13.953794352439358"><ele>2005.4</ele><time>2026-04-11T10:45:52Z</time></trkpt><trkpt lat="41.67102212775902" lon="13.953651953180414"><ele>1997.8000000000002</ele><time>2026-04-11T10:45:54Z</time></trkpt><trkpt lat="41.67098268756378" lon="13.953523157453505"><ele>1990.2</ele><time>2026-04-11T10:45:56Z</time></trkpt><trkpt lat="41.67092476435057" lon="13.953451785306674"><ele>1982.6</ele><time>2026-04-11T10:45:58Z</time></trkpt><trkpt lat="41.67080886983999" lon="13.953522366927116"><ele>1975.0</ele><time>2026-04-11T10:46:00Z</time></trkpt><trkpt lat="41.67071248705003" lon="13.953414960566878"><ele>1973.8</ele><time>2026-04-11T10:46:02Z</time></trkpt><trkpt lat="41.670700466969095" lon="13.953311134120785"><ele>1972.6</ele><time>2026-04-11T10:46:30Z</time></trkpt><trkpt lat="41.67062655493896" lon="13.953362353832006"><ele>1971.4</ele><time>2026-04-11T10:46:32Z</time></trkpt><trkpt lat="41.67053347738225" lon="13.953329634024447"><ele>1970.2</ele><time>2026-04-11T10:46:34Z</time></trkpt><trkpt lat="41.67045904927884" lon="13.953360172579066"><ele>1969.0</ele><time>2026-04-11T10:46:36Z</time></trkpt><trkpt lat="41.67039641638183" lon="13.953205923017492"><ele>1969.0000000000002</ele><time>2026-04-11T10:46:38Z</time></trkpt><trkpt lat="41.67036946738772" lon="13.953084340780492"><ele>1969.0</ele><time>2026-04-11T10:46:40Z</time></trkpt><trkpt lat="41.67034629268859" lon="13.952967880413503"><ele>1969.0</ele><time>2026-04-11T10:46:42Z</time></trkpt><trkpt lat="41.67028225148785" lon="13.952996126483459"><ele>1969.0</ele><time>2026-04-11T10:47:09Z</time></trkpt><trkpt lat="41.67024745973174" lon="13.95307072438556"><ele>1969.0000000000002</ele><time>2026-04-11T10:47:12Z</time></trkpt><trkpt lat="41.670180209138195" lon="13.953117578147111"><ele>1969.0</ele><time>2026-04-11T10:47:31Z</time></trkpt><trkpt lat="41.67010806431037" lon="13.953028603458865"><ele>1964.4285714285716</ele><time>2026-04-11T10:47:33Z</time></trkpt><trkpt lat="41.67002682328229" lon="13.953042561283285"><ele>1959.8571428571427</ele><time>2026-04-11T10:47:35Z</time></trkpt><trkpt lat="41.66995165836574" lon="13.953060321888005"><ele>1955.2857142857142</ele><time>2026-04-11T10:47:37Z</time></trkpt><trkpt lat="41.66990199648374" lon="13.952991989140715"><ele>1950.7142857142858</ele><time>2026-04-11T10:47:40Z</time></trkpt><trkpt lat="41.66985649687653" lon="13.953051373235729"><ele>1946.1428571428573</ele><time>2026-04-11T10:47:46Z</time></trkpt><trkpt lat="41.66985871813241" lon="13.953140940506866"><ele>1941.5714285714284</ele><time>2026-04-11T10:47:48Z</time></trkpt><trkpt lat="41.66980902057706" lon="13.953216467030623"><ele>1937.0</ele><time>2026-04-11T10:47:50Z</time></trkpt><trkpt lat="41.66974392005881" lon="13.953204896631764"><ele>1936.9999999999998</ele><time>2026-04-11T10:47:51Z</time></trkpt><trkpt lat="41.66967228472366" lon="13.953187818818291"><ele>1937.0</ele><time>2026-04-11T10:47:52Z</time></trkpt><trkpt lat="41.66959627342365" lon="13.95320823435435"><ele>1937.0</ele><time>2026-04-11T10:47:53Z</time></trkpt><trkpt lat="41.6695209227085" lon="13.953229370509973"><ele>1937.0</ele><time>2026-04-11T10:47:54Z</time></trkpt><trkpt lat="41.669454853711855" lon="13.95326221048523"><ele>1936.9999999999998</ele><time>2026-04-11T10:47:55Z</time></trkpt><trkpt lat="41.6693459063005" lon="13.953324175370629"><ele>1937.0</ele><time>2026-04-11T10:47:57Z</time></trkpt><trkpt lat="41.66923342506631" lon="13.953370961275166"><ele>1933.7142857142858</ele><time>2026-04-11T10:47:59Z</time></trkpt><trkpt lat="41.669169410320336" lon="13.953388378198792"><ele>1930.4285714285716</ele><time>2026-04-11T10:48:00Z</time></trkpt><trkpt lat="41.66909440841878" lon="13.953403130933312"><ele>1927.1428571428573</ele><time>2026-04-11T10:48:01Z</time></trkpt><trkpt lat="41.6690168800477" lon="13.953418651442616"><ele>1923.857142857143</ele><time>2026-04-11T10:48:02Z</time></trkpt><trkpt lat="41.6689492816814" lon="13.953418061842262"><ele>1920.571428571429</ele><time>2026-04-11T10:48:03Z</time></trkpt><trkpt lat="41.66887808452078" lon="13.953407638093687"><ele>1917.2857142857144</ele><time>2026-04-11T10:48:05Z</time></trkpt><trkpt lat="41.668814627025476" lon="13.953409834935805"><ele>1914.0</ele><time>2026-04-11T10:48:07Z</time></trkpt><trkpt lat="41.668743840997124" lon="13.953421693403481"><ele>1914.0</ele><time>2026-04-11T10:48:10Z</time></trkpt><trkpt lat="41.66867812296591" lon="13.953434605999735"><ele>1914.0</ele><time>2026-04-11T10:48:14Z</time></trkpt><trkpt lat="41.6686067309532" lon="13.953447268855893"><ele>1914.0</ele><time>2026-04-11T10:48:18Z</time></trkpt><trkpt lat="41.668540044258414" lon="13.953463381655297"><ele>1914.0</ele><time>2026-04-11T10:48:21Z</time></trkpt><trkpt lat="41.66846020769759" lon="13.953431353909696"><ele>1914.0</ele><time>2026-04-11T10:48:23Z</time></trkpt><trkpt lat="41.66836043461983" lon="13.953368881179173"><ele>1914.0</ele><time>2026-04-11T10:48:25Z</time></trkpt><trkpt lat="41.66828423115193" lon="13.95325100895773"><ele>1909.5</ele><time>2026-04-11T10:48:27Z</time></trkpt><trkpt lat="41.66824775281811" lon="13.95313923413051"><ele>1905.0</ele><time>2026-04-11T10:48:29Z</time></trkpt><trkpt lat="41.668197494215754" lon="13.95302828574366"><ele>1900.5</ele><time>2026-04-11T10:48:31Z</time></trkpt><trkpt lat="41.668118523426685" lon="13.952938254476148"><ele>1896.0</ele><time>2026-04-11T10:48:33Z</time></trkpt><trkpt lat="41.668063016120264" lon="13.952883786671391"><ele>1891.5</ele><time>2026-04-11T10:48:35Z</time></trkpt><trkpt lat="41.667989347776235" lon="13.95286574665138"><ele>1887.0</ele><time>2026-04-11T10:49:17Z</time></trkpt><trkpt lat="41.66789466038655" lon="13.95287801901248"><ele>1887.0</ele><time>2026-04-11T10:49:19Z</time></trkpt><trkpt lat="41.667824729775354" lon="13.95293365051766"><ele>1886.9999999999998</ele><time>2026-04-11T10:49:21Z</time></trkpt><trkpt lat="41.66770345763937" lon="13.952813767553147"><ele>1886.9999999999998</ele><time>2026-04-11T10:49:40Z</time></trkpt><trkpt lat="41.667701097664974" lon="13.952717022487457"><ele>1887.0</ele><time>2026-04-11T10:49:41Z</time></trkpt><trkpt lat="41.66770323440193" lon="13.952618713234216"><ele>1887.0</ele><time>2026-04-11T10:49:42Z</time></trkpt><trkpt lat="41.66765173148653" lon="13.952529107877174"><ele>1885.1666666666667</ele><time>2026-04-11T10:49:43Z</time></trkpt><trkpt lat="41.66755616007196" lon="13.952479597354925"><ele>1883.3333333333335</ele><time>2026-04-11T10:49:44Z</time></trkpt><trkpt lat="41.667451338133226" lon="13.952479203947805"><ele>1881.5</ele><time>2026-04-11T10:49:45Z</time></trkpt><trkpt lat="41.66736225533117" lon="13.952484361329825"><ele>1879.6666666666667</ele><time>2026-04-11T10:49:46Z</time></trkpt><trkpt lat="41.667279253577455" lon="13.952457978201553"><ele>1877.8333333333335</ele><time>2026-04-11T10:49:48Z</time></trkpt><trkpt lat="41.667215522610405" lon="13.952479007218917"><ele>1876.0</ele><time>2026-04-11T10:49:57Z</time></trkpt><trkpt lat="41.667179997203306" lon="13.95256929221542"><ele>1876.0000000000002</ele><time>2026-04-11T10:50:42Z</time></trkpt><trkpt lat="41.66709515878579" lon="13.952573327794594"><ele>1876.0</ele><time>2026-04-11T10:50:44Z</time></trkpt><trkpt lat="41.66700521206762" lon="13.952572172065237"><ele>1876.0</ele><time>2026-04-11T10:50:46Z</time></trkpt><trkpt lat="41.6669345832295" lon="13.952517243239573"><ele>1876.0</ele><time>2026-04-11T10:50:49Z</time></trkpt><trkpt lat="41.66685929742891" lon="13.952526413803113"><ele>1876.0000000000002</ele><time>2026-04-11T10:50:51Z</time></trkpt><trkpt lat="41.666780248371325" lon="13.952535559714255"><ele>1876.0</ele><time>2026-04-11T10:50:53Z</time></trkpt><trkpt lat="41.66668833849853" lon="13.952563115336986"><ele>1871.6666666666667</ele><time>2026-04-11T10:50:57Z</time></trkpt><trkpt lat="41.6666190779322" lon="13.952605047737242"><ele>1867.3333333333335</ele><time>2026-04-11T10:50:59Z</time></trkpt><trkpt lat="41.666539491034726" lon="13.9525480765637"><ele>1863.0</ele><time>2026-04-11T10:51:02Z</time></trkpt><trkpt lat="41.66647147391502" lon="13.952538754867895"><ele>1858.6666666666665</ele><time>2026-04-11T10:51:15Z</time></trkpt><trkpt lat="41.66641173648109" lon="13.95243905862132"><ele>1854.3333333333333</ele><time>2026-04-11T10:51:25Z</time></trkpt><trkpt lat="41.66641731747178" lon="13.952313781626145"><ele>1850.0</ele><time>2026-04-11T10:51:27Z</time></trkpt><trkpt lat="41.666295472642965" lon="13.952314405611132"><ele>1847.8333333333333</ele><time>2026-04-11T10:51:29Z</time></trkpt><trkpt lat="41.66624679753163" lon="13.952378230045483"><ele>1845.6666666666665</ele><time>2026-04-11T10:51:41Z</time></trkpt><trkpt lat="41.66617855127779" lon="13.95241890284767"><ele>1843.5</ele><time>2026-04-11T10:51:44Z</time></trkpt><trkpt lat="41.666096711808336" lon="13.952358473848541"><ele>1841.3333333333335</ele><time>2026-04-11T10:51:47Z</time></trkpt><trkpt lat="41.666002706530655" lon="13.952280971472588"><ele>1839.1666666666667</ele><time>2026-04-11T10:51:51Z</time></trkpt><trkpt lat="41.66594919238807" lon="13.952234498782527"><ele>1837.0</ele><time>2026-04-11T10:51:52Z</time></trkpt><trkpt lat="41.665857230505935" lon="13.952230211751779"><ele>1831.1666666666667</ele><time>2026-04-11T10:51:53Z</time></trkpt><trkpt lat="41.66580163514722" lon="13.952291382516798"><ele>1825.3333333333335</ele><time>2026-04-11T10:51:54Z</time></trkpt><trkpt lat="41.66572416943267" lon="13.952244359980181"><ele>1819.5</ele><time>2026-04-11T10:51:56Z</time></trkpt><trkpt lat="41.665746155035144" lon="13.952135433489563"><ele>1813.6666666666665</ele><time>2026-04-11T10:51:57Z</time></trkpt><trkpt lat="41.665639054856854" lon="13.952070968382577"><ele>1807.8333333333333</ele><time>2026-04-11T10:51:59Z</time></trkpt><trkpt lat="41.665579877237015" lon="13.952039875232694"><ele>1802.0</ele><time>2026-04-11T10:52:41Z</time></trkpt><trkpt lat="41.66553007881214" lon="13.951963292492268"><ele>1801.9999999999998</ele><time>2026-04-11T10:52:43Z</time></trkpt><trkpt lat="41.665439965144145" lon="13.951957124021462"><ele>1802.0</ele><time>2026-04-11T10:52:45Z</time></trkpt><trkpt lat="41.665439890829106" lon="13.95183940150873"><ele>1802.0</ele><time>2026-04-11T10:52:47Z</time></trkpt><trkpt lat="41.66539927470944" lon="13.95173813362167"><ele>1802.0</ele><time>2026-04-11T10:52:49Z</time></trkpt><trkpt lat="41.66532649927796" lon="13.951675637366016"><ele>1801.9999999999998</ele><time>2026-04-11T10:52:51Z</time></trkpt><trkpt lat="41.66523572437707" lon="13.951678756743455"><ele>1802.0</ele><time>2026-04-11T10:52:53Z</time></trkpt><trkpt lat="41.66516721787758" lon="13.951693990517034"><ele>1795.3333333333333</ele><time>2026-04-11T10:52:54Z</time></trkpt><trkpt lat="41.66510135336973" lon="13.951705841356025"><ele>1788.6666666666665</ele><time>2026-04-11T10:53:04Z</time></trkpt><trkpt lat="41.665041267279584" lon="13.951840598791213"><ele>1782.0</ele><time>2026-04-11T10:53:07Z</time></trkpt><trkpt lat="41.66498461140201" lon="13.951926259909362"><ele>1775.3333333333335</ele><time>2026-04-11T10:53:09Z</time></trkpt><trkpt lat="41.664901093899495" lon="13.95191997318006"><ele>1768.6666666666667</ele><time>2026-04-11T10:53:14Z</time></trkpt><trkpt lat="41.664850872009985" lon="13.952014906158293"><ele>1762.0</ele><time>2026-04-11T10:53:17Z</time></trkpt><trkpt lat="41.66476907656932" lon="13.952007300629994"><ele>1762.0</ele><time>2026-04-11T10:53:20Z</time></trkpt><trkpt lat="41.66469021942695" lon="13.951961972805579"><ele>1761.9999999999998</ele><time>2026-04-11T10:53:22Z</time></trkpt><trkpt lat="41.66461923181256" lon="13.951885979142592"><ele>1761.9999999999998</ele><time>2026-04-11T10:53:24Z</time></trkpt><trkpt lat="41.66455485841653" lon="13.951835150612848"><ele>1762.0</ele><time>2026-04-11T10:53:26Z</time></trkpt><trkpt lat="41.664608547969294" lon="13.9517282247284"><ele>1762.0</ele><time>2026-04-11T10:53:44Z</time></trkpt><trkpt lat="41.66453004111261" lon="13.951613314491858"><ele>1759.6666666666667</ele><time>2026-04-11T10:53:46Z</time></trkpt><trkpt lat="41.66453316704012" lon="13.951510510052739"><ele>1757.3333333333335</ele><time>2026-04-11T10:53:48Z</time></trkpt><trkpt lat="41.66446877753061" lon="13.951464701410377"><ele>1755.0</ele><time>2026-04-11T10:53:50Z</time></trkpt><trkpt lat="41.664457548693015" lon="13.951366047627516"><ele>1752.6666666666665</ele><time>2026-04-11T10:53:52Z</time></trkpt><trkpt lat="41.664420416218974" lon="13.951245362878572"><ele>1750.3333333333333</ele><time>2026-04-11T10:53:54Z</time></trkpt><trkpt lat="41.664392417087264" lon="13.951129582105382"><ele>1748.0</ele><time>2026-04-11T10:53:56Z</time></trkpt><trkpt lat="41.6643621794274" lon="13.951014569072795"><ele>1747.3333333333333</ele><time>2026-04-11T10:53:58Z</time></trkpt><trkpt lat="41.66435803642625" lon="13.950926020209007"><ele>1746.6666666666665</ele><time>2026-04-11T10:54:02Z</time></trkpt><trkpt lat="41.664291923740954" lon="13.95094180684654"><ele>1746.0</ele><time>2026-04-11T10:54:23Z</time></trkpt><trkpt lat="41.66425072618717" lon="13.950817222434196"><ele>1745.3333333333335</ele><time>2026-04-11T10:54:27Z</time></trkpt><trkpt lat="41.664203018829724" lon="13.950700551845456"><ele>1744.6666666666667</ele><time>2026-04-11T10:54:29Z</time></trkpt><trkpt lat="41.66413675269037" lon="13.950620291168764"><ele>1744.0</ele><time>2026-04-11T10:54:31Z</time></trkpt><trkpt lat="41.6640647607028" lon="13.950568867454281"><ele>1740.2</ele><time>2026-04-11T10:54:34Z</time></trkpt><trkpt lat="41.66395130998968" lon="13.950539072673095"><ele>1736.4</ele><time>2026-04-11T10:54:36Z</time></trkpt><trkpt lat="41.66388076320818" lon="13.950538002125846"><ele>1732.6</ele><time>2026-04-11T10:54:38Z</time></trkpt><trkpt lat="41.66378235724356" lon="13.950486337746877"><ele>1728.8</ele><time>2026-04-11T10:54:41Z</time></trkpt><trkpt lat="41.66372769706684" lon="13.950416888573335"><ele>1725.0</ele><time>2026-04-11T10:54:42Z</time></trkpt><trkpt lat="41.66365588142768" lon="13.950330432207014"><ele>1725.2857142857142</ele><time>2026-04-11T10:54:43Z</time></trkpt><trkpt lat="41.66359662148821" lon="13.950269179242401"><ele>1725.5714285714284</ele><time>2026-04-11T10:54:44Z</time></trkpt><trkpt lat="41.663581181448244" lon="13.950184673781592"><ele>1725.8571428571427</ele><time>2026-04-11T10:55:00Z</time></trkpt><trkpt lat="41.66357571582659" lon="13.950080850679702"><ele>1726.142857142857</ele><time>2026-04-11T10:55:02Z</time></trkpt><trkpt lat="41.66351023878251" lon="13.950046695816253"><ele>1726.4285714285716</ele><time>2026-04-11T10:55:07Z</time></trkpt><trkpt lat="41.66345450411397" lon="13.950003721537682"><ele>1726.7142857142856</ele><time>2026-04-11T10:55:31Z</time></trkpt><trkpt lat="41.66342903716995" lon="13.949915327344355"><ele>1727.0</ele><time>2026-04-11T10:56:08Z</time></trkpt><trkpt lat="41.66342360972466" lon="13.949808115061709"><ele>1722.9999999999998</ele><time>2026-04-11T10:56:15Z</time></trkpt><trkpt lat="41.66335903416087" lon="13.949795845442935"><ele>1719.0</ele><time>2026-04-11T10:56:39Z</time></trkpt><trkpt lat="41.663294836776565" lon="13.94971185689187"><ele>1715.0</ele><time>2026-04-11T10:56:45Z</time></trkpt><trkpt lat="41.66323932306492" lon="13.949667690760325"><ele>1711.0</ele><time>2026-04-11T10:56:47Z</time></trkpt><trkpt lat="41.66319965771665" lon="13.949589793770098"><ele>1706.9999999999998</ele><time>2026-04-11T10:56:49Z</time></trkpt><trkpt lat="41.66316560045177" lon="13.949494701222307"><ele>1703.0</ele><time>2026-04-11T10:56:52Z</time></trkpt><trkpt lat="41.663140269971066" lon="13.949384891185405"><ele>1702.9999999999998</ele><time>2026-04-11T10:56:55Z</time></trkpt><trkpt lat="41.66311677000234" lon="13.949270913396965"><ele>1703.0</ele><time>2026-04-11T10:57:03Z</time></trkpt><trkpt lat="41.663103152964446" lon="13.94918128178991"><ele>1703.0</ele><time>2026-04-11T10:57:05Z</time></trkpt><trkpt lat="41.663056603580905" lon="13.949063087552767"><ele>1703.0</ele><time>2026-04-11T10:57:07Z</time></trkpt><trkpt lat="41.66304046768736" lon="13.948942778933601"><ele>1702.9999999999998</ele><time>2026-04-11T10:57:09Z</time></trkpt><trkpt lat="41.66300595172618" lon="13.94886073696481"><ele>1703.0</ele><time>2026-04-11T10:57:11Z</time></trkpt><trkpt lat="41.662959027259554" lon="13.948776610135234"><ele>1700.3333333333333</ele><time>2026-04-11T10:57:15Z</time></trkpt><trkpt lat="41.6629045308317" lon="13.948702552627797"><ele>1697.6666666666665</ele><time>2026-04-11T10:57:18Z</time></trkpt><trkpt lat="41.662859350276115" lon="13.948638472501923"><ele>1695.0</ele><time>2026-04-11T10:57:20Z</time></trkpt><trkpt lat="41.6628050470023" lon="13.948567168809365"><ele>1692.3333333333335</ele><time>2026-04-11T10:57:25Z</time></trkpt><trkpt lat="41.66282222781464" lon="13.948439755120178"><ele>1689.6666666666667</ele><time>2026-04-11T10:57:28Z</time></trkpt><trkpt lat="41.66283051214514" lon="13.94835609165147"><ele>1687.0</ele><time>2026-04-11T10:57:29Z</time></trkpt><trkpt lat="41.66285148332512" lon="13.9481831173614"><ele>1684.6666666666667</ele><time>2026-04-11T10:57:31Z</time></trkpt><trkpt lat="41.662867590693004" lon="13.948075871949364"><ele>1682.3333333333335</ele><time>2026-04-11T10:57:33Z</time></trkpt><trkpt lat="41.662897729166275" lon="13.94798583673322"><ele>1680.0</ele><time>2026-04-11T10:57:37Z</time></trkpt><trkpt lat="41.662955871741616" lon="13.94790286308918"><ele>1677.6666666666665</ele><time>2026-04-11T10:57:40Z</time></trkpt><trkpt lat="41.66301129978388" lon="13.947822425759684"><ele>1675.3333333333333</ele><time>2026-04-11T10:57:43Z</time></trkpt><trkpt lat="41.66306976361147" lon="13.947751039707603"><ele>1673.0</ele><time>2026-04-11T10:57:46Z</time></trkpt><trkpt lat="41.66307878440818" lon="13.947664396588792"><ele>1673.0</ele><time>2026-04-11T10:57:50Z</time></trkpt><trkpt lat="41.66311364080879" lon="13.947590411227125"><ele>1673.0</ele><time>2026-04-11T10:58:13Z</time></trkpt><trkpt lat="41.66317018428178" lon="13.94754962502514"><ele>1673.0</ele><time>2026-04-11T10:58:17Z</time></trkpt><trkpt lat="41.66318392902783" lon="13.947464653906001"><ele>1673.0</ele><time>2026-04-11T10:58:20Z</time></trkpt><trkpt lat="41.66316513566878" lon="13.947381013969709"><ele>1673.0</ele><time>2026-04-11T10:58:29Z</time></trkpt><trkpt lat="41.663159541439114" lon="13.947291821591373"><ele>1673.0</ele><time>2026-04-11T10:58:36Z</time></trkpt><trkpt lat="41.66319360856648" lon="13.947183690452306"><ele>1673.0</ele><time>2026-04-11T10:58:40Z</time></trkpt><trkpt lat="41.66320524473651" lon="13.947098600670989"><ele>1670.142857142857</ele><time>2026-04-11T10:58:48Z</time></trkpt><trkpt lat="41.66325762330164" lon="13.947009124904143"><ele>1667.2857142857142</ele><time>2026-04-11T10:58:54Z</time></trkpt><trkpt lat="41.66328129151949" lon="13.94691238673208"><ele>1664.4285714285716</ele><time>2026-04-11T10:59:01Z</time></trkpt><trkpt lat="41.663293776146595" lon="13.946815855703765"><ele>1661.5714285714284</ele><time>2026-04-11T10:59:10Z</time></trkpt><trkpt lat="41.66328329631494" lon="13.946723640430804"><ele>1658.7142857142858</ele><time>2026-04-11T10:59:17Z</time></trkpt><trkpt lat="41.66327256673132" lon="13.946638317852063"><ele>1655.857142857143</ele><time>2026-04-11T10:59:31Z</time></trkpt><trkpt lat="41.66325615249524" lon="13.94654157305116"><ele>1653.0</ele><time>2026-04-11T10:59:39Z</time></trkpt><trkpt lat="41.66334298561829" lon="13.946524361627484"><ele>1651.1666666666667</ele><time>2026-04-11T10:59:43Z</time></trkpt><trkpt lat="41.66339135858901" lon="13.946409500621359"><ele>1649.3333333333335</ele><time>2026-04-11T10:59:47Z</time></trkpt><trkpt lat="41.66346106143456" lon="13.94631989558709"><ele>1647.5</ele><time>2026-04-11T10:59:49Z</time></trkpt><trkpt lat="41.66348690800607" lon="13.946231353485752"><ele>1645.6666666666667</ele><time>2026-04-11T10:59:51Z</time></trkpt><trkpt lat="41.66351063702211" lon="13.946127191996666"><ele>1643.8333333333335</ele><time>2026-04-11T10:59:54Z</time></trkpt><trkpt lat="41.66352573291972" lon="13.946037100782293"><ele>1642.0</ele><time>2026-04-11T10:59:56Z</time></trkpt><trkpt lat="41.663541818961704" lon="13.945935343754503"><ele>1641.3333333333335</ele><time>2026-04-11T10:59:58Z</time></trkpt><trkpt lat="41.66354164819049" lon="13.945829664798955"><ele>1640.6666666666667</ele><time>2026-04-11T11:00:01Z</time></trkpt><trkpt lat="41.66356844702841" lon="13.945729639450626"><ele>1640.0</ele><time>2026-04-11T11:00:05Z</time></trkpt><trkpt lat="41.663583363393876" lon="13.94560157375179"><ele>1639.3333333333335</ele><time>2026-04-11T11:00:08Z</time></trkpt><trkpt lat="41.66358374641458" lon="13.94551570227153"><ele>1638.6666666666667</ele><time>2026-04-11T11:00:10Z</time></trkpt><trkpt lat="41.6636163606926" lon="13.945414107301268"><ele>1638.0</ele><time>2026-04-11T11:00:13Z</time></trkpt><trkpt lat="41.663662285088876" lon="13.94532133647363"><ele>1638.0</ele><time>2026-04-11T11:00:31Z</time></trkpt><trkpt lat="41.66363103262586" lon="13.945218493712627"><ele>1638.0</ele><time>2026-04-11T11:02:02Z</time></trkpt><trkpt lat="41.6636241585448" lon="13.945133838484802"><ele>1638.0</ele><time>2026-04-11T11:02:54Z</time></trkpt><trkpt lat="41.663624248878016" lon="13.945047892553392"><ele>1638.0</ele><time>2026-04-11T11:03:17Z</time></trkpt><trkpt lat="41.66361088284745" lon="13.94495921353668"><ele>1638.0</ele><time>2026-04-11T11:03:30Z</time></trkpt><trkpt lat="41.663597163765964" lon="13.94486947568481"><ele>1638.0</ele><time>2026-04-11T11:03:43Z</time></trkpt><trkpt lat="41.663600493148735" lon="13.944783811487708"><ele>1638.0</ele><time>2026-04-11T11:03:56Z</time></trkpt><trkpt lat="41.66361883644532" lon="13.944695902839417"><ele>1636.5714285714287</ele><time>2026-04-11T11:04:07Z</time></trkpt><trkpt lat="41.66363056484515" lon="13.94460962586237"><ele>1635.142857142857</ele><time>2026-04-11T11:04:20Z</time></trkpt><trkpt lat="41.663656489768194" lon="13.94452725903694"><ele>1633.7142857142858</ele><time>2026-04-11T11:04:34Z</time></trkpt><trkpt lat="41.66366245544459" lon="13.944434901873791"><ele>1632.2857142857142</ele><time>2026-04-11T11:04:44Z</time></trkpt><trkpt lat="41.66367137925139" lon="13.944338453420198"><ele>1630.857142857143</ele><time>2026-04-11T11:04:51Z</time></trkpt><trkpt lat="41.66366188419563" lon="13.944237802062467"><ele>1629.4285714285716</ele><time>2026-04-11T11:04:55Z</time></trkpt><trkpt lat="41.663647862905805" lon="13.944134463568528"><ele>1628.0</ele><time>2026-04-11T11:04:58Z</time></trkpt><trkpt lat="41.66363215397751" lon="13.944034261004537"><ele>1627.4285714285716</ele><time>2026-04-11T11:05:01Z</time></trkpt><trkpt lat="41.66360373532952" lon="13.943932054389103"><ele>1626.857142857143</ele><time>2026-04-11T11:05:05Z</time></trkpt><trkpt lat="41.66355904910615" lon="13.943871631767673"><ele>1626.2857142857142</ele><time>2026-04-11T11:05:11Z</time></trkpt><trkpt lat="41.66350601664184" lon="13.943818756206317"><ele>1625.7142857142858</ele><time>2026-04-11T11:05:20Z</time></trkpt><trkpt lat="41.663448414008066" lon="13.943763256649135"><ele>1625.142857142857</ele><time>2026-04-11T11:05:35Z</time></trkpt><trkpt lat="41.66338973419065" lon="13.9436759157486"><ele>1624.5714285714287</ele><time>2026-04-11T11:05:41Z</time></trkpt><trkpt lat="41.66335610254078" lon="13.943604450238835"><ele>1624.0</ele><time>2026-04-11T11:05:44Z</time></trkpt><trkpt lat="41.663312866054156" lon="13.943517978347018"><ele>1624.0000000000002</ele><time>2026-04-11T11:05:48Z</time></trkpt><trkpt lat="41.663343770638754" lon="13.943435571136533"><ele>1624.0</ele><time>2026-04-11T11:05:50Z</time></trkpt><trkpt lat="41.663274408970416" lon="13.94334297992868"><ele>1624.0</ele><time>2026-04-11T11:05:53Z</time></trkpt><trkpt lat="41.66331046605515" lon="13.943260781424293"><ele>1624.0</ele><time>2026-04-11T11:05:56Z</time></trkpt><trkpt lat="41.66323955503294" lon="13.943201411561201"><ele>1624.0000000000002</ele><time>2026-04-11T11:06:00Z</time></trkpt><trkpt lat="41.66318358301633" lon="13.94313267215855"><ele>1624.0</ele><time>2026-04-11T11:06:03Z</time></trkpt><trkpt lat="41.663168428321065" lon="13.94304001571285"><ele>1621.857142857143</ele><time>2026-04-11T11:06:06Z</time></trkpt><trkpt lat="41.66311440968567" lon="13.942996602365673"><ele>1619.7142857142858</ele><time>2026-04-11T11:06:09Z</time></trkpt><trkpt lat="41.66305658562001" lon="13.9429312861369"><ele>1617.5714285714284</ele><time>2026-04-11T11:06:11Z</time></trkpt><trkpt lat="41.66303080076198" lon="13.942852805298283"><ele>1615.4285714285716</ele><time>2026-04-11T11:06:15Z</time></trkpt><trkpt lat="41.66300467969861" lon="13.942767163454109"><ele>1613.2857142857142</ele><time>2026-04-11T11:06:21Z</time></trkpt><trkpt lat="41.662961223708294" lon="13.942669635446144"><ele>1611.142857142857</ele><time>2026-04-11T11:06:27Z</time></trkpt><trkpt lat="41.66297852525039" lon="13.942575512245558"><ele>1609.0</ele><time>2026-04-11T11:06:33Z</time></trkpt><trkpt lat="41.66293390596184" lon="13.942462284840255"><ele>1606.8000000000002</ele><time>2026-04-11T11:06:37Z</time></trkpt><trkpt lat="41.66286871240299" lon="13.94241359286965"><ele>1604.6000000000001</ele><time>2026-04-11T11:06:39Z</time></trkpt><trkpt lat="41.66281312931705" lon="13.942336515122678"><ele>1602.4</ele><time>2026-04-11T11:06:41Z</time></trkpt><trkpt lat="41.662734105232055" lon="13.942239314772985"><ele>1600.2</ele><time>2026-04-11T11:06:43Z</time></trkpt><trkpt lat="41.662626665765934" lon="13.9421616381744"><ele>1598.0</ele><time>2026-04-11T11:06:45Z</time></trkpt><trkpt lat="41.6625397462655" lon="13.9421058835541"><ele>1598.0</ele><time>2026-04-11T11:06:47Z</time></trkpt><trkpt lat="41.66248306231915" lon="13.942060051960347"><ele>1598.0</ele><time>2026-04-11T11:06:49Z</time></trkpt><trkpt lat="41.662421840053526" lon="13.942005587690947"><ele>1598.0</ele><time>2026-04-11T11:06:59Z</time></trkpt><trkpt lat="41.66238919847261" lon="13.941920431182986"><ele>1598.0</ele><time>2026-04-11T11:07:10Z</time></trkpt><trkpt lat="41.662325039675494" lon="13.941863794367586"><ele>1598.0</ele><time>2026-04-11T11:07:15Z</time></trkpt><trkpt lat="41.66228196421786" lon="13.941775155243093"><ele>1598.0</ele><time>2026-04-11T11:07:25Z</time></trkpt><trkpt lat="41.66225438649054" lon="13.941685210916889"><ele>1598.0</ele><time>2026-04-11T11:07:36Z</time></trkpt><trkpt lat="41.66219614535565" lon="13.941627170536398"><ele>1594.5714285714287</ele><time>2026-04-11T11:07:40Z</time></trkpt><trkpt lat="41.6621559314764" lon="13.941546962063043"><ele>1591.142857142857</ele><time>2026-04-11T11:07:44Z</time></trkpt><trkpt lat="41.66209434537583" lon="13.941512473504556"><ele>1587.7142857142858</ele><time>2026-04-11T11:08:20Z</time></trkpt><trkpt lat="41.66202702697019" lon="13.94153480137332"><ele>1584.2857142857142</ele><time>2026-04-11T11:08:38Z</time></trkpt><trkpt lat="41.66196048603556" lon="13.941505521049592"><ele>1580.8571428571427</ele><time>2026-04-11T11:08:48Z</time></trkpt><trkpt lat="41.661903466254564" lon="13.941455858147993"><ele>1577.4285714285713</ele><time>2026-04-11T11:08:51Z</time></trkpt><trkpt lat="41.66182733810837" lon="13.941437497662854"><ele>1574.0</ele><time>2026-04-11T11:08:53Z</time></trkpt><trkpt lat="41.66179786464151" lon="13.941336984189656"><ele>1574.0</ele><time>2026-04-11T11:08:55Z</time></trkpt><trkpt lat="41.66171246579222" lon="13.94131781460262"><ele>1574.0</ele><time>2026-04-11T11:08:57Z</time></trkpt><trkpt lat="41.66166170668922" lon="13.94125817511854"><ele>1574.0</ele><time>2026-04-11T11:09:03Z</time></trkpt><trkpt lat="41.661638144296845" lon="13.94117678619906"><ele>1574.0</ele><time>2026-04-11T11:10:00Z</time></trkpt><trkpt lat="41.66158012153128" lon="13.941127854342579"><ele>1574.0</ele><time>2026-04-11T11:10:12Z</time></trkpt><trkpt lat="41.661518449240965" lon="13.941100297385335"><ele>1574.0</ele><time>2026-04-11T11:10:24Z</time></trkpt><trkpt lat="41.66147161250913" lon="13.94104227227658"><ele>1574.0</ele><time>2026-04-11T11:10:35Z</time></trkpt><trkpt lat="41.66140475863414" lon="13.941005032068434"><ele>1574.0</ele><time>2026-04-11T11:10:47Z</time></trkpt><trkpt lat="41.661343890026046" lon="13.940964606275058"><ele>1574.0</ele><time>2026-04-11T11:10:57Z</time></trkpt><trkpt lat="41.66130097153053" lon="13.940895723357603"><ele>1574.0</ele><time>2026-04-11T11:11:08Z</time></trkpt><trkpt lat="41.6612394557304" lon="13.940872180271718"><ele>1574.0</ele><time>2026-04-11T11:11:15Z</time></trkpt><trkpt lat="41.66119643015935" lon="13.9408050425288"><ele>1574.0</ele><time>2026-04-11T11:12:21Z</time></trkpt><trkpt lat="41.66115334498043" lon="13.940741409788766"><ele>1574.0</ele><time>2026-04-11T11:12:39Z</time></trkpt><trkpt lat="41.661114522882094" lon="13.9406722403359"><ele>1574.0</ele><time>2026-04-11T11:12:56Z</time></trkpt><trkpt lat="41.66107231866538" lon="13.940595501529339"><ele>1569.0</ele><time>2026-04-11T11:13:03Z</time></trkpt><trkpt lat="41.66101259652869" lon="13.940537549305127"><ele>1564.0</ele><time>2026-04-11T11:13:10Z</time></trkpt><trkpt lat="41.66095169149592" lon="13.94048445037322"><ele>1559.0</ele><time>2026-04-11T11:13:17Z</time></trkpt><trkpt lat="41.66088421680307" lon="13.940475718839567"><ele>1554.0</ele><time>2026-04-11T11:13:24Z</time></trkpt><trkpt lat="41.66082416616645" lon="13.940427910101022"><ele>1549.0</ele><time>2026-04-11T11:13:30Z</time></trkpt><trkpt lat="41.6607620226535" lon="13.940390891746366"><ele>1544.0</ele><time>2026-04-11T11:13:36Z</time></trkpt><trkpt lat="41.66072362641962" lon="13.940321158670194"><ele>1539.0</ele><time>2026-04-11T11:13:42Z</time></trkpt><trkpt lat="41.660669838103345" lon="13.940267938803181"><ele>1539.0</ele><time>2026-04-11T11:13:48Z</time></trkpt><trkpt lat="41.660641847178596" lon="13.940191085193677"><ele>1539.0</ele><time>2026-04-11T11:13:55Z</time></trkpt><trkpt lat="41.66061927214539" lon="13.940105649469215"><ele>1539.0</ele><time>2026-04-11T11:14:02Z</time></trkpt><trkpt lat="41.66061635883659" lon="13.940003776062445"><ele>1539.0</ele><time>2026-04-11T11:14:10Z</time></trkpt><trkpt lat="41.6606250862937" lon="13.939916455419432"><ele>1539.0</ele><time>2026-04-11T11:14:16Z</time></trkpt><trkpt lat="41.66062962741263" lon="13.93982625427985"><ele>1539.0</ele><time>2026-04-11T11:14:22Z</time></trkpt><trkpt lat="41.66064384655687" lon="13.939742975423398"><ele>1539.0</ele><time>2026-04-11T11:14:28Z</time></trkpt><trkpt lat="41.660665014031345" lon="13.939655274179023"><ele>1536.7142857142858</ele><time>2026-04-11T11:14:34Z</time></trkpt><trkpt lat="41.66067092543288" lon="13.939563045489406"><ele>1534.4285714285713</ele><time>2026-04-11T11:14:39Z</time></trkpt><trkpt lat="41.66067587318798" lon="13.939477705132115"><ele>1532.1428571428573</ele><time>2026-04-11T11:14:44Z</time></trkpt><trkpt lat="41.660672318878774" lon="13.939385620311924"><ele>1529.857142857143</ele><time>2026-04-11T11:14:50Z</time></trkpt><trkpt lat="41.66067965026244" lon="13.939300132482819"><ele>1527.5714285714287</ele><time>2026-04-11T11:14:56Z</time></trkpt><trkpt lat="41.66067592889398" lon="13.939205278390526"><ele>1525.2857142857144</ele><time>2026-04-11T11:15:02Z</time></trkpt><trkpt lat="41.66066920363298" lon="13.939114027290834"><ele>1523.0</ele><time>2026-04-11T11:15:07Z</time></trkpt><trkpt lat="41.660672352889144" lon="13.939017491851459"><ele>1522.857142857143</ele><time>2026-04-11T11:15:13Z</time></trkpt><trkpt lat="41.66067467285387" lon="13.938916300350476"><ele>1522.7142857142858</ele><time>2026-04-11T11:15:19Z</time></trkpt><trkpt lat="41.66067281475465" lon="13.938819622588747"><ele>1522.5714285714284</ele><time>2026-04-11T11:15:25Z</time></trkpt><trkpt lat="41.66066752354344" lon="13.938731395287007"><ele>1522.4285714285716</ele><time>2026-04-11T11:15:30Z</time></trkpt><trkpt lat="41.660668529797135" lon="13.93863109751656"><ele>1522.2857142857142</ele><time>2026-04-11T11:15:35Z</time></trkpt><trkpt lat="41.66069271874642" lon="13.938552973412579"><ele>1522.142857142857</ele><time>2026-04-11T11:15:40Z</time></trkpt><trkpt lat="41.66069704426166" lon="13.938460264813296"><ele>1522.0</ele><time>2026-04-11T11:15:46Z</time></trkpt><trkpt lat="41.660674553520046" lon="13.938372073008022"><ele>1521.7142857142856</ele><time>2026-04-11T11:15:52Z</time></trkpt><trkpt lat="41.66065013395447" lon="13.938289979397387"><ele>1521.4285714285713</ele><time>2026-04-11T11:15:57Z</time></trkpt><trkpt lat="41.66063622780589" lon="13.938207629102747"><ele>1521.142857142857</ele><time>2026-04-11T11:16:02Z</time></trkpt><trkpt lat="41.660616310628754" lon="13.93812341250077"><ele>1520.8571428571427</ele><time>2026-04-11T11:16:08Z</time></trkpt><trkpt lat="41.66061555490687" lon="13.93803887469356"><ele>1520.5714285714287</ele><time>2026-04-11T11:16:16Z</time></trkpt><trkpt lat="41.66063245073594" lon="13.937946960598273"><ele>1520.2857142857142</ele><time>2026-04-11T11:16:33Z</time></trkpt><trkpt lat="41.66060625106673" lon="13.937858113707684"><ele>1520.0</ele><time>2026-04-11T11:16:40Z</time></trkpt><trkpt lat="41.66057799729591" lon="13.93777928216995"><ele>1520.0</ele><time>2026-04-11T11:16:47Z</time></trkpt><trkpt lat="41.66056310379405" lon="13.937690928037462"><ele>1520.0</ele><time>2026-04-11T11:16:55Z</time></trkpt><trkpt lat="41.66055904045083" lon="13.93760289973336"><ele>1520.0</ele><time>2026-04-11T11:17:04Z</time></trkpt><trkpt lat="41.660474108111174" lon="13.93750814880138"><ele>1520.0</ele><time>2026-04-11T11:17:24Z</time></trkpt><trkpt lat="41.6604268767846" lon="13.93744137868493"><ele>1520.0</ele><time>2026-04-11T11:17:41Z</time></trkpt><trkpt lat="41.66041056639212" lon="13.937351804388575"><ele>1520.0</ele><time>2026-04-11T11:17:50Z</time></trkpt><trkpt lat="41.66038830469293" lon="13.93726640033808"><ele>1520.0</ele><time>2026-04-11T11:17:57Z</time></trkpt><trkpt lat="41.66033839396105" lon="13.93720873691028"><ele>1519.142857142857</ele><time>2026-04-11T11:18:03Z</time></trkpt><trkpt lat="41.6603054201052" lon="13.937127174932918"><ele>1518.2857142857142</ele><time>2026-04-11T11:18:10Z</time></trkpt><trkpt lat="41.66029291967995" lon="13.937043453982605"><ele>1517.4285714285716</ele><time>2026-04-11T11:18:15Z</time></trkpt><trkpt lat="41.660268224405165" lon="13.936957617656901"><ele>1516.5714285714284</ele><time>2026-04-11T11:18:21Z</time></trkpt><trkpt lat="41.66025201456192" lon="13.936869515559515"><ele>1515.7142857142856</ele><time>2026-04-11T11:18:27Z</time></trkpt><trkpt lat="41.66020523965219" lon="13.936785753158077"><ele>1514.857142857143</ele><time>2026-04-11T11:18:33Z</time></trkpt><trkpt lat="41.66015903704716" lon="13.936709352952715"><ele>1514.0</ele><time>2026-04-11T11:18:39Z</time></trkpt><trkpt lat="41.66015871892484" lon="13.936618355788077"><ele>1510.4285714285716</ele><time>2026-04-11T11:18:45Z</time></trkpt><trkpt lat="41.660136866338064" lon="13.93653660675338"><ele>1506.8571428571427</ele><time>2026-04-11T11:18:51Z</time></trkpt><trkpt lat="41.66012800777995" lon="13.936446819290728"><ele>1503.2857142857142</ele><time>2026-04-11T11:18:57Z</time></trkpt><trkpt lat="41.6601239788783" lon="13.936361855135713"><ele>1499.7142857142858</ele><time>2026-04-11T11:19:03Z</time></trkpt><trkpt lat="41.66010656266195" lon="13.936275888712906"><ele>1496.1428571428573</ele><time>2026-04-11T11:19:08Z</time></trkpt><trkpt lat="41.6600904324957" lon="13.936191535443532"><ele>1492.5714285714284</ele><time>2026-04-11T11:19:16Z</time></trkpt><trkpt lat="41.66007087046945" lon="13.936110106836098"><ele>1489.0</ele><time>2026-04-11T11:19:21Z</time></trkpt><trkpt lat="41.6600625062528" lon="13.936023907567478"><ele>1489.0</ele><time>2026-04-11T11:19:26Z</time></trkpt><trkpt lat="41.66004991016211" lon="13.93593174242412"><ele>1489.0</ele><time>2026-04-11T11:19:31Z</time></trkpt><trkpt lat="41.66003966009368" lon="13.935845173463612"><ele>1489.0</ele><time>2026-04-11T11:19:37Z</time></trkpt><trkpt lat="41.66001762052958" lon="13.935755881099828"><ele>1489.0</ele><time>2026-04-11T11:19:44Z</time></trkpt><trkpt lat="41.660018850569195" lon="13.935670235078156"><ele>1489.0</ele><time>2026-04-11T11:19:50Z</time></trkpt><trkpt lat="41.660011897424845" lon="13.935582623978963"><ele>1489.0</ele><time>2026-04-11T11:19:56Z</time></trkpt><trkpt lat="41.660012703082096" lon="13.935489722119291"><ele>1489.0</ele><time>2026-04-11T11:20:02Z</time></trkpt><trkpt lat="41.660001817538145" lon="13.935405088851509"><ele>1477.0</ele><time>2026-04-11T11:20:08Z</time></trkpt><trkpt lat="41.65997358302502" lon="13.935314913818344"><ele>1477.0</ele><time>2026-04-11T11:20:15Z</time></trkpt><trkpt lat="41.659959565038456" lon="13.935231908238555"><ele>1477.0</ele><time>2026-04-11T11:20:21Z</time></trkpt><trkpt lat="41.65993702501623" lon="13.935145235223281"><ele>1477.0</ele><time>2026-04-11T11:20:27Z</time></trkpt><trkpt lat="41.65992149943838" lon="13.935051901921051"><ele>1466.0</ele><time>2026-04-11T11:20:33Z</time></trkpt></trkseg></trk></gpx>